<?xml version="1.0" encoding="UTF-8" standalone="no" ?>
<gpx xmlns="http://www.topografix.com/GPX/1/1" xmlns:xsi="http://www.w3.org/2001/XMLSchema-instance" xsi:schemaLocation="http://www.topografix.com/GPX/1/1 http://www.topografix.com/GPX/1/1/gpx.xsd" version="1.1" creator="VisuGPX - https://www.visugpx.com">
  <metadata>
    <name>2011-10 Départ PRADONS ARDECHE</name>
    <desc><![CDATA[rando entre pote faite au départ de Pradons pour rejoindre la rando organisée par Vallon pont d\'arc]]></desc>
  </metadata>
  <trk>
    <name><![CDATA[2011.10 PRADONS]]></name>
    <trkseg>
      <trkpt lat="44.4762" lon="4.36095">
        <ele>157</ele>
        <time>2011-10-23T11:39:07.000Z</time>
      </trkpt>
      <trkpt lat="44.47621" lon="4.36106">
        <ele>150</ele>
        <time>2011-10-23T11:39:43.000Z</time>
      </trkpt>
      <trkpt lat="44.47625" lon="4.36112">
        <ele>150</ele>
        <time>2011-10-23T11:39:50.000Z</time>
      </trkpt>
      <trkpt lat="44.47621" lon="4.3613">
        <ele>149</ele>
        <time>2011-10-23T11:39:59.000Z</time>
      </trkpt>
      <trkpt lat="44.47603" lon="4.36146">
        <ele>152</ele>
        <time>2011-10-23T11:40:12.000Z</time>
      </trkpt>
      <trkpt lat="44.47597" lon="4.3614">
        <ele>154</ele>
        <time>2011-10-23T11:40:16.000Z</time>
      </trkpt>
      <trkpt lat="44.47593" lon="4.36131">
        <ele>156</ele>
        <time>2011-10-23T11:40:19.000Z</time>
      </trkpt>
      <trkpt lat="44.47589" lon="4.36124">
        <ele>157</ele>
        <time>2011-10-23T11:40:21.000Z</time>
      </trkpt>
      <trkpt lat="44.47559" lon="4.36073">
        <ele>158</ele>
        <time>2011-10-23T11:40:34.000Z</time>
      </trkpt>
      <trkpt lat="44.47557" lon="4.36069">
        <ele>158</ele>
        <time>2011-10-23T11:40:35.000Z</time>
      </trkpt>
      <trkpt lat="44.47527" lon="4.36017">
        <ele>157</ele>
        <time>2011-10-23T11:40:47.000Z</time>
      </trkpt>
      <trkpt lat="44.47524" lon="4.36013">
        <ele>157</ele>
        <time>2011-10-23T11:40:48.000Z</time>
      </trkpt>
      <trkpt lat="44.47494" lon="4.35963">
        <ele>156</ele>
        <time>2011-10-23T11:40:59.000Z</time>
      </trkpt>
      <trkpt lat="44.47491" lon="4.35958">
        <ele>156</ele>
        <time>2011-10-23T11:41:00.000Z</time>
      </trkpt>
      <trkpt lat="44.4746" lon="4.3591">
        <ele>155</ele>
        <time>2011-10-23T11:41:10.000Z</time>
      </trkpt>
      <trkpt lat="44.47457" lon="4.35905">
        <ele>155</ele>
        <time>2011-10-23T11:41:11.000Z</time>
      </trkpt>
      <trkpt lat="44.47447" lon="4.35894">
        <ele>155</ele>
        <time>2011-10-23T11:41:14.000Z</time>
      </trkpt>
      <trkpt lat="44.47439" lon="4.35897">
        <ele>156</ele>
        <time>2011-10-23T11:41:16.000Z</time>
      </trkpt>
      <trkpt lat="44.47433" lon="4.35905">
        <ele>157</ele>
        <time>2011-10-23T11:41:18.000Z</time>
      </trkpt>
      <trkpt lat="44.47421" lon="4.35922">
        <ele>159</ele>
        <time>2011-10-23T11:41:22.000Z</time>
      </trkpt>
      <trkpt lat="44.47414" lon="4.35936">
        <ele>161</ele>
        <time>2011-10-23T11:41:25.000Z</time>
      </trkpt>
      <trkpt lat="44.47383" lon="4.35988">
        <ele>165</ele>
        <time>2011-10-23T11:41:37.000Z</time>
      </trkpt>
      <trkpt lat="44.47381" lon="4.35991">
        <ele>165</ele>
        <time>2011-10-23T11:41:38.000Z</time>
      </trkpt>
      <trkpt lat="44.47346" lon="4.36036">
        <ele>166</ele>
        <time>2011-10-23T11:41:51.000Z</time>
      </trkpt>
      <trkpt lat="44.47344" lon="4.3604">
        <ele>166</ele>
        <time>2011-10-23T11:41:52.000Z</time>
      </trkpt>
      <trkpt lat="44.4734" lon="4.36049">
        <ele>166</ele>
        <time>2011-10-23T11:41:55.000Z</time>
      </trkpt>
      <trkpt lat="44.47343" lon="4.36058">
        <ele>166</ele>
        <time>2011-10-23T11:41:57.000Z</time>
      </trkpt>
      <trkpt lat="44.47365" lon="4.36117">
        <ele>163</ele>
        <time>2011-10-23T11:42:10.000Z</time>
      </trkpt>
      <trkpt lat="44.47367" lon="4.36122">
        <ele>162</ele>
        <time>2011-10-23T11:42:11.000Z</time>
      </trkpt>
      <trkpt lat="44.4739" lon="4.36179">
        <ele>161</ele>
        <time>2011-10-23T11:42:22.000Z</time>
      </trkpt>
      <trkpt lat="44.47392" lon="4.36184">
        <ele>161</ele>
        <time>2011-10-23T11:42:23.000Z</time>
      </trkpt>
      <trkpt lat="44.47394" lon="4.36194">
        <ele>161</ele>
        <time>2011-10-23T11:42:25.000Z</time>
      </trkpt>
      <trkpt lat="44.47393" lon="4.36204">
        <ele>161</ele>
        <time>2011-10-23T11:42:27.000Z</time>
      </trkpt>
      <trkpt lat="44.47389" lon="4.36213">
        <ele>162</ele>
        <time>2011-10-23T11:42:29.000Z</time>
      </trkpt>
      <trkpt lat="44.47384" lon="4.36221">
        <ele>162</ele>
        <time>2011-10-23T11:42:31.000Z</time>
      </trkpt>
      <trkpt lat="44.47378" lon="4.36228">
        <ele>162</ele>
        <time>2011-10-23T11:42:33.000Z</time>
      </trkpt>
      <trkpt lat="44.47352" lon="4.36269">
        <ele>165</ele>
        <time>2011-10-23T11:42:44.000Z</time>
      </trkpt>
      <trkpt lat="44.47347" lon="4.3629">
        <ele>166</ele>
        <time>2011-10-23T11:42:50.000Z</time>
      </trkpt>
      <trkpt lat="44.47341" lon="4.36296">
        <ele>167</ele>
        <time>2011-10-23T11:42:54.000Z</time>
      </trkpt>
      <trkpt lat="44.47294" lon="4.36294">
        <ele>175</ele>
        <time>2011-10-23T11:43:10.000Z</time>
      </trkpt>
      <trkpt lat="44.4729" lon="4.36294">
        <ele>175</ele>
        <time>2011-10-23T11:43:11.000Z</time>
      </trkpt>
      <trkpt lat="44.47243" lon="4.3629">
        <ele>178</ele>
        <time>2011-10-23T11:43:25.000Z</time>
      </trkpt>
      <trkpt lat="44.47241" lon="4.36289">
        <ele>177</ele>
        <time>2011-10-23T11:43:26.000Z</time>
      </trkpt>
      <trkpt lat="44.47236" lon="4.36292">
        <ele>177</ele>
        <time>2011-10-23T11:43:28.000Z</time>
      </trkpt>
      <trkpt lat="44.47232" lon="4.36302">
        <ele>177</ele>
        <time>2011-10-23T11:43:32.000Z</time>
      </trkpt>
      <trkpt lat="44.4723" lon="4.36313">
        <ele>176</ele>
        <time>2011-10-23T11:43:36.000Z</time>
      </trkpt>
      <trkpt lat="44.47228" lon="4.36329">
        <ele>176</ele>
        <time>2011-10-23T11:43:42.000Z</time>
      </trkpt>
      <trkpt lat="44.47226" lon="4.36345">
        <ele>177</ele>
        <time>2011-10-23T11:43:48.000Z</time>
      </trkpt>
      <trkpt lat="44.47216" lon="4.36376">
        <ele>178</ele>
        <time>2011-10-23T11:44:00.000Z</time>
      </trkpt>
      <trkpt lat="44.4721" lon="4.36392">
        <ele>179</ele>
        <time>2011-10-23T11:44:06.000Z</time>
      </trkpt>
      <trkpt lat="44.47195" lon="4.3643">
        <ele>179</ele>
        <time>2011-10-23T11:44:19.000Z</time>
      </trkpt>
      <trkpt lat="44.47173" lon="4.36487">
        <ele>186</ele>
        <time>2011-10-23T11:44:39.000Z</time>
      </trkpt>
      <trkpt lat="44.47171" lon="4.3649">
        <ele>186</ele>
        <time>2011-10-23T11:44:40.000Z</time>
      </trkpt>
      <trkpt lat="44.47151" lon="4.36546">
        <ele>192</ele>
        <time>2011-10-23T11:44:59.000Z</time>
      </trkpt>
      <trkpt lat="44.4715" lon="4.36549">
        <ele>193</ele>
        <time>2011-10-23T11:45:00.000Z</time>
      </trkpt>
      <trkpt lat="44.47147" lon="4.36558">
        <ele>193</ele>
        <time>2011-10-23T11:45:03.000Z</time>
      </trkpt>
      <trkpt lat="44.47142" lon="4.36577">
        <ele>195</ele>
        <time>2011-10-23T11:45:09.000Z</time>
      </trkpt>
      <trkpt lat="44.47136" lon="4.36603">
        <ele>196</ele>
        <time>2011-10-23T11:45:16.000Z</time>
      </trkpt>
      <trkpt lat="44.47126" lon="4.36655">
        <ele>201</ele>
        <time>2011-10-23T11:45:30.000Z</time>
      </trkpt>
      <trkpt lat="44.47127" lon="4.36667">
        <ele>202</ele>
        <time>2011-10-23T11:45:33.000Z</time>
      </trkpt>
      <trkpt lat="44.47129" lon="4.36711">
        <ele>204</ele>
        <time>2011-10-23T11:45:43.000Z</time>
      </trkpt>
      <trkpt lat="44.47126" lon="4.36719">
        <ele>204</ele>
        <time>2011-10-23T11:45:45.000Z</time>
      </trkpt>
      <trkpt lat="44.47098" lon="4.36769">
        <ele>202</ele>
        <time>2011-10-23T11:46:00.000Z</time>
      </trkpt>
      <trkpt lat="44.47096" lon="4.36772">
        <ele>202</ele>
        <time>2011-10-23T11:46:01.000Z</time>
      </trkpt>
      <trkpt lat="44.47076" lon="4.36804">
        <ele>205</ele>
        <time>2011-10-23T11:46:13.000Z</time>
      </trkpt>
      <trkpt lat="44.47044" lon="4.3685">
        <ele>207</ele>
        <time>2011-10-23T11:46:27.000Z</time>
      </trkpt>
      <trkpt lat="44.47041" lon="4.36854">
        <ele>207</ele>
        <time>2011-10-23T11:46:28.000Z</time>
      </trkpt>
      <trkpt lat="44.4701" lon="4.36903">
        <ele>209</ele>
        <time>2011-10-23T11:46:42.000Z</time>
      </trkpt>
      <trkpt lat="44.47008" lon="4.36906">
        <ele>209</ele>
        <time>2011-10-23T11:46:43.000Z</time>
      </trkpt>
      <trkpt lat="44.47" lon="4.36919">
        <ele>210</ele>
        <time>2011-10-23T11:46:47.000Z</time>
      </trkpt>
      <trkpt lat="44.46994" lon="4.36931">
        <ele>210</ele>
        <time>2011-10-23T11:46:51.000Z</time>
      </trkpt>
      <trkpt lat="44.4697" lon="4.36987">
        <ele>207</ele>
        <time>2011-10-23T11:47:07.000Z</time>
      </trkpt>
      <trkpt lat="44.46969" lon="4.36991">
        <ele>207</ele>
        <time>2011-10-23T11:47:08.000Z</time>
      </trkpt>
      <trkpt lat="44.46943" lon="4.37047">
        <ele>210</ele>
        <time>2011-10-23T11:47:23.000Z</time>
      </trkpt>
      <trkpt lat="44.46941" lon="4.37051">
        <ele>210</ele>
        <time>2011-10-23T11:47:24.000Z</time>
      </trkpt>
      <trkpt lat="44.46924" lon="4.37111">
        <ele>211</ele>
        <time>2011-10-23T11:47:41.000Z</time>
      </trkpt>
      <trkpt lat="44.46923" lon="4.37114">
        <ele>211</ele>
        <time>2011-10-23T11:47:42.000Z</time>
      </trkpt>
      <trkpt lat="44.46918" lon="4.37136">
        <ele>213</ele>
        <time>2011-10-23T11:47:49.000Z</time>
      </trkpt>
      <trkpt lat="44.46917" lon="4.37146">
        <ele>213</ele>
        <time>2011-10-23T11:47:52.000Z</time>
      </trkpt>
      <trkpt lat="44.46918" lon="4.37171">
        <ele>215</ele>
        <time>2011-10-23T11:48:00.000Z</time>
      </trkpt>
      <trkpt lat="44.46921" lon="4.37207">
        <ele>218</ele>
        <time>2011-10-23T11:48:10.000Z</time>
      </trkpt>
      <trkpt lat="44.46918" lon="4.37223">
        <ele>218</ele>
        <time>2011-10-23T11:48:14.000Z</time>
      </trkpt>
      <trkpt lat="44.46906" lon="4.3727">
        <ele>218</ele>
        <time>2011-10-23T11:48:23.000Z</time>
      </trkpt>
      <trkpt lat="44.46904" lon="4.3728">
        <ele>218</ele>
        <time>2011-10-23T11:48:25.000Z</time>
      </trkpt>
      <trkpt lat="44.469" lon="4.37295">
        <ele>218</ele>
        <time>2011-10-23T11:48:28.000Z</time>
      </trkpt>
      <trkpt lat="44.46898" lon="4.37311">
        <ele>218</ele>
        <time>2011-10-23T11:48:31.000Z</time>
      </trkpt>
      <trkpt lat="44.46899" lon="4.3732">
        <ele>218</ele>
        <time>2011-10-23T11:48:33.000Z</time>
      </trkpt>
      <trkpt lat="44.46904" lon="4.37356">
        <ele>220</ele>
        <time>2011-10-23T11:48:42.000Z</time>
      </trkpt>
      <trkpt lat="44.46908" lon="4.37385">
        <ele>222</ele>
        <time>2011-10-23T11:48:50.000Z</time>
      </trkpt>
      <trkpt lat="44.46908" lon="4.37413">
        <ele>221</ele>
        <time>2011-10-23T11:48:58.000Z</time>
      </trkpt>
      <trkpt lat="44.46902" lon="4.37436">
        <ele>221</ele>
        <time>2011-10-23T11:49:06.000Z</time>
      </trkpt>
      <trkpt lat="44.46894" lon="4.37438">
        <ele>221</ele>
        <time>2011-10-23T11:49:10.000Z</time>
      </trkpt>
      <trkpt lat="44.46869" lon="4.37435">
        <ele>221</ele>
        <time>2011-10-23T11:49:20.000Z</time>
      </trkpt>
      <trkpt lat="44.46862" lon="4.37441">
        <ele>221</ele>
        <time>2011-10-23T11:49:23.000Z</time>
      </trkpt>
      <trkpt lat="44.46854" lon="4.37457">
        <ele>221</ele>
        <time>2011-10-23T11:49:30.000Z</time>
      </trkpt>
      <trkpt lat="44.46844" lon="4.37463">
        <ele>221</ele>
        <time>2011-10-23T11:49:36.000Z</time>
      </trkpt>
      <trkpt lat="44.46835" lon="4.37464">
        <ele>221</ele>
        <time>2011-10-23T11:49:42.000Z</time>
      </trkpt>
      <trkpt lat="44.46815" lon="4.37463">
        <ele>223</ele>
        <time>2011-10-23T11:49:54.000Z</time>
      </trkpt>
      <trkpt lat="44.46804" lon="4.37475">
        <ele>224</ele>
        <time>2011-10-23T11:50:02.000Z</time>
      </trkpt>
      <trkpt lat="44.46799" lon="4.37487">
        <ele>225</ele>
        <time>2011-10-23T11:50:08.000Z</time>
      </trkpt>
      <trkpt lat="44.46792" lon="4.37503">
        <ele>228</ele>
        <time>2011-10-23T11:50:22.000Z</time>
      </trkpt>
      <trkpt lat="44.46793" lon="4.37526">
        <ele>228</ele>
        <time>2011-10-23T11:50:35.000Z</time>
      </trkpt>
      <trkpt lat="44.46793" lon="4.37538">
        <ele>228</ele>
        <time>2011-10-23T11:50:42.000Z</time>
      </trkpt>
      <trkpt lat="44.46799" lon="4.37551">
        <ele>229</ele>
        <time>2011-10-23T11:50:50.000Z</time>
      </trkpt>
      <trkpt lat="44.46801" lon="4.37569">
        <ele>229</ele>
        <time>2011-10-23T11:50:56.000Z</time>
      </trkpt>
      <trkpt lat="44.46814" lon="4.37618">
        <ele>231</ele>
        <time>2011-10-23T11:51:10.000Z</time>
      </trkpt>
      <trkpt lat="44.46818" lon="4.37638">
        <ele>231</ele>
        <time>2011-10-23T11:51:15.000Z</time>
      </trkpt>
      <trkpt lat="44.46819" lon="4.37647">
        <ele>231</ele>
        <time>2011-10-23T11:51:17.000Z</time>
      </trkpt>
      <trkpt lat="44.46825" lon="4.37699">
        <ele>230</ele>
        <time>2011-10-23T11:51:27.000Z</time>
      </trkpt>
      <trkpt lat="44.46829" lon="4.37715">
        <ele>231</ele>
        <time>2011-10-23T11:51:30.000Z</time>
      </trkpt>
      <trkpt lat="44.46832" lon="4.37723">
        <ele>232</ele>
        <time>2011-10-23T11:51:32.000Z</time>
      </trkpt>
      <trkpt lat="44.46844" lon="4.37749">
        <ele>234</ele>
        <time>2011-10-23T11:51:38.000Z</time>
      </trkpt>
      <trkpt lat="44.46847" lon="4.37762">
        <ele>236</ele>
        <time>2011-10-23T11:51:41.000Z</time>
      </trkpt>
      <trkpt lat="44.46847" lon="4.37784">
        <ele>240</ele>
        <time>2011-10-23T11:51:49.000Z</time>
      </trkpt>
      <trkpt lat="44.46849" lon="4.37826">
        <ele>246</ele>
        <time>2011-10-23T11:52:07.000Z</time>
      </trkpt>
      <trkpt lat="44.46849" lon="4.37836">
        <ele>247</ele>
        <time>2011-10-23T11:52:11.000Z</time>
      </trkpt>
      <trkpt lat="44.46847" lon="4.37844">
        <ele>247</ele>
        <time>2011-10-23T11:52:15.000Z</time>
      </trkpt>
      <trkpt lat="44.46844" lon="4.37852">
        <ele>247</ele>
        <time>2011-10-23T11:52:19.000Z</time>
      </trkpt>
      <trkpt lat="44.46838" lon="4.37871">
        <ele>246</ele>
        <time>2011-10-23T11:52:29.000Z</time>
      </trkpt>
      <trkpt lat="44.4683" lon="4.37888">
        <ele>249</ele>
        <time>2011-10-23T11:52:45.000Z</time>
      </trkpt>
      <trkpt lat="44.46809" lon="4.37925">
        <ele>251</ele>
        <time>2011-10-23T11:53:22.000Z</time>
      </trkpt>
      <trkpt lat="44.46805" lon="4.37932">
        <ele>251</ele>
        <time>2011-10-23T11:53:28.000Z</time>
      </trkpt>
      <trkpt lat="44.46795" lon="4.37948">
        <ele>252</ele>
        <time>2011-10-23T11:53:42.000Z</time>
      </trkpt>
      <trkpt lat="44.46788" lon="4.37956">
        <ele>253</ele>
        <time>2011-10-23T11:53:51.000Z</time>
      </trkpt>
      <trkpt lat="44.46779" lon="4.37969">
        <ele>256</ele>
        <time>2011-10-23T11:54:02.000Z</time>
      </trkpt>
      <trkpt lat="44.46775" lon="4.37981">
        <ele>258</ele>
        <time>2011-10-23T11:54:11.000Z</time>
      </trkpt>
      <trkpt lat="44.46773" lon="4.37993">
        <ele>260</ele>
        <time>2011-10-23T11:54:19.000Z</time>
      </trkpt>
      <trkpt lat="44.46773" lon="4.38004">
        <ele>262</ele>
        <time>2011-10-23T11:54:25.000Z</time>
      </trkpt>
      <trkpt lat="44.46777" lon="4.38043">
        <ele>268</ele>
        <time>2011-10-23T11:54:52.000Z</time>
      </trkpt>
      <trkpt lat="44.46778" lon="4.38051">
        <ele>269</ele>
        <time>2011-10-23T11:54:59.000Z</time>
      </trkpt>
      <trkpt lat="44.46772" lon="4.38053">
        <ele>270</ele>
        <time>2011-10-23T11:55:05.000Z</time>
      </trkpt>
      <trkpt lat="44.46767" lon="4.3805">
        <ele>271</ele>
        <time>2011-10-23T11:55:11.000Z</time>
      </trkpt>
      <trkpt lat="44.46754" lon="4.38039">
        <ele>273</ele>
        <time>2011-10-23T11:55:25.000Z</time>
      </trkpt>
      <trkpt lat="44.46741" lon="4.38036">
        <ele>274</ele>
        <time>2011-10-23T11:55:36.000Z</time>
      </trkpt>
      <trkpt lat="44.46733" lon="4.38042">
        <ele>276</ele>
        <time>2011-10-23T11:55:46.000Z</time>
      </trkpt>
      <trkpt lat="44.4673" lon="4.3805">
        <ele>277</ele>
        <time>2011-10-23T11:55:52.000Z</time>
      </trkpt>
      <trkpt lat="44.4673" lon="4.38074">
        <ele>278</ele>
        <time>2011-10-23T11:56:07.000Z</time>
      </trkpt>
      <trkpt lat="44.46735" lon="4.38115">
        <ele>280</ele>
        <time>2011-10-23T11:56:34.000Z</time>
      </trkpt>
      <trkpt lat="44.46735" lon="4.38124">
        <ele>281</ele>
        <time>2011-10-23T11:56:40.000Z</time>
      </trkpt>
      <trkpt lat="44.46737" lon="4.38141">
        <ele>288</ele>
        <time>2011-10-23T11:57:33.000Z</time>
      </trkpt>
      <trkpt lat="44.46739" lon="4.38158">
        <ele>288</ele>
        <time>2011-10-23T11:57:44.000Z</time>
      </trkpt>
      <trkpt lat="44.46744" lon="4.38186">
        <ele>291</ele>
        <time>2011-10-23T11:58:05.000Z</time>
      </trkpt>
      <trkpt lat="44.46745" lon="4.38215">
        <ele>291</ele>
        <time>2011-10-23T11:58:23.000Z</time>
      </trkpt>
      <trkpt lat="44.46749" lon="4.38249">
        <ele>290</ele>
        <time>2011-10-23T11:58:47.000Z</time>
      </trkpt>
      <trkpt lat="44.46748" lon="4.38268">
        <ele>291</ele>
        <time>2011-10-23T11:58:58.000Z</time>
      </trkpt>
      <trkpt lat="44.46747" lon="4.38276">
        <ele>291</ele>
        <time>2011-10-23T11:59:03.000Z</time>
      </trkpt>
      <trkpt lat="44.46741" lon="4.38323">
        <ele>296</ele>
        <time>2011-10-23T11:59:23.000Z</time>
      </trkpt>
      <trkpt lat="44.46744" lon="4.38337">
        <ele>298</ele>
        <time>2011-10-23T11:59:30.000Z</time>
      </trkpt>
      <trkpt lat="44.4675" lon="4.38353">
        <ele>300</ele>
        <time>2011-10-23T11:59:38.000Z</time>
      </trkpt>
      <trkpt lat="44.46752" lon="4.38371">
        <ele>302</ele>
        <time>2011-10-23T11:59:46.000Z</time>
      </trkpt>
      <trkpt lat="44.46772" lon="4.38429">
        <ele>309</ele>
        <time>2011-10-23T12:00:14.000Z</time>
      </trkpt>
      <trkpt lat="44.46772" lon="4.38431">
        <ele>309</ele>
        <time>2011-10-23T12:00:15.000Z</time>
      </trkpt>
      <trkpt lat="44.46775" lon="4.38436">
        <ele>310</ele>
        <time>2011-10-23T12:00:18.000Z</time>
      </trkpt>
      <trkpt lat="44.46777" lon="4.38444">
        <ele>311</ele>
        <time>2011-10-23T12:00:26.000Z</time>
      </trkpt>
      <trkpt lat="44.46785" lon="4.38463">
        <ele>317</ele>
        <time>2011-10-23T12:00:41.000Z</time>
      </trkpt>
      <trkpt lat="44.46791" lon="4.38474">
        <ele>321</ele>
        <time>2011-10-23T12:00:50.000Z</time>
      </trkpt>
      <trkpt lat="44.46793" lon="4.38481">
        <ele>323</ele>
        <time>2011-10-23T12:00:55.000Z</time>
      </trkpt>
      <trkpt lat="44.468" lon="4.3851">
        <ele>319</ele>
        <time>2011-10-23T12:01:17.000Z</time>
      </trkpt>
      <trkpt lat="44.46803" lon="4.3856">
        <ele>336</ele>
        <time>2011-10-23T12:02:05.000Z</time>
      </trkpt>
      <trkpt lat="44.46801" lon="4.38568">
        <ele>336</ele>
        <time>2011-10-23T12:02:18.000Z</time>
      </trkpt>
      <trkpt lat="44.46795" lon="4.38583">
        <ele>340</ele>
        <time>2011-10-23T12:02:32.000Z</time>
      </trkpt>
      <trkpt lat="44.46781" lon="4.38603">
        <ele>344</ele>
        <time>2011-10-23T12:02:53.000Z</time>
      </trkpt>
      <trkpt lat="44.46775" lon="4.38631">
        <ele>340</ele>
        <time>2011-10-23T12:03:14.000Z</time>
      </trkpt>
      <trkpt lat="44.46772" lon="4.3864">
        <ele>340</ele>
        <time>2011-10-23T12:03:20.000Z</time>
      </trkpt>
      <trkpt lat="44.46769" lon="4.38648">
        <ele>340</ele>
        <time>2011-10-23T12:03:25.000Z</time>
      </trkpt>
      <trkpt lat="44.4677" lon="4.38671">
        <ele>338</ele>
        <time>2011-10-23T12:03:40.000Z</time>
      </trkpt>
      <trkpt lat="44.46777" lon="4.38678">
        <ele>339</ele>
        <time>2011-10-23T12:03:49.000Z</time>
      </trkpt>
      <trkpt lat="44.46778" lon="4.38684">
        <ele>343</ele>
        <time>2011-10-23T12:04:28.000Z</time>
      </trkpt>
      <trkpt lat="44.46777" lon="4.38692">
        <ele>342</ele>
        <time>2011-10-23T12:04:34.000Z</time>
      </trkpt>
      <trkpt lat="44.46772" lon="4.38707">
        <ele>343</ele>
        <time>2011-10-23T12:04:46.000Z</time>
      </trkpt>
      <trkpt lat="44.4677" lon="4.38723">
        <ele>343</ele>
        <time>2011-10-23T12:04:59.000Z</time>
      </trkpt>
      <trkpt lat="44.46768" lon="4.3873">
        <ele>343</ele>
        <time>2011-10-23T12:05:05.000Z</time>
      </trkpt>
      <trkpt lat="44.46765" lon="4.38737">
        <ele>344</ele>
        <time>2011-10-23T12:05:11.000Z</time>
      </trkpt>
      <trkpt lat="44.46761" lon="4.38743">
        <ele>345</ele>
        <time>2011-10-23T12:05:17.000Z</time>
      </trkpt>
      <trkpt lat="44.46756" lon="4.38749">
        <ele>347</ele>
        <time>2011-10-23T12:05:23.000Z</time>
      </trkpt>
      <trkpt lat="44.46751" lon="4.38753">
        <ele>348</ele>
        <time>2011-10-23T12:05:29.000Z</time>
      </trkpt>
      <trkpt lat="44.46742" lon="4.3876">
        <ele>349</ele>
        <time>2011-10-23T12:05:38.000Z</time>
      </trkpt>
      <trkpt lat="44.46737" lon="4.38765">
        <ele>350</ele>
        <time>2011-10-23T12:05:44.000Z</time>
      </trkpt>
      <trkpt lat="44.46731" lon="4.38769">
        <ele>350</ele>
        <time>2011-10-23T12:05:50.000Z</time>
      </trkpt>
      <trkpt lat="44.46724" lon="4.38776">
        <ele>350</ele>
        <time>2011-10-23T12:05:57.000Z</time>
      </trkpt>
      <trkpt lat="44.46697" lon="4.38796">
        <ele>348</ele>
        <time>2011-10-23T12:06:17.000Z</time>
      </trkpt>
      <trkpt lat="44.46687" lon="4.38801">
        <ele>347</ele>
        <time>2011-10-23T12:06:23.000Z</time>
      </trkpt>
      <trkpt lat="44.46642" lon="4.38809">
        <ele>351</ele>
        <time>2011-10-23T12:06:47.000Z</time>
      </trkpt>
      <trkpt lat="44.4664" lon="4.38809">
        <ele>351</ele>
        <time>2011-10-23T12:06:48.000Z</time>
      </trkpt>
      <trkpt lat="44.46624" lon="4.38816">
        <ele>351</ele>
        <time>2011-10-23T12:06:57.000Z</time>
      </trkpt>
      <trkpt lat="44.46584" lon="4.38842">
        <ele>353</ele>
        <time>2011-10-23T12:07:19.000Z</time>
      </trkpt>
      <trkpt lat="44.46582" lon="4.38845">
        <ele>354</ele>
        <time>2011-10-23T12:07:20.000Z</time>
      </trkpt>
      <trkpt lat="44.46563" lon="4.38883">
        <ele>353</ele>
        <time>2011-10-23T12:07:39.000Z</time>
      </trkpt>
      <trkpt lat="44.46556" lon="4.38894">
        <ele>355</ele>
        <time>2011-10-23T12:07:45.000Z</time>
      </trkpt>
      <trkpt lat="44.46534" lon="4.38912">
        <ele>358</ele>
        <time>2011-10-23T12:08:01.000Z</time>
      </trkpt>
      <trkpt lat="44.46532" lon="4.38928">
        <ele>359</ele>
        <time>2011-10-23T12:08:10.000Z</time>
      </trkpt>
      <trkpt lat="44.46527" lon="4.38941">
        <ele>361</ele>
        <time>2011-10-23T12:08:18.000Z</time>
      </trkpt>
      <trkpt lat="44.46521" lon="4.38951">
        <ele>362</ele>
        <time>2011-10-23T12:08:25.000Z</time>
      </trkpt>
      <trkpt lat="44.46517" lon="4.38956">
        <ele>363</ele>
        <time>2011-10-23T12:08:29.000Z</time>
      </trkpt>
      <trkpt lat="44.46516" lon="4.38965">
        <ele>364</ele>
        <time>2011-10-23T12:08:34.000Z</time>
      </trkpt>
      <trkpt lat="44.46516" lon="4.38973">
        <ele>365</ele>
        <time>2011-10-23T12:08:38.000Z</time>
      </trkpt>
      <trkpt lat="44.46519" lon="4.38998">
        <ele>366</ele>
        <time>2011-10-23T12:08:52.000Z</time>
      </trkpt>
      <trkpt lat="44.46519" lon="4.39032">
        <ele>368</ele>
        <time>2011-10-23T12:09:08.000Z</time>
      </trkpt>
      <trkpt lat="44.46516" lon="4.39041">
        <ele>369</ele>
        <time>2011-10-23T12:09:12.000Z</time>
      </trkpt>
      <trkpt lat="44.46512" lon="4.39048">
        <ele>369</ele>
        <time>2011-10-23T12:09:16.000Z</time>
      </trkpt>
      <trkpt lat="44.46505" lon="4.39059">
        <ele>369</ele>
        <time>2011-10-23T12:09:22.000Z</time>
      </trkpt>
      <trkpt lat="44.46505" lon="4.39067">
        <ele>369</ele>
        <time>2011-10-23T12:09:27.000Z</time>
      </trkpt>
      <trkpt lat="44.465" lon="4.3907">
        <ele>373</ele>
        <time>2011-10-23T12:11:03.000Z</time>
      </trkpt>
      <trkpt lat="44.46498" lon="4.39077">
        <ele>378</ele>
        <time>2011-10-23T12:13:24.000Z</time>
      </trkpt>
      <trkpt lat="44.46497" lon="4.39085">
        <ele>377</ele>
        <time>2011-10-23T12:13:28.000Z</time>
      </trkpt>
      <trkpt lat="44.46488" lon="4.39102">
        <ele>373</ele>
        <time>2011-10-23T12:13:36.000Z</time>
      </trkpt>
      <trkpt lat="44.4648" lon="4.39114">
        <ele>369</ele>
        <time>2011-10-23T12:13:42.000Z</time>
      </trkpt>
      <trkpt lat="44.46473" lon="4.39135">
        <ele>364</ele>
        <time>2011-10-23T12:13:50.000Z</time>
      </trkpt>
      <trkpt lat="44.46466" lon="4.3915">
        <ele>359</ele>
        <time>2011-10-23T12:13:55.000Z</time>
      </trkpt>
      <trkpt lat="44.46453" lon="4.39171">
        <ele>351</ele>
        <time>2011-10-23T12:14:02.000Z</time>
      </trkpt>
      <trkpt lat="44.46449" lon="4.39186">
        <ele>347</ele>
        <time>2011-10-23T12:14:06.000Z</time>
      </trkpt>
      <trkpt lat="44.46442" lon="4.39206">
        <ele>343</ele>
        <time>2011-10-23T12:14:11.000Z</time>
      </trkpt>
      <trkpt lat="44.46434" lon="4.39216">
        <ele>341</ele>
        <time>2011-10-23T12:14:14.000Z</time>
      </trkpt>
      <trkpt lat="44.46397" lon="4.39254">
        <ele>338</ele>
        <time>2011-10-23T12:14:22.000Z</time>
      </trkpt>
      <trkpt lat="44.46391" lon="4.39258">
        <ele>337</ele>
        <time>2011-10-23T12:14:23.000Z</time>
      </trkpt>
      <trkpt lat="44.46364" lon="4.39289">
        <ele>336</ele>
        <time>2011-10-23T12:14:29.000Z</time>
      </trkpt>
      <trkpt lat="44.46335" lon="4.3932">
        <ele>338</ele>
        <time>2011-10-23T12:14:39.000Z</time>
      </trkpt>
      <trkpt lat="44.46319" lon="4.39329">
        <ele>340</ele>
        <time>2011-10-23T12:14:45.000Z</time>
      </trkpt>
      <trkpt lat="44.46304" lon="4.39331">
        <ele>348</ele>
        <time>2011-10-23T12:15:30.000Z</time>
      </trkpt>
      <trkpt lat="44.46312" lon="4.39332">
        <ele>349</ele>
        <time>2011-10-23T12:15:36.000Z</time>
      </trkpt>
      <trkpt lat="44.46315" lon="4.39336">
        <ele>350</ele>
        <time>2011-10-23T12:15:52.000Z</time>
      </trkpt>
      <trkpt lat="44.46317" lon="4.39355">
        <ele>349</ele>
        <time>2011-10-23T12:15:57.000Z</time>
      </trkpt>
      <trkpt lat="44.46325" lon="4.39386">
        <ele>348</ele>
        <time>2011-10-23T12:16:04.000Z</time>
      </trkpt>
      <trkpt lat="44.46333" lon="4.39414">
        <ele>347</ele>
        <time>2011-10-23T12:16:08.000Z</time>
      </trkpt>
      <trkpt lat="44.46342" lon="4.39449">
        <ele>346</ele>
        <time>2011-10-23T12:16:13.000Z</time>
      </trkpt>
      <trkpt lat="44.46357" lon="4.39488">
        <ele>344</ele>
        <time>2011-10-23T12:16:21.000Z</time>
      </trkpt>
      <trkpt lat="44.46361" lon="4.395">
        <ele>342</ele>
        <time>2011-10-23T12:16:24.000Z</time>
      </trkpt>
      <trkpt lat="44.46371" lon="4.39514">
        <ele>341</ele>
        <time>2011-10-23T12:16:29.000Z</time>
      </trkpt>
      <trkpt lat="44.46372" lon="4.39524">
        <ele>340</ele>
        <time>2011-10-23T12:16:31.000Z</time>
      </trkpt>
      <trkpt lat="44.46372" lon="4.39533">
        <ele>340</ele>
        <time>2011-10-23T12:16:33.000Z</time>
      </trkpt>
      <trkpt lat="44.46375" lon="4.39546">
        <ele>338</ele>
        <time>2011-10-23T12:16:37.000Z</time>
      </trkpt>
      <trkpt lat="44.46397" lon="4.39568">
        <ele>332</ele>
        <time>2011-10-23T12:16:57.000Z</time>
      </trkpt>
      <trkpt lat="44.46402" lon="4.39572">
        <ele>334</ele>
        <time>2011-10-23T12:17:15.000Z</time>
      </trkpt>
      <trkpt lat="44.46409" lon="4.39578">
        <ele>331</ele>
        <time>2011-10-23T12:17:34.000Z</time>
      </trkpt>
      <trkpt lat="44.46418" lon="4.39581">
        <ele>328</ele>
        <time>2011-10-23T12:17:47.000Z</time>
      </trkpt>
      <trkpt lat="44.4643" lon="4.39585">
        <ele>323</ele>
        <time>2011-10-23T12:18:02.000Z</time>
      </trkpt>
      <trkpt lat="44.46436" lon="4.39593">
        <ele>319</ele>
        <time>2011-10-23T12:18:14.000Z</time>
      </trkpt>
      <trkpt lat="44.46441" lon="4.39601">
        <ele>317</ele>
        <time>2011-10-23T12:18:18.000Z</time>
      </trkpt>
      <trkpt lat="44.46453" lon="4.39614">
        <ele>312</ele>
        <time>2011-10-23T12:18:26.000Z</time>
      </trkpt>
      <trkpt lat="44.4646" lon="4.39617">
        <ele>310</ele>
        <time>2011-10-23T12:18:30.000Z</time>
      </trkpt>
      <trkpt lat="44.46467" lon="4.39636">
        <ele>308</ele>
        <time>2011-10-23T12:18:35.000Z</time>
      </trkpt>
      <trkpt lat="44.46478" lon="4.39649">
        <ele>305</ele>
        <time>2011-10-23T12:18:39.000Z</time>
      </trkpt>
      <trkpt lat="44.46481" lon="4.39666">
        <ele>304</ele>
        <time>2011-10-23T12:18:42.000Z</time>
      </trkpt>
      <trkpt lat="44.4649" lon="4.39687">
        <ele>302</ele>
        <time>2011-10-23T12:18:48.000Z</time>
      </trkpt>
      <trkpt lat="44.46484" lon="4.39692">
        <ele>300</ele>
        <time>2011-10-23T12:18:52.000Z</time>
      </trkpt>
      <trkpt lat="44.46443" lon="4.39681">
        <ele>295</ele>
        <time>2011-10-23T12:19:47.000Z</time>
      </trkpt>
      <trkpt lat="44.46439" lon="4.39681">
        <ele>294</ele>
        <time>2011-10-23T12:19:48.000Z</time>
      </trkpt>
      <trkpt lat="44.46432" lon="4.39684">
        <ele>293</ele>
        <time>2011-10-23T12:19:50.000Z</time>
      </trkpt>
      <trkpt lat="44.4642" lon="4.39694">
        <ele>291</ele>
        <time>2011-10-23T12:19:54.000Z</time>
      </trkpt>
      <trkpt lat="44.46409" lon="4.39711">
        <ele>289</ele>
        <time>2011-10-23T12:19:58.000Z</time>
      </trkpt>
      <trkpt lat="44.46402" lon="4.39727">
        <ele>288</ele>
        <time>2011-10-23T12:20:01.000Z</time>
      </trkpt>
      <trkpt lat="44.4637" lon="4.39756">
        <ele>283</ele>
        <time>2011-10-23T12:20:07.000Z</time>
      </trkpt>
      <trkpt lat="44.46342" lon="4.39773">
        <ele>278</ele>
        <time>2011-10-23T12:20:12.000Z</time>
      </trkpt>
      <trkpt lat="44.46305" lon="4.39816">
        <ele>271</ele>
        <time>2011-10-23T12:20:19.000Z</time>
      </trkpt>
      <trkpt lat="44.46305" lon="4.39823">
        <ele>270</ele>
        <time>2011-10-23T12:20:20.000Z</time>
      </trkpt>
      <trkpt lat="44.46308" lon="4.3983">
        <ele>270</ele>
        <time>2011-10-23T12:20:21.000Z</time>
      </trkpt>
      <trkpt lat="44.46319" lon="4.39847">
        <ele>268</ele>
        <time>2011-10-23T12:20:24.000Z</time>
      </trkpt>
      <trkpt lat="44.46336" lon="4.39874">
        <ele>266</ele>
        <time>2011-10-23T12:20:29.000Z</time>
      </trkpt>
      <trkpt lat="44.46337" lon="4.39888">
        <ele>265</ele>
        <time>2011-10-23T12:20:31.000Z</time>
      </trkpt>
      <trkpt lat="44.46328" lon="4.39913">
        <ele>262</ele>
        <time>2011-10-23T12:20:35.000Z</time>
      </trkpt>
      <trkpt lat="44.46288" lon="4.39945">
        <ele>256</ele>
        <time>2011-10-23T12:20:43.000Z</time>
      </trkpt>
      <trkpt lat="44.46283" lon="4.39951">
        <ele>255</ele>
        <time>2011-10-23T12:20:44.000Z</time>
      </trkpt>
      <trkpt lat="44.46279" lon="4.39956">
        <ele>254</ele>
        <time>2011-10-23T12:20:45.000Z</time>
      </trkpt>
      <trkpt lat="44.46252" lon="4.39986">
        <ele>250</ele>
        <time>2011-10-23T12:20:51.000Z</time>
      </trkpt>
      <trkpt lat="44.46245" lon="4.40008">
        <ele>248</ele>
        <time>2011-10-23T12:20:54.000Z</time>
      </trkpt>
      <trkpt lat="44.46239" lon="4.40072">
        <ele>244</ele>
        <time>2011-10-23T12:21:03.000Z</time>
      </trkpt>
      <trkpt lat="44.46238" lon="4.40076">
        <ele>244</ele>
        <time>2011-10-23T12:21:04.000Z</time>
      </trkpt>
      <trkpt lat="44.46232" lon="4.40107">
        <ele>241</ele>
        <time>2011-10-23T12:21:11.000Z</time>
      </trkpt>
      <trkpt lat="44.46225" lon="4.40113">
        <ele>241</ele>
        <time>2011-10-23T12:21:13.000Z</time>
      </trkpt>
      <trkpt lat="44.46194" lon="4.40127">
        <ele>237</ele>
        <time>2011-10-23T12:21:21.000Z</time>
      </trkpt>
      <trkpt lat="44.46183" lon="4.40132">
        <ele>236</ele>
        <time>2011-10-23T12:21:24.000Z</time>
      </trkpt>
      <trkpt lat="44.46171" lon="4.40132">
        <ele>234</ele>
        <time>2011-10-23T12:21:27.000Z</time>
      </trkpt>
      <trkpt lat="44.46155" lon="4.40123">
        <ele>231</ele>
        <time>2011-10-23T12:21:33.000Z</time>
      </trkpt>
      <trkpt lat="44.46152" lon="4.40116">
        <ele>230</ele>
        <time>2011-10-23T12:21:35.000Z</time>
      </trkpt>
      <trkpt lat="44.46147" lon="4.40114">
        <ele>229</ele>
        <time>2011-10-23T12:21:37.000Z</time>
      </trkpt>
      <trkpt lat="44.46141" lon="4.40121">
        <ele>228</ele>
        <time>2011-10-23T12:21:39.000Z</time>
      </trkpt>
      <trkpt lat="44.46136" lon="4.40134">
        <ele>227</ele>
        <time>2011-10-23T12:21:42.000Z</time>
      </trkpt>
      <trkpt lat="44.46135" lon="4.40145">
        <ele>226</ele>
        <time>2011-10-23T12:21:44.000Z</time>
      </trkpt>
      <trkpt lat="44.46152" lon="4.40204">
        <ele>226</ele>
        <time>2011-10-23T12:21:56.000Z</time>
      </trkpt>
      <trkpt lat="44.46154" lon="4.40209">
        <ele>226</ele>
        <time>2011-10-23T12:21:57.000Z</time>
      </trkpt>
      <trkpt lat="44.46162" lon="4.40245">
        <ele>226</ele>
        <time>2011-10-23T12:22:05.000Z</time>
      </trkpt>
      <trkpt lat="44.46164" lon="4.4031">
        <ele>224</ele>
        <time>2011-10-23T12:22:17.000Z</time>
      </trkpt>
      <trkpt lat="44.46165" lon="4.40316">
        <ele>223</ele>
        <time>2011-10-23T12:22:18.000Z</time>
      </trkpt>
      <trkpt lat="44.46167" lon="4.40343">
        <ele>222</ele>
        <time>2011-10-23T12:22:27.000Z</time>
      </trkpt>
      <trkpt lat="44.4612" lon="4.4035">
        <ele>220</ele>
        <time>2011-10-23T12:23:05.000Z</time>
      </trkpt>
      <trkpt lat="44.46116" lon="4.40351">
        <ele>220</ele>
        <time>2011-10-23T12:23:06.000Z</time>
      </trkpt>
      <trkpt lat="44.46097" lon="4.40361">
        <ele>217</ele>
        <time>2011-10-23T12:23:15.000Z</time>
      </trkpt>
      <trkpt lat="44.46107" lon="4.4037">
        <ele>216</ele>
        <time>2011-10-23T12:23:20.000Z</time>
      </trkpt>
      <trkpt lat="44.46131" lon="4.40392">
        <ele>214</ele>
        <time>2011-10-23T12:23:27.000Z</time>
      </trkpt>
      <trkpt lat="44.46162" lon="4.40446">
        <ele>210</ele>
        <time>2011-10-23T12:23:38.000Z</time>
      </trkpt>
      <trkpt lat="44.46165" lon="4.40452">
        <ele>210</ele>
        <time>2011-10-23T12:23:39.000Z</time>
      </trkpt>
      <trkpt lat="44.46195" lon="4.40502">
        <ele>206</ele>
        <time>2011-10-23T12:23:49.000Z</time>
      </trkpt>
      <trkpt lat="44.46199" lon="4.40508">
        <ele>206</ele>
        <time>2011-10-23T12:23:50.000Z</time>
      </trkpt>
      <trkpt lat="44.46227" lon="4.40552">
        <ele>203</ele>
        <time>2011-10-23T12:23:59.000Z</time>
      </trkpt>
      <trkpt lat="44.46232" lon="4.40555">
        <ele>202</ele>
        <time>2011-10-23T12:24:00.000Z</time>
      </trkpt>
      <trkpt lat="44.46247" lon="4.40569">
        <ele>201</ele>
        <time>2011-10-23T12:24:03.000Z</time>
      </trkpt>
      <trkpt lat="44.46267" lon="4.4061">
        <ele>198</ele>
        <time>2011-10-23T12:24:09.000Z</time>
      </trkpt>
      <trkpt lat="44.46274" lon="4.40675">
        <ele>195</ele>
        <time>2011-10-23T12:24:18.000Z</time>
      </trkpt>
      <trkpt lat="44.46275" lon="4.40681">
        <ele>195</ele>
        <time>2011-10-23T12:24:19.000Z</time>
      </trkpt>
      <trkpt lat="44.46283" lon="4.4071">
        <ele>193</ele>
        <time>2011-10-23T12:24:25.000Z</time>
      </trkpt>
      <trkpt lat="44.46309" lon="4.40749">
        <ele>190</ele>
        <time>2011-10-23T12:24:34.000Z</time>
      </trkpt>
      <trkpt lat="44.46307" lon="4.40757">
        <ele>189</ele>
        <time>2011-10-23T12:24:38.000Z</time>
      </trkpt>
      <trkpt lat="44.46303" lon="4.40764">
        <ele>187</ele>
        <time>2011-10-23T12:24:42.000Z</time>
      </trkpt>
      <trkpt lat="44.46302" lon="4.40772">
        <ele>184</ele>
        <time>2011-10-23T12:24:47.000Z</time>
      </trkpt>
      <trkpt lat="44.46291" lon="4.40769">
        <ele>187</ele>
        <time>2011-10-23T12:24:59.000Z</time>
      </trkpt>
      <trkpt lat="44.46282" lon="4.40777">
        <ele>189</ele>
        <time>2011-10-23T12:25:05.000Z</time>
      </trkpt>
      <trkpt lat="44.46286" lon="4.40783">
        <ele>190</ele>
        <time>2011-10-23T12:25:09.000Z</time>
      </trkpt>
      <trkpt lat="44.46296" lon="4.40787">
        <ele>192</ele>
        <time>2011-10-23T12:25:15.000Z</time>
      </trkpt>
      <trkpt lat="44.46338" lon="4.40817">
        <ele>196</ele>
        <time>2011-10-23T12:25:37.000Z</time>
      </trkpt>
      <trkpt lat="44.4634" lon="4.40819">
        <ele>196</ele>
        <time>2011-10-23T12:25:38.000Z</time>
      </trkpt>
      <trkpt lat="44.46341" lon="4.40821">
        <ele>197</ele>
        <time>2011-10-23T12:25:39.000Z</time>
      </trkpt>
      <trkpt lat="44.46369" lon="4.40869">
        <ele>201</ele>
        <time>2011-10-23T12:26:07.000Z</time>
      </trkpt>
      <trkpt lat="44.4637" lon="4.4087">
        <ele>201</ele>
        <time>2011-10-23T12:26:08.000Z</time>
      </trkpt>
      <trkpt lat="44.46383" lon="4.40888">
        <ele>202</ele>
        <time>2011-10-23T12:26:19.000Z</time>
      </trkpt>
      <trkpt lat="44.46385" lon="4.40906">
        <ele>203</ele>
        <time>2011-10-23T12:26:27.000Z</time>
      </trkpt>
      <trkpt lat="44.46386" lon="4.40925">
        <ele>205</ele>
        <time>2011-10-23T12:26:35.000Z</time>
      </trkpt>
      <trkpt lat="44.46391" lon="4.40945">
        <ele>209</ele>
        <time>2011-10-23T12:26:46.000Z</time>
      </trkpt>
      <trkpt lat="44.46395" lon="4.40952">
        <ele>210</ele>
        <time>2011-10-23T12:26:52.000Z</time>
      </trkpt>
      <trkpt lat="44.46399" lon="4.40964">
        <ele>211</ele>
        <time>2011-10-23T12:27:08.000Z</time>
      </trkpt>
      <trkpt lat="44.464" lon="4.40972">
        <ele>214</ele>
        <time>2011-10-23T12:27:15.000Z</time>
      </trkpt>
      <trkpt lat="44.46402" lon="4.40981">
        <ele>217</ele>
        <time>2011-10-23T12:27:23.000Z</time>
      </trkpt>
      <trkpt lat="44.46412" lon="4.41008">
        <ele>221</ele>
        <time>2011-10-23T12:27:44.000Z</time>
      </trkpt>
      <trkpt lat="44.46414" lon="4.41015">
        <ele>223</ele>
        <time>2011-10-23T12:27:50.000Z</time>
      </trkpt>
      <trkpt lat="44.46424" lon="4.41037">
        <ele>226</ele>
        <time>2011-10-23T12:28:08.000Z</time>
      </trkpt>
      <trkpt lat="44.46429" lon="4.41044">
        <ele>227</ele>
        <time>2011-10-23T12:28:13.000Z</time>
      </trkpt>
      <trkpt lat="44.46439" lon="4.41059">
        <ele>228</ele>
        <time>2011-10-23T12:28:26.000Z</time>
      </trkpt>
      <trkpt lat="44.46452" lon="4.41086">
        <ele>228</ele>
        <time>2011-10-23T12:28:45.000Z</time>
      </trkpt>
      <trkpt lat="44.46455" lon="4.41095">
        <ele>228</ele>
        <time>2011-10-23T12:28:49.000Z</time>
      </trkpt>
      <trkpt lat="44.46458" lon="4.41102">
        <ele>227</ele>
        <time>2011-10-23T12:28:53.000Z</time>
      </trkpt>
      <trkpt lat="44.46476" lon="4.41115">
        <ele>227</ele>
        <time>2011-10-23T12:29:03.000Z</time>
      </trkpt>
      <trkpt lat="44.46516" lon="4.4115">
        <ele>223</ele>
        <time>2011-10-23T12:29:17.000Z</time>
      </trkpt>
      <trkpt lat="44.46521" lon="4.41153">
        <ele>223</ele>
        <time>2011-10-23T12:29:18.000Z</time>
      </trkpt>
      <trkpt lat="44.46562" lon="4.41192">
        <ele>218</ele>
        <time>2011-10-23T12:29:28.000Z</time>
      </trkpt>
      <trkpt lat="44.46566" lon="4.41195">
        <ele>217</ele>
        <time>2011-10-23T12:29:29.000Z</time>
      </trkpt>
      <trkpt lat="44.4658" lon="4.41205">
        <ele>216</ele>
        <time>2011-10-23T12:29:32.000Z</time>
      </trkpt>
      <trkpt lat="44.46626" lon="4.41208">
        <ele>214</ele>
        <time>2011-10-23T12:29:39.000Z</time>
      </trkpt>
      <trkpt lat="44.46631" lon="4.41207">
        <ele>214</ele>
        <time>2011-10-23T12:29:40.000Z</time>
      </trkpt>
      <trkpt lat="44.46636" lon="4.41206">
        <ele>215</ele>
        <time>2011-10-23T12:29:41.000Z</time>
      </trkpt>
      <trkpt lat="44.46659" lon="4.41203">
        <ele>214</ele>
        <time>2011-10-23T12:29:46.000Z</time>
      </trkpt>
      <trkpt lat="44.46673" lon="4.4121">
        <ele>213</ele>
        <time>2011-10-23T12:29:49.000Z</time>
      </trkpt>
      <trkpt lat="44.46689" lon="4.41226">
        <ele>211</ele>
        <time>2011-10-23T12:29:54.000Z</time>
      </trkpt>
      <trkpt lat="44.46696" lon="4.41243">
        <ele>211</ele>
        <time>2011-10-23T12:29:58.000Z</time>
      </trkpt>
      <trkpt lat="44.46704" lon="4.41245">
        <ele>211</ele>
        <time>2011-10-23T12:30:01.000Z</time>
      </trkpt>
      <trkpt lat="44.46738" lon="4.41233">
        <ele>213</ele>
        <time>2011-10-23T12:30:14.000Z</time>
      </trkpt>
      <trkpt lat="44.46765" lon="4.41234">
        <ele>214</ele>
        <time>2011-10-23T12:30:25.000Z</time>
      </trkpt>
      <trkpt lat="44.46778" lon="4.41229">
        <ele>214</ele>
        <time>2011-10-23T12:30:30.000Z</time>
      </trkpt>
      <trkpt lat="44.46789" lon="4.41216">
        <ele>216</ele>
        <time>2011-10-23T12:30:36.000Z</time>
      </trkpt>
      <trkpt lat="44.46797" lon="4.41201">
        <ele>218</ele>
        <time>2011-10-23T12:30:42.000Z</time>
      </trkpt>
      <trkpt lat="44.46825" lon="4.41171">
        <ele>222</ele>
        <time>2011-10-23T12:31:02.000Z</time>
      </trkpt>
      <trkpt lat="44.46834" lon="4.41173">
        <ele>223</ele>
        <time>2011-10-23T12:31:08.000Z</time>
      </trkpt>
      <trkpt lat="44.46838" lon="4.4118">
        <ele>223</ele>
        <time>2011-10-23T12:31:12.000Z</time>
      </trkpt>
      <trkpt lat="44.46838" lon="4.41188">
        <ele>223</ele>
        <time>2011-10-23T12:31:16.000Z</time>
      </trkpt>
      <trkpt lat="44.46838" lon="4.41205">
        <ele>226</ele>
        <time>2011-10-23T12:31:24.000Z</time>
      </trkpt>
      <trkpt lat="44.46838" lon="4.41222">
        <ele>229</ele>
        <time>2011-10-23T12:31:32.000Z</time>
      </trkpt>
      <trkpt lat="44.46836" lon="4.41235">
        <ele>232</ele>
        <time>2011-10-23T12:31:39.000Z</time>
      </trkpt>
      <trkpt lat="44.46839" lon="4.41241">
        <ele>234</ele>
        <time>2011-10-23T12:31:44.000Z</time>
      </trkpt>
      <trkpt lat="44.46851" lon="4.41236">
        <ele>235</ele>
        <time>2011-10-23T12:32:01.000Z</time>
      </trkpt>
      <trkpt lat="44.46852" lon="4.41244">
        <ele>237</ele>
        <time>2011-10-23T12:32:09.000Z</time>
      </trkpt>
      <trkpt lat="44.46838" lon="4.413">
        <ele>241</ele>
        <time>2011-10-23T12:32:39.000Z</time>
      </trkpt>
      <trkpt lat="44.46836" lon="4.41304">
        <ele>241</ele>
        <time>2011-10-23T12:32:40.000Z</time>
      </trkpt>
      <trkpt lat="44.46834" lon="4.41309">
        <ele>241</ele>
        <time>2011-10-23T12:32:41.000Z</time>
      </trkpt>
      <trkpt lat="44.46811" lon="4.41335">
        <ele>236</ele>
        <time>2011-10-23T12:32:47.000Z</time>
      </trkpt>
      <trkpt lat="44.46782" lon="4.41362">
        <ele>231</ele>
        <time>2011-10-23T12:32:53.000Z</time>
      </trkpt>
      <trkpt lat="44.46743" lon="4.41396">
        <ele>226</ele>
        <time>2011-10-23T12:33:02.000Z</time>
      </trkpt>
      <trkpt lat="44.46741" lon="4.41399">
        <ele>225</ele>
        <time>2011-10-23T12:33:03.000Z</time>
      </trkpt>
      <trkpt lat="44.4674" lon="4.41403">
        <ele>225</ele>
        <time>2011-10-23T12:33:04.000Z</time>
      </trkpt>
      <trkpt lat="44.46742" lon="4.41412">
        <ele>223</ele>
        <time>2011-10-23T12:33:06.000Z</time>
      </trkpt>
      <trkpt lat="44.4678" lon="4.41456">
        <ele>221</ele>
        <time>2011-10-23T12:33:19.000Z</time>
      </trkpt>
      <trkpt lat="44.46783" lon="4.41459">
        <ele>221</ele>
        <time>2011-10-23T12:33:20.000Z</time>
      </trkpt>
      <trkpt lat="44.46821" lon="4.41505">
        <ele>220</ele>
        <time>2011-10-23T12:33:30.000Z</time>
      </trkpt>
      <trkpt lat="44.46825" lon="4.4151">
        <ele>219</ele>
        <time>2011-10-23T12:33:31.000Z</time>
      </trkpt>
      <trkpt lat="44.46863" lon="4.41554">
        <ele>219</ele>
        <time>2011-10-23T12:33:40.000Z</time>
      </trkpt>
      <trkpt lat="44.46866" lon="4.41559">
        <ele>219</ele>
        <time>2011-10-23T12:33:41.000Z</time>
      </trkpt>
      <trkpt lat="44.46899" lon="4.41599">
        <ele>219</ele>
        <time>2011-10-23T12:33:51.000Z</time>
      </trkpt>
      <trkpt lat="44.46902" lon="4.41603">
        <ele>219</ele>
        <time>2011-10-23T12:33:52.000Z</time>
      </trkpt>
      <trkpt lat="44.46943" lon="4.41639">
        <ele>216</ele>
        <time>2011-10-23T12:34:00.000Z</time>
      </trkpt>
      <trkpt lat="44.4695" lon="4.41643">
        <ele>215</ele>
        <time>2011-10-23T12:34:01.000Z</time>
      </trkpt>
      <trkpt lat="44.46992" lon="4.41672">
        <ele>213</ele>
        <time>2011-10-23T12:34:09.000Z</time>
      </trkpt>
      <trkpt lat="44.46996" lon="4.41675">
        <ele>213</ele>
        <time>2011-10-23T12:34:10.000Z</time>
      </trkpt>
      <trkpt lat="44.47028" lon="4.41695">
        <ele>215</ele>
        <time>2011-10-23T12:34:20.000Z</time>
      </trkpt>
      <trkpt lat="44.4704" lon="4.417">
        <ele>216</ele>
        <time>2011-10-23T12:34:26.000Z</time>
      </trkpt>
      <trkpt lat="44.47069" lon="4.41724">
        <ele>209</ele>
        <time>2011-10-23T12:35:05.000Z</time>
      </trkpt>
      <trkpt lat="44.47092" lon="4.41741">
        <ele>206</ele>
        <time>2011-10-23T12:35:17.000Z</time>
      </trkpt>
      <trkpt lat="44.47121" lon="4.41751">
        <ele>203</ele>
        <time>2011-10-23T12:35:24.000Z</time>
      </trkpt>
      <trkpt lat="44.47169" lon="4.41757">
        <ele>197</ele>
        <time>2011-10-23T12:35:36.000Z</time>
      </trkpt>
      <trkpt lat="44.47172" lon="4.4176">
        <ele>196</ele>
        <time>2011-10-23T12:35:37.000Z</time>
      </trkpt>
      <trkpt lat="44.47176" lon="4.41767">
        <ele>195</ele>
        <time>2011-10-23T12:35:39.000Z</time>
      </trkpt>
      <trkpt lat="44.47202" lon="4.41819">
        <ele>191</ele>
        <time>2011-10-23T12:35:53.000Z</time>
      </trkpt>
      <trkpt lat="44.47204" lon="4.41824">
        <ele>191</ele>
        <time>2011-10-23T12:35:54.000Z</time>
      </trkpt>
      <trkpt lat="44.47211" lon="4.41837">
        <ele>189</ele>
        <time>2011-10-23T12:35:57.000Z</time>
      </trkpt>
      <trkpt lat="44.47221" lon="4.41847">
        <ele>188</ele>
        <time>2011-10-23T12:36:00.000Z</time>
      </trkpt>
      <trkpt lat="44.47254" lon="4.4187">
        <ele>189</ele>
        <time>2011-10-23T12:36:10.000Z</time>
      </trkpt>
      <trkpt lat="44.47258" lon="4.41883">
        <ele>190</ele>
        <time>2011-10-23T12:36:15.000Z</time>
      </trkpt>
      <trkpt lat="44.47261" lon="4.4191">
        <ele>199</ele>
        <time>2011-10-23T12:36:27.000Z</time>
      </trkpt>
      <trkpt lat="44.47261" lon="4.41914">
        <ele>212</ele>
        <time>2011-10-23T12:36:59.000Z</time>
      </trkpt>
      <trkpt lat="44.47258" lon="4.41906">
        <ele>211</ele>
        <time>2011-10-23T12:37:01.000Z</time>
      </trkpt>
      <trkpt lat="44.47255" lon="4.41898">
        <ele>211</ele>
        <time>2011-10-23T12:37:04.000Z</time>
      </trkpt>
      <trkpt lat="44.4725" lon="4.41897">
        <ele>210</ele>
        <time>2011-10-23T12:37:14.000Z</time>
      </trkpt>
      <trkpt lat="44.47235" lon="4.41911">
        <ele>212</ele>
        <time>2011-10-23T12:37:26.000Z</time>
      </trkpt>
      <trkpt lat="44.47234" lon="4.4192">
        <ele>212</ele>
        <time>2011-10-23T12:37:30.000Z</time>
      </trkpt>
      <trkpt lat="44.47234" lon="4.41932">
        <ele>213</ele>
        <time>2011-10-23T12:37:36.000Z</time>
      </trkpt>
      <trkpt lat="44.47235" lon="4.4195">
        <ele>215</ele>
        <time>2011-10-23T12:37:46.000Z</time>
      </trkpt>
      <trkpt lat="44.47233" lon="4.41966">
        <ele>216</ele>
        <time>2011-10-23T12:37:54.000Z</time>
      </trkpt>
      <trkpt lat="44.47235" lon="4.42029">
        <ele>224</ele>
        <time>2011-10-23T12:38:28.000Z</time>
      </trkpt>
      <trkpt lat="44.47235" lon="4.42031">
        <ele>225</ele>
        <time>2011-10-23T12:38:29.000Z</time>
      </trkpt>
      <trkpt lat="44.47235" lon="4.42033">
        <ele>225</ele>
        <time>2011-10-23T12:38:30.000Z</time>
      </trkpt>
      <trkpt lat="44.47234" lon="4.42046">
        <ele>227</ele>
        <time>2011-10-23T12:38:37.000Z</time>
      </trkpt>
      <trkpt lat="44.47234" lon="4.42062">
        <ele>226</ele>
        <time>2011-10-23T12:38:45.000Z</time>
      </trkpt>
      <trkpt lat="44.47229" lon="4.4207">
        <ele>225</ele>
        <time>2011-10-23T12:38:49.000Z</time>
      </trkpt>
      <trkpt lat="44.47215" lon="4.42085">
        <ele>224</ele>
        <time>2011-10-23T12:38:56.000Z</time>
      </trkpt>
      <trkpt lat="44.47185" lon="4.42115">
        <ele>224</ele>
        <time>2011-10-23T12:39:12.000Z</time>
      </trkpt>
      <trkpt lat="44.47171" lon="4.42119">
        <ele>224</ele>
        <time>2011-10-23T12:39:18.000Z</time>
      </trkpt>
      <trkpt lat="44.47135" lon="4.42159">
        <ele>226</ele>
        <time>2011-10-23T12:39:38.000Z</time>
      </trkpt>
      <trkpt lat="44.47132" lon="4.42161">
        <ele>226</ele>
        <time>2011-10-23T12:39:39.000Z</time>
      </trkpt>
      <trkpt lat="44.47127" lon="4.42172">
        <ele>227</ele>
        <time>2011-10-23T12:39:43.000Z</time>
      </trkpt>
      <trkpt lat="44.47129" lon="4.42184">
        <ele>227</ele>
        <time>2011-10-23T12:39:47.000Z</time>
      </trkpt>
      <trkpt lat="44.47143" lon="4.42225">
        <ele>225</ele>
        <time>2011-10-23T12:39:57.000Z</time>
      </trkpt>
      <trkpt lat="44.47131" lon="4.42225">
        <ele>224</ele>
        <time>2011-10-23T12:40:02.000Z</time>
      </trkpt>
      <trkpt lat="44.47118" lon="4.42222">
        <ele>226</ele>
        <time>2011-10-23T12:40:06.000Z</time>
      </trkpt>
      <trkpt lat="44.47089" lon="4.42221">
        <ele>230</ele>
        <time>2011-10-23T12:40:16.000Z</time>
      </trkpt>
      <trkpt lat="44.47053" lon="4.42202">
        <ele>233</ele>
        <time>2011-10-23T12:40:26.000Z</time>
      </trkpt>
      <trkpt lat="44.47044" lon="4.42204">
        <ele>232</ele>
        <time>2011-10-23T12:40:28.000Z</time>
      </trkpt>
      <trkpt lat="44.47016" lon="4.42219">
        <ele>224</ele>
        <time>2011-10-23T12:40:43.000Z</time>
      </trkpt>
      <trkpt lat="44.47012" lon="4.42233">
        <ele>221</ele>
        <time>2011-10-23T12:40:48.000Z</time>
      </trkpt>
      <trkpt lat="44.47007" lon="4.42237">
        <ele>219</ele>
        <time>2011-10-23T12:40:50.000Z</time>
      </trkpt>
      <trkpt lat="44.47001" lon="4.42237">
        <ele>218</ele>
        <time>2011-10-23T12:40:52.000Z</time>
      </trkpt>
      <trkpt lat="44.46991" lon="4.42232">
        <ele>217</ele>
        <time>2011-10-23T12:40:55.000Z</time>
      </trkpt>
      <trkpt lat="44.46983" lon="4.42227">
        <ele>216</ele>
        <time>2011-10-23T12:40:58.000Z</time>
      </trkpt>
      <trkpt lat="44.46973" lon="4.42223">
        <ele>215</ele>
        <time>2011-10-23T12:41:02.000Z</time>
      </trkpt>
      <trkpt lat="44.46965" lon="4.42221">
        <ele>214</ele>
        <time>2011-10-23T12:41:05.000Z</time>
      </trkpt>
      <trkpt lat="44.46956" lon="4.42215">
        <ele>213</ele>
        <time>2011-10-23T12:41:09.000Z</time>
      </trkpt>
      <trkpt lat="44.46946" lon="4.42208">
        <ele>212</ele>
        <time>2011-10-23T12:41:13.000Z</time>
      </trkpt>
      <trkpt lat="44.46929" lon="4.422">
        <ele>209</ele>
        <time>2011-10-23T12:41:19.000Z</time>
      </trkpt>
      <trkpt lat="44.4691" lon="4.42199">
        <ele>207</ele>
        <time>2011-10-23T12:41:26.000Z</time>
      </trkpt>
      <trkpt lat="44.46902" lon="4.42195">
        <ele>206</ele>
        <time>2011-10-23T12:41:29.000Z</time>
      </trkpt>
      <trkpt lat="44.46887" lon="4.42183">
        <ele>204</ele>
        <time>2011-10-23T12:41:35.000Z</time>
      </trkpt>
      <trkpt lat="44.46864" lon="4.42181">
        <ele>200</ele>
        <time>2011-10-23T12:41:41.000Z</time>
      </trkpt>
      <trkpt lat="44.46838" lon="4.42179">
        <ele>197</ele>
        <time>2011-10-23T12:41:48.000Z</time>
      </trkpt>
      <trkpt lat="44.46791" lon="4.42166">
        <ele>195</ele>
        <time>2011-10-23T12:41:58.000Z</time>
      </trkpt>
      <trkpt lat="44.46786" lon="4.42164">
        <ele>195</ele>
        <time>2011-10-23T12:41:59.000Z</time>
      </trkpt>
      <trkpt lat="44.46739" lon="4.42155">
        <ele>194</ele>
        <time>2011-10-23T12:42:08.000Z</time>
      </trkpt>
      <trkpt lat="44.46734" lon="4.42155">
        <ele>193</ele>
        <time>2011-10-23T12:42:09.000Z</time>
      </trkpt>
      <trkpt lat="44.46688" lon="4.4215">
        <ele>191</ele>
        <time>2011-10-23T12:42:18.000Z</time>
      </trkpt>
      <trkpt lat="44.46683" lon="4.42147">
        <ele>190</ele>
        <time>2011-10-23T12:42:19.000Z</time>
      </trkpt>
      <trkpt lat="44.46669" lon="4.42144">
        <ele>188</ele>
        <time>2011-10-23T12:42:22.000Z</time>
      </trkpt>
      <trkpt lat="44.46658" lon="4.42152">
        <ele>185</ele>
        <time>2011-10-23T12:42:25.000Z</time>
      </trkpt>
      <trkpt lat="44.46635" lon="4.42184">
        <ele>179</ele>
        <time>2011-10-23T12:42:33.000Z</time>
      </trkpt>
      <trkpt lat="44.46632" lon="4.42194">
        <ele>178</ele>
        <time>2011-10-23T12:42:35.000Z</time>
      </trkpt>
      <trkpt lat="44.46628" lon="4.42205">
        <ele>176</ele>
        <time>2011-10-23T12:42:38.000Z</time>
      </trkpt>
      <trkpt lat="44.46622" lon="4.4221">
        <ele>174</ele>
        <time>2011-10-23T12:42:43.000Z</time>
      </trkpt>
      <trkpt lat="44.46615" lon="4.42197">
        <ele>174</ele>
        <time>2011-10-23T12:42:50.000Z</time>
      </trkpt>
      <trkpt lat="44.46619" lon="4.42176">
        <ele>175</ele>
        <time>2011-10-23T12:43:01.000Z</time>
      </trkpt>
      <trkpt lat="44.46622" lon="4.42168">
        <ele>175</ele>
        <time>2011-10-23T12:43:05.000Z</time>
      </trkpt>
      <trkpt lat="44.46623" lon="4.42159">
        <ele>176</ele>
        <time>2011-10-23T12:43:09.000Z</time>
      </trkpt>
      <trkpt lat="44.46619" lon="4.42154">
        <ele>177</ele>
        <time>2011-10-23T12:43:13.000Z</time>
      </trkpt>
      <trkpt lat="44.46612" lon="4.42143">
        <ele>186</ele>
        <time>2011-10-23T12:44:05.000Z</time>
      </trkpt>
      <trkpt lat="44.46609" lon="4.42135">
        <ele>188</ele>
        <time>2011-10-23T12:44:58.000Z</time>
      </trkpt>
      <trkpt lat="44.46616" lon="4.42143">
        <ele>187</ele>
        <time>2011-10-23T12:45:30.000Z</time>
      </trkpt>
      <trkpt lat="44.46614" lon="4.42145">
        <ele>184</ele>
        <time>2011-10-23T12:46:18.000Z</time>
      </trkpt>
      <trkpt lat="44.46596" lon="4.42139">
        <ele>183</ele>
        <time>2011-10-23T12:46:25.000Z</time>
      </trkpt>
      <trkpt lat="44.46552" lon="4.42109">
        <ele>182</ele>
        <time>2011-10-23T12:46:37.000Z</time>
      </trkpt>
      <trkpt lat="44.46547" lon="4.42106">
        <ele>182</ele>
        <time>2011-10-23T12:46:38.000Z</time>
      </trkpt>
      <trkpt lat="44.46506" lon="4.42079">
        <ele>182</ele>
        <time>2011-10-23T12:46:49.000Z</time>
      </trkpt>
      <trkpt lat="44.46503" lon="4.42077">
        <ele>182</ele>
        <time>2011-10-23T12:46:50.000Z</time>
      </trkpt>
      <trkpt lat="44.46459" lon="4.4205">
        <ele>182</ele>
        <time>2011-10-23T12:47:02.000Z</time>
      </trkpt>
      <trkpt lat="44.46455" lon="4.42048">
        <ele>183</ele>
        <time>2011-10-23T12:47:03.000Z</time>
      </trkpt>
      <trkpt lat="44.46452" lon="4.42047">
        <ele>183</ele>
        <time>2011-10-23T12:47:04.000Z</time>
      </trkpt>
      <trkpt lat="44.46446" lon="4.42042">
        <ele>184</ele>
        <time>2011-10-23T12:47:06.000Z</time>
      </trkpt>
      <trkpt lat="44.46418" lon="4.42017">
        <ele>185</ele>
        <time>2011-10-23T12:47:14.000Z</time>
      </trkpt>
      <trkpt lat="44.46405" lon="4.42001">
        <ele>185</ele>
        <time>2011-10-23T12:47:18.000Z</time>
      </trkpt>
      <trkpt lat="44.46399" lon="4.42001">
        <ele>184</ele>
        <time>2011-10-23T12:47:21.000Z</time>
      </trkpt>
      <trkpt lat="44.46395" lon="4.4201">
        <ele>183</ele>
        <time>2011-10-23T12:47:25.000Z</time>
      </trkpt>
      <trkpt lat="44.46387" lon="4.42022">
        <ele>182</ele>
        <time>2011-10-23T12:47:29.000Z</time>
      </trkpt>
      <trkpt lat="44.46377" lon="4.42022">
        <ele>182</ele>
        <time>2011-10-23T12:47:32.000Z</time>
      </trkpt>
      <trkpt lat="44.46339" lon="4.42022">
        <ele>181</ele>
        <time>2011-10-23T12:47:42.000Z</time>
      </trkpt>
      <trkpt lat="44.463" lon="4.42026">
        <ele>180</ele>
        <time>2011-10-23T12:47:52.000Z</time>
      </trkpt>
      <trkpt lat="44.46256" lon="4.42013">
        <ele>179</ele>
        <time>2011-10-23T12:48:02.000Z</time>
      </trkpt>
      <trkpt lat="44.46251" lon="4.42012">
        <ele>179</ele>
        <time>2011-10-23T12:48:03.000Z</time>
      </trkpt>
      <trkpt lat="44.46233" lon="4.4201">
        <ele>178</ele>
        <time>2011-10-23T12:48:07.000Z</time>
      </trkpt>
      <trkpt lat="44.46216" lon="4.42019">
        <ele>179</ele>
        <time>2011-10-23T12:48:12.000Z</time>
      </trkpt>
      <trkpt lat="44.46207" lon="4.42017">
        <ele>179</ele>
        <time>2011-10-23T12:48:15.000Z</time>
      </trkpt>
      <trkpt lat="44.46175" lon="4.41995">
        <ele>183</ele>
        <time>2011-10-23T12:48:25.000Z</time>
      </trkpt>
      <trkpt lat="44.46161" lon="4.41984">
        <ele>184</ele>
        <time>2011-10-23T12:48:29.000Z</time>
      </trkpt>
      <trkpt lat="44.46144" lon="4.41979">
        <ele>183</ele>
        <time>2011-10-23T12:48:33.000Z</time>
      </trkpt>
      <trkpt lat="44.46127" lon="4.41964">
        <ele>183</ele>
        <time>2011-10-23T12:48:37.000Z</time>
      </trkpt>
      <trkpt lat="44.46111" lon="4.41963">
        <ele>183</ele>
        <time>2011-10-23T12:48:40.000Z</time>
      </trkpt>
      <trkpt lat="44.46099" lon="4.41963">
        <ele>182</ele>
        <time>2011-10-23T12:48:43.000Z</time>
      </trkpt>
      <trkpt lat="44.46066" lon="4.41944">
        <ele>181</ele>
        <time>2011-10-23T12:48:50.000Z</time>
      </trkpt>
      <trkpt lat="44.4604" lon="4.41933">
        <ele>180</ele>
        <time>2011-10-23T12:48:55.000Z</time>
      </trkpt>
      <trkpt lat="44.46014" lon="4.41929">
        <ele>178</ele>
        <time>2011-10-23T12:49:00.000Z</time>
      </trkpt>
      <trkpt lat="44.45998" lon="4.41926">
        <ele>178</ele>
        <time>2011-10-23T12:49:05.000Z</time>
      </trkpt>
      <trkpt lat="44.45996" lon="4.4193">
        <ele>177</ele>
        <time>2011-10-23T12:49:18.000Z</time>
      </trkpt>
      <trkpt lat="44.46007" lon="4.4195">
        <ele>176</ele>
        <time>2011-10-23T12:49:31.000Z</time>
      </trkpt>
      <trkpt lat="44.46014" lon="4.41966">
        <ele>177</ele>
        <time>2011-10-23T12:49:39.000Z</time>
      </trkpt>
      <trkpt lat="44.46024" lon="4.41972">
        <ele>176</ele>
        <time>2011-10-23T12:49:45.000Z</time>
      </trkpt>
      <trkpt lat="44.46041" lon="4.41981">
        <ele>178</ele>
        <time>2011-10-23T12:49:55.000Z</time>
      </trkpt>
      <trkpt lat="44.46078" lon="4.42018">
        <ele>181</ele>
        <time>2011-10-23T12:50:20.000Z</time>
      </trkpt>
      <trkpt lat="44.4608" lon="4.4202">
        <ele>181</ele>
        <time>2011-10-23T12:50:21.000Z</time>
      </trkpt>
      <trkpt lat="44.46082" lon="4.42023">
        <ele>182</ele>
        <time>2011-10-23T12:50:23.000Z</time>
      </trkpt>
      <trkpt lat="44.4612" lon="4.42058">
        <ele>185</ele>
        <time>2011-10-23T12:50:50.000Z</time>
      </trkpt>
      <trkpt lat="44.4612" lon="4.4206">
        <ele>185</ele>
        <time>2011-10-23T12:50:51.000Z</time>
      </trkpt>
      <trkpt lat="44.4612" lon="4.42062">
        <ele>185</ele>
        <time>2011-10-23T12:50:52.000Z</time>
      </trkpt>
      <trkpt lat="44.46114" lon="4.42063">
        <ele>188</ele>
        <time>2011-10-23T12:50:57.000Z</time>
      </trkpt>
      <trkpt lat="44.46104" lon="4.42057">
        <ele>190</ele>
        <time>2011-10-23T12:51:03.000Z</time>
      </trkpt>
      <trkpt lat="44.4606" lon="4.42057">
        <ele>197</ele>
        <time>2011-10-23T12:51:23.000Z</time>
      </trkpt>
      <trkpt lat="44.46058" lon="4.42057">
        <ele>197</ele>
        <time>2011-10-23T12:51:24.000Z</time>
      </trkpt>
      <trkpt lat="44.46054" lon="4.42062">
        <ele>198</ele>
        <time>2011-10-23T12:51:27.000Z</time>
      </trkpt>
      <trkpt lat="44.46055" lon="4.42069">
        <ele>198</ele>
        <time>2011-10-23T12:51:31.000Z</time>
      </trkpt>
      <trkpt lat="44.46061" lon="4.42071">
        <ele>199</ele>
        <time>2011-10-23T12:51:35.000Z</time>
      </trkpt>
      <trkpt lat="44.46067" lon="4.42073">
        <ele>199</ele>
        <time>2011-10-23T12:51:39.000Z</time>
      </trkpt>
      <trkpt lat="44.46075" lon="4.42076">
        <ele>199</ele>
        <time>2011-10-23T12:51:45.000Z</time>
      </trkpt>
      <trkpt lat="44.46098" lon="4.42095">
        <ele>200</ele>
        <time>2011-10-23T12:51:59.000Z</time>
      </trkpt>
      <trkpt lat="44.46113" lon="4.42117">
        <ele>201</ele>
        <time>2011-10-23T12:52:11.000Z</time>
      </trkpt>
      <trkpt lat="44.46118" lon="4.4213">
        <ele>203</ele>
        <time>2011-10-23T12:52:17.000Z</time>
      </trkpt>
      <trkpt lat="44.46128" lon="4.42164">
        <ele>205</ele>
        <time>2011-10-23T12:52:33.000Z</time>
      </trkpt>
      <trkpt lat="44.46135" lon="4.42193">
        <ele>209</ele>
        <time>2011-10-23T12:52:45.000Z</time>
      </trkpt>
      <trkpt lat="44.46139" lon="4.42219">
        <ele>213</ele>
        <time>2011-10-23T12:52:55.000Z</time>
      </trkpt>
      <trkpt lat="44.4614" lon="4.42228">
        <ele>215</ele>
        <time>2011-10-23T12:52:59.000Z</time>
      </trkpt>
      <trkpt lat="44.46139" lon="4.42247">
        <ele>219</ele>
        <time>2011-10-23T12:53:07.000Z</time>
      </trkpt>
      <trkpt lat="44.46134" lon="4.42251">
        <ele>221</ele>
        <time>2011-10-23T12:53:12.000Z</time>
      </trkpt>
      <trkpt lat="44.46128" lon="4.4225">
        <ele>223</ele>
        <time>2011-10-23T12:53:18.000Z</time>
      </trkpt>
      <trkpt lat="44.46114" lon="4.42251">
        <ele>223</ele>
        <time>2011-10-23T12:53:29.000Z</time>
      </trkpt>
      <trkpt lat="44.46105" lon="4.42255">
        <ele>223</ele>
        <time>2011-10-23T12:53:38.000Z</time>
      </trkpt>
      <trkpt lat="44.46101" lon="4.42261">
        <ele>225</ele>
        <time>2011-10-23T12:53:44.000Z</time>
      </trkpt>
      <trkpt lat="44.46089" lon="4.42279">
        <ele>229</ele>
        <time>2011-10-23T12:54:02.000Z</time>
      </trkpt>
      <trkpt lat="44.4607" lon="4.42287">
        <ele>230</ele>
        <time>2011-10-23T12:54:24.000Z</time>
      </trkpt>
      <trkpt lat="44.4603" lon="4.42318">
        <ele>232</ele>
        <time>2011-10-23T12:55:08.000Z</time>
      </trkpt>
      <trkpt lat="44.46029" lon="4.42319">
        <ele>233</ele>
        <time>2011-10-23T12:55:09.000Z</time>
      </trkpt>
      <trkpt lat="44.46026" lon="4.42319">
        <ele>233</ele>
        <time>2011-10-23T12:55:11.000Z</time>
      </trkpt>
      <trkpt lat="44.46004" lon="4.4233">
        <ele>234</ele>
        <time>2011-10-23T12:56:12.000Z</time>
      </trkpt>
      <trkpt lat="44.45992" lon="4.42336">
        <ele>234</ele>
        <time>2011-10-23T12:56:21.000Z</time>
      </trkpt>
      <trkpt lat="44.4597" lon="4.42345">
        <ele>239</ele>
        <time>2011-10-23T12:56:36.000Z</time>
      </trkpt>
      <trkpt lat="44.45933" lon="4.4236">
        <ele>247</ele>
        <time>2011-10-23T12:57:02.000Z</time>
      </trkpt>
      <trkpt lat="44.45914" lon="4.42374">
        <ele>250</ele>
        <time>2011-10-23T12:57:16.000Z</time>
      </trkpt>
      <trkpt lat="44.45911" lon="4.42381">
        <ele>250</ele>
        <time>2011-10-23T12:57:20.000Z</time>
      </trkpt>
      <trkpt lat="44.45913" lon="4.424">
        <ele>252</ele>
        <time>2011-10-23T12:57:30.000Z</time>
      </trkpt>
      <trkpt lat="44.45916" lon="4.4241">
        <ele>253</ele>
        <time>2011-10-23T12:57:36.000Z</time>
      </trkpt>
      <trkpt lat="44.45916" lon="4.42418">
        <ele>253</ele>
        <time>2011-10-23T12:57:40.000Z</time>
      </trkpt>
      <trkpt lat="44.45916" lon="4.42439">
        <ele>249</ele>
        <time>2011-10-23T13:03:02.000Z</time>
      </trkpt>
      <trkpt lat="44.45915" lon="4.42506">
        <ele>253</ele>
        <time>2011-10-23T13:03:22.000Z</time>
      </trkpt>
      <trkpt lat="44.45915" lon="4.42512">
        <ele>253</ele>
        <time>2011-10-23T13:03:23.000Z</time>
      </trkpt>
      <trkpt lat="44.45912" lon="4.42547">
        <ele>252</ele>
        <time>2011-10-23T13:03:28.000Z</time>
      </trkpt>
      <trkpt lat="44.45908" lon="4.42561">
        <ele>251</ele>
        <time>2011-10-23T13:03:30.000Z</time>
      </trkpt>
      <trkpt lat="44.45896" lon="4.42621">
        <ele>247</ele>
        <time>2011-10-23T13:03:38.000Z</time>
      </trkpt>
      <trkpt lat="44.45895" lon="4.42628">
        <ele>246</ele>
        <time>2011-10-23T13:03:39.000Z</time>
      </trkpt>
      <trkpt lat="44.45889" lon="4.42693">
        <ele>242</ele>
        <time>2011-10-23T13:03:50.000Z</time>
      </trkpt>
      <trkpt lat="44.45889" lon="4.42698">
        <ele>242</ele>
        <time>2011-10-23T13:03:51.000Z</time>
      </trkpt>
      <trkpt lat="44.4589" lon="4.42709">
        <ele>241</ele>
        <time>2011-10-23T13:03:53.000Z</time>
      </trkpt>
      <trkpt lat="44.45895" lon="4.4273">
        <ele>238</ele>
        <time>2011-10-23T13:03:57.000Z</time>
      </trkpt>
      <trkpt lat="44.4591" lon="4.42763">
        <ele>239</ele>
        <time>2011-10-23T13:04:05.000Z</time>
      </trkpt>
      <trkpt lat="44.4589" lon="4.42735">
        <ele>252</ele>
        <time>2011-10-23T13:04:22.000Z</time>
      </trkpt>
      <trkpt lat="44.45884" lon="4.42727">
        <ele>255</ele>
        <time>2011-10-23T13:04:26.000Z</time>
      </trkpt>
      <trkpt lat="44.45873" lon="4.42733">
        <ele>256</ele>
        <time>2011-10-23T13:04:32.000Z</time>
      </trkpt>
      <trkpt lat="44.45865" lon="4.4274">
        <ele>258</ele>
        <time>2011-10-23T13:04:38.000Z</time>
      </trkpt>
      <trkpt lat="44.45864" lon="4.42747">
        <ele>259</ele>
        <time>2011-10-23T13:04:42.000Z</time>
      </trkpt>
      <trkpt lat="44.45863" lon="4.42755">
        <ele>260</ele>
        <time>2011-10-23T13:04:47.000Z</time>
      </trkpt>
      <trkpt lat="44.4586" lon="4.42767">
        <ele>262</ele>
        <time>2011-10-23T13:04:53.000Z</time>
      </trkpt>
      <trkpt lat="44.45855" lon="4.42783">
        <ele>263</ele>
        <time>2011-10-23T13:05:01.000Z</time>
      </trkpt>
      <trkpt lat="44.45855" lon="4.42812">
        <ele>264</ele>
        <time>2011-10-23T13:05:17.000Z</time>
      </trkpt>
      <trkpt lat="44.45854" lon="4.42824">
        <ele>264</ele>
        <time>2011-10-23T13:05:23.000Z</time>
      </trkpt>
      <trkpt lat="44.45853" lon="4.4284">
        <ele>265</ele>
        <time>2011-10-23T13:05:31.000Z</time>
      </trkpt>
      <trkpt lat="44.45851" lon="4.42849">
        <ele>265</ele>
        <time>2011-10-23T13:05:35.000Z</time>
      </trkpt>
      <trkpt lat="44.45838" lon="4.42875">
        <ele>266</ele>
        <time>2011-10-23T13:05:49.000Z</time>
      </trkpt>
      <trkpt lat="44.45834" lon="4.42894">
        <ele>265</ele>
        <time>2011-10-23T13:05:57.000Z</time>
      </trkpt>
      <trkpt lat="44.45832" lon="4.42936">
        <ele>267</ele>
        <time>2011-10-23T13:06:13.000Z</time>
      </trkpt>
      <trkpt lat="44.45822" lon="4.42961">
        <ele>264</ele>
        <time>2011-10-23T13:06:22.000Z</time>
      </trkpt>
      <trkpt lat="44.4582" lon="4.42971">
        <ele>263</ele>
        <time>2011-10-23T13:06:25.000Z</time>
      </trkpt>
      <trkpt lat="44.45814" lon="4.42994">
        <ele>263</ele>
        <time>2011-10-23T13:06:31.000Z</time>
      </trkpt>
      <trkpt lat="44.45811" lon="4.43004">
        <ele>263</ele>
        <time>2011-10-23T13:06:34.000Z</time>
      </trkpt>
      <trkpt lat="44.45805" lon="4.43017">
        <ele>264</ele>
        <time>2011-10-23T13:06:38.000Z</time>
      </trkpt>
      <trkpt lat="44.45795" lon="4.43037">
        <ele>265</ele>
        <time>2011-10-23T13:06:44.000Z</time>
      </trkpt>
      <trkpt lat="44.45789" lon="4.43047">
        <ele>266</ele>
        <time>2011-10-23T13:06:47.000Z</time>
      </trkpt>
      <trkpt lat="44.45784" lon="4.43073">
        <ele>267</ele>
        <time>2011-10-23T13:06:57.000Z</time>
      </trkpt>
      <trkpt lat="44.45783" lon="4.43082">
        <ele>268</ele>
        <time>2011-10-23T13:07:01.000Z</time>
      </trkpt>
      <trkpt lat="44.45778" lon="4.43093">
        <ele>268</ele>
        <time>2011-10-23T13:07:07.000Z</time>
      </trkpt>
      <trkpt lat="44.45755" lon="4.43115">
        <ele>272</ele>
        <time>2011-10-23T13:07:23.000Z</time>
      </trkpt>
      <trkpt lat="44.45736" lon="4.43137">
        <ele>272</ele>
        <time>2011-10-23T13:07:48.000Z</time>
      </trkpt>
      <trkpt lat="44.45712" lon="4.43168">
        <ele>277</ele>
        <time>2011-10-23T13:08:16.000Z</time>
      </trkpt>
      <trkpt lat="44.45709" lon="4.43176">
        <ele>278</ele>
        <time>2011-10-23T13:08:21.000Z</time>
      </trkpt>
      <trkpt lat="44.45688" lon="4.43233">
        <ele>281</ele>
        <time>2011-10-23T13:09:02.000Z</time>
      </trkpt>
      <trkpt lat="44.45687" lon="4.43234">
        <ele>281</ele>
        <time>2011-10-23T13:09:03.000Z</time>
      </trkpt>
      <trkpt lat="44.45684" lon="4.43242">
        <ele>282</ele>
        <time>2011-10-23T13:09:08.000Z</time>
      </trkpt>
      <trkpt lat="44.45681" lon="4.43249">
        <ele>282</ele>
        <time>2011-10-23T13:09:13.000Z</time>
      </trkpt>
      <trkpt lat="44.45676" lon="4.43266">
        <ele>285</ele>
        <time>2011-10-23T13:09:24.000Z</time>
      </trkpt>
      <trkpt lat="44.45677" lon="4.43273">
        <ele>286</ele>
        <time>2011-10-23T13:09:28.000Z</time>
      </trkpt>
      <trkpt lat="44.45678" lon="4.43283">
        <ele>287</ele>
        <time>2011-10-23T13:09:34.000Z</time>
      </trkpt>
      <trkpt lat="44.45679" lon="4.43314">
        <ele>278</ele>
        <time>2011-10-23T13:09:51.000Z</time>
      </trkpt>
      <trkpt lat="44.4568" lon="4.43329">
        <ele>278</ele>
        <time>2011-10-23T13:09:57.000Z</time>
      </trkpt>
      <trkpt lat="44.4568" lon="4.43339">
        <ele>278</ele>
        <time>2011-10-23T13:10:01.000Z</time>
      </trkpt>
      <trkpt lat="44.45681" lon="4.43355">
        <ele>276</ele>
        <time>2011-10-23T13:10:07.000Z</time>
      </trkpt>
      <trkpt lat="44.45681" lon="4.43368">
        <ele>272</ele>
        <time>2011-10-23T13:10:13.000Z</time>
      </trkpt>
      <trkpt lat="44.4568" lon="4.43386">
        <ele>267</ele>
        <time>2011-10-23T13:10:21.000Z</time>
      </trkpt>
      <trkpt lat="44.45681" lon="4.43407">
        <ele>265</ele>
        <time>2011-10-23T13:10:30.000Z</time>
      </trkpt>
      <trkpt lat="44.45688" lon="4.43419">
        <ele>269</ele>
        <time>2011-10-23T13:10:42.000Z</time>
      </trkpt>
      <trkpt lat="44.45684" lon="4.4343">
        <ele>289</ele>
        <time>2011-10-23T13:11:49.000Z</time>
      </trkpt>
      <trkpt lat="44.45675" lon="4.43429">
        <ele>289</ele>
        <time>2011-10-23T13:11:55.000Z</time>
      </trkpt>
      <trkpt lat="44.45667" lon="4.43429">
        <ele>289</ele>
        <time>2011-10-23T13:11:59.000Z</time>
      </trkpt>
      <trkpt lat="44.45621" lon="4.43432">
        <ele>286</ele>
        <time>2011-10-23T13:12:21.000Z</time>
      </trkpt>
      <trkpt lat="44.45618" lon="4.43433">
        <ele>286</ele>
        <time>2011-10-23T13:12:22.000Z</time>
      </trkpt>
      <trkpt lat="44.45572" lon="4.43432">
        <ele>287</ele>
        <time>2011-10-23T13:12:40.000Z</time>
      </trkpt>
      <trkpt lat="44.45569" lon="4.43431">
        <ele>287</ele>
        <time>2011-10-23T13:12:41.000Z</time>
      </trkpt>
      <trkpt lat="44.4556" lon="4.43431">
        <ele>287</ele>
        <time>2011-10-23T13:12:44.000Z</time>
      </trkpt>
      <trkpt lat="44.45514" lon="4.43437">
        <ele>287</ele>
        <time>2011-10-23T13:13:00.000Z</time>
      </trkpt>
      <trkpt lat="44.45511" lon="4.43437">
        <ele>287</ele>
        <time>2011-10-23T13:13:01.000Z</time>
      </trkpt>
      <trkpt lat="44.45506" lon="4.43439">
        <ele>287</ele>
        <time>2011-10-23T13:13:03.000Z</time>
      </trkpt>
      <trkpt lat="44.45478" lon="4.43444">
        <ele>286</ele>
        <time>2011-10-23T13:13:11.000Z</time>
      </trkpt>
      <trkpt lat="44.45465" lon="4.43446">
        <ele>286</ele>
        <time>2011-10-23T13:13:15.000Z</time>
      </trkpt>
      <trkpt lat="44.4545" lon="4.43447">
        <ele>286</ele>
        <time>2011-10-23T13:13:20.000Z</time>
      </trkpt>
      <trkpt lat="44.45453" lon="4.43455">
        <ele>286</ele>
        <time>2011-10-23T13:13:25.000Z</time>
      </trkpt>
      <trkpt lat="44.45475" lon="4.43471">
        <ele>286</ele>
        <time>2011-10-23T13:13:33.000Z</time>
      </trkpt>
      <trkpt lat="44.45491" lon="4.43497">
        <ele>285</ele>
        <time>2011-10-23T13:13:39.000Z</time>
      </trkpt>
      <trkpt lat="44.45522" lon="4.43543">
        <ele>284</ele>
        <time>2011-10-23T13:13:49.000Z</time>
      </trkpt>
      <trkpt lat="44.45523" lon="4.43547">
        <ele>283</ele>
        <time>2011-10-23T13:13:50.000Z</time>
      </trkpt>
      <trkpt lat="44.45525" lon="4.43553">
        <ele>282</ele>
        <time>2011-10-23T13:13:51.000Z</time>
      </trkpt>
      <trkpt lat="44.45534" lon="4.4361">
        <ele>272</ele>
        <time>2011-10-23T13:14:01.000Z</time>
      </trkpt>
      <trkpt lat="44.45535" lon="4.43615">
        <ele>271</ele>
        <time>2011-10-23T13:14:02.000Z</time>
      </trkpt>
      <trkpt lat="44.45535" lon="4.43624">
        <ele>269</ele>
        <time>2011-10-23T13:14:04.000Z</time>
      </trkpt>
      <trkpt lat="44.45534" lon="4.43663">
        <ele>262</ele>
        <time>2011-10-23T13:14:12.000Z</time>
      </trkpt>
      <trkpt lat="44.4554" lon="4.43689">
        <ele>258</ele>
        <time>2011-10-23T13:14:19.000Z</time>
      </trkpt>
      <trkpt lat="44.45537" lon="4.43699">
        <ele>258</ele>
        <time>2011-10-23T13:14:23.000Z</time>
      </trkpt>
      <trkpt lat="44.45521" lon="4.4371">
        <ele>260</ele>
        <time>2011-10-23T13:14:30.000Z</time>
      </trkpt>
      <trkpt lat="44.4552" lon="4.4372">
        <ele>261</ele>
        <time>2011-10-23T13:14:34.000Z</time>
      </trkpt>
      <trkpt lat="44.45527" lon="4.43738">
        <ele>264</ele>
        <time>2011-10-23T13:14:43.000Z</time>
      </trkpt>
      <trkpt lat="44.4554" lon="4.43758">
        <ele>265</ele>
        <time>2011-10-23T13:14:49.000Z</time>
      </trkpt>
      <trkpt lat="44.45549" lon="4.43772">
        <ele>265</ele>
        <time>2011-10-23T13:14:53.000Z</time>
      </trkpt>
      <trkpt lat="44.45551" lon="4.43791">
        <ele>266</ele>
        <time>2011-10-23T13:14:59.000Z</time>
      </trkpt>
      <trkpt lat="44.45545" lon="4.43796">
        <ele>267</ele>
        <time>2011-10-23T13:15:02.000Z</time>
      </trkpt>
      <trkpt lat="44.45532" lon="4.43795">
        <ele>267</ele>
        <time>2011-10-23T13:15:06.000Z</time>
      </trkpt>
      <trkpt lat="44.45487" lon="4.43784">
        <ele>261</ele>
        <time>2011-10-23T13:15:19.000Z</time>
      </trkpt>
      <trkpt lat="44.45483" lon="4.43783">
        <ele>261</ele>
        <time>2011-10-23T13:15:20.000Z</time>
      </trkpt>
      <trkpt lat="44.45462" lon="4.43776">
        <ele>257</ele>
        <time>2011-10-23T13:15:27.000Z</time>
      </trkpt>
      <trkpt lat="44.45447" lon="4.4377">
        <ele>253</ele>
        <time>2011-10-23T13:15:32.000Z</time>
      </trkpt>
      <trkpt lat="44.4543" lon="4.43761">
        <ele>257</ele>
        <time>2011-10-23T13:16:03.000Z</time>
      </trkpt>
      <trkpt lat="44.45421" lon="4.43759">
        <ele>255</ele>
        <time>2011-10-23T13:16:08.000Z</time>
      </trkpt>
      <trkpt lat="44.45407" lon="4.43753">
        <ele>253</ele>
        <time>2011-10-23T13:16:13.000Z</time>
      </trkpt>
      <trkpt lat="44.4539" lon="4.43753">
        <ele>251</ele>
        <time>2011-10-23T13:16:17.000Z</time>
      </trkpt>
      <trkpt lat="44.45343" lon="4.43756">
        <ele>246</ele>
        <time>2011-10-23T13:16:27.000Z</time>
      </trkpt>
      <trkpt lat="44.4534" lon="4.43757">
        <ele>245</ele>
        <time>2011-10-23T13:16:28.000Z</time>
      </trkpt>
      <trkpt lat="44.4533" lon="4.43768">
        <ele>243</ele>
        <time>2011-10-23T13:16:32.000Z</time>
      </trkpt>
      <trkpt lat="44.45323" lon="4.43781">
        <ele>241</ele>
        <time>2011-10-23T13:16:37.000Z</time>
      </trkpt>
      <trkpt lat="44.45315" lon="4.43789">
        <ele>242</ele>
        <time>2011-10-23T13:16:43.000Z</time>
      </trkpt>
      <trkpt lat="44.45314" lon="4.43796">
        <ele>243</ele>
        <time>2011-10-23T13:17:10.000Z</time>
      </trkpt>
      <trkpt lat="44.45311" lon="4.438">
        <ele>244</ele>
        <time>2011-10-23T13:19:14.000Z</time>
      </trkpt>
      <trkpt lat="44.45306" lon="4.43793">
        <ele>250</ele>
        <time>2011-10-23T13:19:44.000Z</time>
      </trkpt>
      <trkpt lat="44.45288" lon="4.43793">
        <ele>244</ele>
        <time>2011-10-23T13:19:58.000Z</time>
      </trkpt>
      <trkpt lat="44.45249" lon="4.438">
        <ele>240</ele>
        <time>2011-10-23T13:20:35.000Z</time>
      </trkpt>
      <trkpt lat="44.45238" lon="4.43798">
        <ele>240</ele>
        <time>2011-10-23T13:20:41.000Z</time>
      </trkpt>
      <trkpt lat="44.45227" lon="4.438">
        <ele>241</ele>
        <time>2011-10-23T13:20:47.000Z</time>
      </trkpt>
      <trkpt lat="44.4521" lon="4.43801">
        <ele>241</ele>
        <time>2011-10-23T13:20:55.000Z</time>
      </trkpt>
      <trkpt lat="44.45166" lon="4.43822">
        <ele>244</ele>
        <time>2011-10-23T13:21:19.000Z</time>
      </trkpt>
      <trkpt lat="44.45164" lon="4.43823">
        <ele>244</ele>
        <time>2011-10-23T13:21:20.000Z</time>
      </trkpt>
      <trkpt lat="44.45149" lon="4.43828">
        <ele>243</ele>
        <time>2011-10-23T13:21:29.000Z</time>
      </trkpt>
      <trkpt lat="44.45126" lon="4.43834">
        <ele>243</ele>
        <time>2011-10-23T13:21:41.000Z</time>
      </trkpt>
      <trkpt lat="44.45113" lon="4.43843">
        <ele>244</ele>
        <time>2011-10-23T13:21:49.000Z</time>
      </trkpt>
      <trkpt lat="44.45101" lon="4.43844">
        <ele>244</ele>
        <time>2011-10-23T13:21:56.000Z</time>
      </trkpt>
      <trkpt lat="44.45093" lon="4.43842">
        <ele>244</ele>
        <time>2011-10-23T13:22:00.000Z</time>
      </trkpt>
      <trkpt lat="44.45068" lon="4.4385">
        <ele>244</ele>
        <time>2011-10-23T13:22:14.000Z</time>
      </trkpt>
      <trkpt lat="44.45052" lon="4.43861">
        <ele>245</ele>
        <time>2011-10-23T13:22:23.000Z</time>
      </trkpt>
      <trkpt lat="44.45037" lon="4.43871">
        <ele>246</ele>
        <time>2011-10-23T13:22:31.000Z</time>
      </trkpt>
      <trkpt lat="44.45031" lon="4.43877">
        <ele>246</ele>
        <time>2011-10-23T13:22:33.000Z</time>
      </trkpt>
      <trkpt lat="44.45021" lon="4.43889">
        <ele>245</ele>
        <time>2011-10-23T13:22:37.000Z</time>
      </trkpt>
      <trkpt lat="44.45004" lon="4.43903">
        <ele>242</ele>
        <time>2011-10-23T13:22:42.000Z</time>
      </trkpt>
      <trkpt lat="44.44992" lon="4.43909">
        <ele>241</ele>
        <time>2011-10-23T13:22:45.000Z</time>
      </trkpt>
      <trkpt lat="44.44965" lon="4.43934">
        <ele>238</ele>
        <time>2011-10-23T13:22:53.000Z</time>
      </trkpt>
      <trkpt lat="44.44954" lon="4.43941">
        <ele>237</ele>
        <time>2011-10-23T13:22:56.000Z</time>
      </trkpt>
      <trkpt lat="44.44941" lon="4.43947">
        <ele>237</ele>
        <time>2011-10-23T13:22:59.000Z</time>
      </trkpt>
      <trkpt lat="44.44928" lon="4.43956">
        <ele>237</ele>
        <time>2011-10-23T13:23:03.000Z</time>
      </trkpt>
      <trkpt lat="44.44916" lon="4.43961">
        <ele>241</ele>
        <time>2011-10-23T13:23:42.000Z</time>
      </trkpt>
      <trkpt lat="44.44915" lon="4.43968">
        <ele>250</ele>
        <time>2011-10-23T13:25:33.000Z</time>
      </trkpt>
      <trkpt lat="44.44904" lon="4.43969">
        <ele>249</ele>
        <time>2011-10-23T13:25:39.000Z</time>
      </trkpt>
      <trkpt lat="44.4489" lon="4.43969">
        <ele>247</ele>
        <time>2011-10-23T13:25:45.000Z</time>
      </trkpt>
      <trkpt lat="44.44878" lon="4.43969">
        <ele>246</ele>
        <time>2011-10-23T13:25:49.000Z</time>
      </trkpt>
      <trkpt lat="44.4486" lon="4.43966">
        <ele>245</ele>
        <time>2011-10-23T13:25:55.000Z</time>
      </trkpt>
      <trkpt lat="44.44836" lon="4.43972">
        <ele>244</ele>
        <time>2011-10-23T13:26:03.000Z</time>
      </trkpt>
      <trkpt lat="44.4483" lon="4.43976">
        <ele>244</ele>
        <time>2011-10-23T13:26:05.000Z</time>
      </trkpt>
      <trkpt lat="44.44824" lon="4.43979">
        <ele>244</ele>
        <time>2011-10-23T13:26:07.000Z</time>
      </trkpt>
      <trkpt lat="44.44779" lon="4.43993">
        <ele>240</ele>
        <time>2011-10-23T13:26:18.000Z</time>
      </trkpt>
      <trkpt lat="44.44773" lon="4.43996">
        <ele>239</ele>
        <time>2011-10-23T13:26:19.000Z</time>
      </trkpt>
      <trkpt lat="44.44768" lon="4.44">
        <ele>238</ele>
        <time>2011-10-23T13:26:20.000Z</time>
      </trkpt>
      <trkpt lat="44.44737" lon="4.44018">
        <ele>234</ele>
        <time>2011-10-23T13:26:26.000Z</time>
      </trkpt>
      <trkpt lat="44.44729" lon="4.44031">
        <ele>232</ele>
        <time>2011-10-23T13:26:29.000Z</time>
      </trkpt>
      <trkpt lat="44.44727" lon="4.44039">
        <ele>235</ele>
        <time>2011-10-23T13:26:47.000Z</time>
      </trkpt>
      <trkpt lat="44.44725" lon="4.44049">
        <ele>237</ele>
        <time>2011-10-23T13:26:51.000Z</time>
      </trkpt>
      <trkpt lat="44.44718" lon="4.44066">
        <ele>239</ele>
        <time>2011-10-23T13:26:57.000Z</time>
      </trkpt>
      <trkpt lat="44.44704" lon="4.44079">
        <ele>241</ele>
        <time>2011-10-23T13:27:07.000Z</time>
      </trkpt>
      <trkpt lat="44.44692" lon="4.44074">
        <ele>240</ele>
        <time>2011-10-23T13:27:16.000Z</time>
      </trkpt>
      <trkpt lat="44.44685" lon="4.44074">
        <ele>241</ele>
        <time>2011-10-23T13:27:20.000Z</time>
      </trkpt>
      <trkpt lat="44.44676" lon="4.44078">
        <ele>242</ele>
        <time>2011-10-23T13:27:27.000Z</time>
      </trkpt>
      <trkpt lat="44.4466" lon="4.44075">
        <ele>245</ele>
        <time>2011-10-23T13:27:38.000Z</time>
      </trkpt>
      <trkpt lat="44.44645" lon="4.44056">
        <ele>247</ele>
        <time>2011-10-23T13:27:48.000Z</time>
      </trkpt>
      <trkpt lat="44.4463" lon="4.4405">
        <ele>250</ele>
        <time>2011-10-23T13:27:56.000Z</time>
      </trkpt>
      <trkpt lat="44.44622" lon="4.44054">
        <ele>250</ele>
        <time>2011-10-23T13:28:00.000Z</time>
      </trkpt>
      <trkpt lat="44.44613" lon="4.44056">
        <ele>252</ele>
        <time>2011-10-23T13:28:29.000Z</time>
      </trkpt>
      <trkpt lat="44.44605" lon="4.44065">
        <ele>253</ele>
        <time>2011-10-23T13:28:36.000Z</time>
      </trkpt>
      <trkpt lat="44.44582" lon="4.44105">
        <ele>254</ele>
        <time>2011-10-23T13:28:51.000Z</time>
      </trkpt>
      <trkpt lat="44.44552" lon="4.44133">
        <ele>256</ele>
        <time>2011-10-23T13:29:06.000Z</time>
      </trkpt>
      <trkpt lat="44.44548" lon="4.44141">
        <ele>256</ele>
        <time>2011-10-23T13:29:09.000Z</time>
      </trkpt>
      <trkpt lat="44.44539" lon="4.44151">
        <ele>257</ele>
        <time>2011-10-23T13:29:13.000Z</time>
      </trkpt>
      <trkpt lat="44.44518" lon="4.44171">
        <ele>256</ele>
        <time>2011-10-23T13:29:21.000Z</time>
      </trkpt>
      <trkpt lat="44.44508" lon="4.44189">
        <ele>255</ele>
        <time>2011-10-23T13:29:26.000Z</time>
      </trkpt>
      <trkpt lat="44.4449" lon="4.44243">
        <ele>252</ele>
        <time>2011-10-23T13:29:40.000Z</time>
      </trkpt>
      <trkpt lat="44.44487" lon="4.44248">
        <ele>252</ele>
        <time>2011-10-23T13:29:41.000Z</time>
      </trkpt>
      <trkpt lat="44.44479" lon="4.4426">
        <ele>250</ele>
        <time>2011-10-23T13:29:44.000Z</time>
      </trkpt>
      <trkpt lat="44.44467" lon="4.44276">
        <ele>249</ele>
        <time>2011-10-23T13:29:48.000Z</time>
      </trkpt>
      <trkpt lat="44.44459" lon="4.44299">
        <ele>248</ele>
        <time>2011-10-23T13:29:53.000Z</time>
      </trkpt>
      <trkpt lat="44.4445" lon="4.44308">
        <ele>247</ele>
        <time>2011-10-23T13:29:56.000Z</time>
      </trkpt>
      <trkpt lat="44.44417" lon="4.44348">
        <ele>247</ele>
        <time>2011-10-23T13:30:07.000Z</time>
      </trkpt>
      <trkpt lat="44.44415" lon="4.44354">
        <ele>247</ele>
        <time>2011-10-23T13:30:08.000Z</time>
      </trkpt>
      <trkpt lat="44.44414" lon="4.44359">
        <ele>247</ele>
        <time>2011-10-23T13:30:09.000Z</time>
      </trkpt>
      <trkpt lat="44.44406" lon="4.44385">
        <ele>247</ele>
        <time>2011-10-23T13:30:14.000Z</time>
      </trkpt>
      <trkpt lat="44.44401" lon="4.44392">
        <ele>247</ele>
        <time>2011-10-23T13:30:16.000Z</time>
      </trkpt>
      <trkpt lat="44.44369" lon="4.44441">
        <ele>249</ele>
        <time>2011-10-23T13:30:27.000Z</time>
      </trkpt>
      <trkpt lat="44.44366" lon="4.44445">
        <ele>249</ele>
        <time>2011-10-23T13:30:28.000Z</time>
      </trkpt>
      <trkpt lat="44.44363" lon="4.44448">
        <ele>249</ele>
        <time>2011-10-23T13:30:29.000Z</time>
      </trkpt>
      <trkpt lat="44.44349" lon="4.4446">
        <ele>249</ele>
        <time>2011-10-23T13:30:33.000Z</time>
      </trkpt>
      <trkpt lat="44.44334" lon="4.44462">
        <ele>249</ele>
        <time>2011-10-23T13:30:36.000Z</time>
      </trkpt>
      <trkpt lat="44.44319" lon="4.44474">
        <ele>248</ele>
        <time>2011-10-23T13:30:39.000Z</time>
      </trkpt>
      <trkpt lat="44.44303" lon="4.44485">
        <ele>248</ele>
        <time>2011-10-23T13:30:43.000Z</time>
      </trkpt>
      <trkpt lat="44.44288" lon="4.44485">
        <ele>247</ele>
        <time>2011-10-23T13:30:47.000Z</time>
      </trkpt>
      <trkpt lat="44.4426" lon="4.44473">
        <ele>244</ele>
        <time>2011-10-23T13:30:53.000Z</time>
      </trkpt>
      <trkpt lat="44.44218" lon="4.4445">
        <ele>242</ele>
        <time>2011-10-23T13:31:02.000Z</time>
      </trkpt>
      <trkpt lat="44.44214" lon="4.44446">
        <ele>242</ele>
        <time>2011-10-23T13:31:03.000Z</time>
      </trkpt>
      <trkpt lat="44.44197" lon="4.44434">
        <ele>243</ele>
        <time>2011-10-23T13:31:07.000Z</time>
      </trkpt>
      <trkpt lat="44.44161" lon="4.44422">
        <ele>245</ele>
        <time>2011-10-23T13:31:15.000Z</time>
      </trkpt>
      <trkpt lat="44.44149" lon="4.4442">
        <ele>245</ele>
        <time>2011-10-23T13:31:18.000Z</time>
      </trkpt>
      <trkpt lat="44.44132" lon="4.44411">
        <ele>244</ele>
        <time>2011-10-23T13:31:22.000Z</time>
      </trkpt>
      <trkpt lat="44.44118" lon="4.44411">
        <ele>243</ele>
        <time>2011-10-23T13:31:25.000Z</time>
      </trkpt>
      <trkpt lat="44.44093" lon="4.44404">
        <ele>241</ele>
        <time>2011-10-23T13:31:30.000Z</time>
      </trkpt>
      <trkpt lat="44.44086" lon="4.44396">
        <ele>240</ele>
        <time>2011-10-23T13:31:32.000Z</time>
      </trkpt>
      <trkpt lat="44.44067" lon="4.44369">
        <ele>238</ele>
        <time>2011-10-23T13:31:38.000Z</time>
      </trkpt>
      <trkpt lat="44.44041" lon="4.44334">
        <ele>234</ele>
        <time>2011-10-23T13:31:49.000Z</time>
      </trkpt>
      <trkpt lat="44.44031" lon="4.44316">
        <ele>232</ele>
        <time>2011-10-23T13:31:54.000Z</time>
      </trkpt>
      <trkpt lat="44.44018" lon="4.44301">
        <ele>231</ele>
        <time>2011-10-23T13:32:00.000Z</time>
      </trkpt>
      <trkpt lat="44.44013" lon="4.4429">
        <ele>230</ele>
        <time>2011-10-23T13:32:04.000Z</time>
      </trkpt>
      <trkpt lat="44.44012" lon="4.44248">
        <ele>229</ele>
        <time>2011-10-23T13:32:13.000Z</time>
      </trkpt>
      <trkpt lat="44.44006" lon="4.4422">
        <ele>226</ele>
        <time>2011-10-23T13:32:19.000Z</time>
      </trkpt>
      <trkpt lat="44.44003" lon="4.44212">
        <ele>225</ele>
        <time>2011-10-23T13:32:21.000Z</time>
      </trkpt>
      <trkpt lat="44.44" lon="4.44201">
        <ele>224</ele>
        <time>2011-10-23T13:32:24.000Z</time>
      </trkpt>
      <trkpt lat="44.43993" lon="4.44183">
        <ele>220</ele>
        <time>2011-10-23T13:32:29.000Z</time>
      </trkpt>
      <trkpt lat="44.4398" lon="4.44168">
        <ele>217</ele>
        <time>2011-10-23T13:32:34.000Z</time>
      </trkpt>
      <trkpt lat="44.43974" lon="4.44164">
        <ele>216</ele>
        <time>2011-10-23T13:32:36.000Z</time>
      </trkpt>
      <trkpt lat="44.43953" lon="4.44136">
        <ele>212</ele>
        <time>2011-10-23T13:32:46.000Z</time>
      </trkpt>
      <trkpt lat="44.43944" lon="4.44124">
        <ele>214</ele>
        <time>2011-10-23T13:33:34.000Z</time>
      </trkpt>
      <trkpt lat="44.43921" lon="4.44111">
        <ele>211</ele>
        <time>2011-10-23T13:33:41.000Z</time>
      </trkpt>
      <trkpt lat="44.43889" lon="4.44085">
        <ele>206</ele>
        <time>2011-10-23T13:33:49.000Z</time>
      </trkpt>
      <trkpt lat="44.43855" lon="4.44075">
        <ele>200</ele>
        <time>2011-10-23T13:33:56.000Z</time>
      </trkpt>
      <trkpt lat="44.43837" lon="4.44073">
        <ele>196</ele>
        <time>2011-10-23T13:34:00.000Z</time>
      </trkpt>
      <trkpt lat="44.43824" lon="4.44072">
        <ele>192</ele>
        <time>2011-10-23T13:34:04.000Z</time>
      </trkpt>
      <trkpt lat="44.43802" lon="4.44077">
        <ele>186</ele>
        <time>2011-10-23T13:34:10.000Z</time>
      </trkpt>
      <trkpt lat="44.438" lon="4.44092">
        <ele>182</ele>
        <time>2011-10-23T13:34:14.000Z</time>
      </trkpt>
      <trkpt lat="44.43801" lon="4.44102">
        <ele>180</ele>
        <time>2011-10-23T13:34:17.000Z</time>
      </trkpt>
      <trkpt lat="44.43811" lon="4.44138">
        <ele>175</ele>
        <time>2011-10-23T13:34:26.000Z</time>
      </trkpt>
      <trkpt lat="44.43804" lon="4.44144">
        <ele>172</ele>
        <time>2011-10-23T13:34:29.000Z</time>
      </trkpt>
      <trkpt lat="44.43788" lon="4.44145">
        <ele>169</ele>
        <time>2011-10-23T13:34:34.000Z</time>
      </trkpt>
      <trkpt lat="44.43741" lon="4.44147">
        <ele>164</ele>
        <time>2011-10-23T13:34:44.000Z</time>
      </trkpt>
      <trkpt lat="44.43736" lon="4.44147">
        <ele>163</ele>
        <time>2011-10-23T13:34:45.000Z</time>
      </trkpt>
      <trkpt lat="44.43719" lon="4.44145">
        <ele>161</ele>
        <time>2011-10-23T13:34:48.000Z</time>
      </trkpt>
      <trkpt lat="44.43675" lon="4.4413">
        <ele>152</ele>
        <time>2011-10-23T13:34:56.000Z</time>
      </trkpt>
      <trkpt lat="44.4367" lon="4.44128">
        <ele>151</ele>
        <time>2011-10-23T13:34:57.000Z</time>
      </trkpt>
      <trkpt lat="44.43665" lon="4.44125">
        <ele>150</ele>
        <time>2011-10-23T13:34:58.000Z</time>
      </trkpt>
      <trkpt lat="44.43641" lon="4.44107">
        <ele>142</ele>
        <time>2011-10-23T13:35:04.000Z</time>
      </trkpt>
      <trkpt lat="44.43636" lon="4.44095">
        <ele>139</ele>
        <time>2011-10-23T13:35:07.000Z</time>
      </trkpt>
      <trkpt lat="44.43635" lon="4.44085">
        <ele>136</ele>
        <time>2011-10-23T13:35:09.000Z</time>
      </trkpt>
      <trkpt lat="44.43637" lon="4.44068">
        <ele>131</ele>
        <time>2011-10-23T13:35:15.000Z</time>
      </trkpt>
      <trkpt lat="44.43638" lon="4.4406">
        <ele>128</ele>
        <time>2011-10-23T13:35:22.000Z</time>
      </trkpt>
      <trkpt lat="44.43642" lon="4.44055">
        <ele>131</ele>
        <time>2011-10-23T13:37:06.000Z</time>
      </trkpt>
      <trkpt lat="44.4365" lon="4.44045">
        <ele>128</ele>
        <time>2011-10-23T13:37:34.000Z</time>
      </trkpt>
      <trkpt lat="44.4368" lon="4.44006">
        <ele>127</ele>
        <time>2011-10-23T13:37:47.000Z</time>
      </trkpt>
      <trkpt lat="44.43679" lon="4.43997">
        <ele>127</ele>
        <time>2011-10-23T13:37:52.000Z</time>
      </trkpt>
      <trkpt lat="44.43669" lon="4.43976">
        <ele>126</ele>
        <time>2011-10-23T13:38:00.000Z</time>
      </trkpt>
      <trkpt lat="44.43665" lon="4.4397">
        <ele>126</ele>
        <time>2011-10-23T13:38:02.000Z</time>
      </trkpt>
      <trkpt lat="44.4365" lon="4.43952">
        <ele>123</ele>
        <time>2011-10-23T13:38:07.000Z</time>
      </trkpt>
      <trkpt lat="44.4363" lon="4.43933">
        <ele>122</ele>
        <time>2011-10-23T13:38:14.000Z</time>
      </trkpt>
      <trkpt lat="44.43628" lon="4.43922">
        <ele>122</ele>
        <time>2011-10-23T13:38:17.000Z</time>
      </trkpt>
      <trkpt lat="44.43628" lon="4.4391">
        <ele>122</ele>
        <time>2011-10-23T13:38:20.000Z</time>
      </trkpt>
      <trkpt lat="44.43624" lon="4.43893">
        <ele>123</ele>
        <time>2011-10-23T13:38:24.000Z</time>
      </trkpt>
      <trkpt lat="44.43627" lon="4.43883">
        <ele>124</ele>
        <time>2011-10-23T13:38:27.000Z</time>
      </trkpt>
      <trkpt lat="44.43636" lon="4.43863">
        <ele>125</ele>
        <time>2011-10-23T13:38:33.000Z</time>
      </trkpt>
      <trkpt lat="44.43634" lon="4.4385">
        <ele>126</ele>
        <time>2011-10-23T13:38:36.000Z</time>
      </trkpt>
      <trkpt lat="44.43626" lon="4.43832">
        <ele>126</ele>
        <time>2011-10-23T13:38:40.000Z</time>
      </trkpt>
      <trkpt lat="44.4362" lon="4.43829">
        <ele>126</ele>
        <time>2011-10-23T13:38:42.000Z</time>
      </trkpt>
      <trkpt lat="44.43606" lon="4.4382">
        <ele>126</ele>
        <time>2011-10-23T13:38:47.000Z</time>
      </trkpt>
      <trkpt lat="44.43599" lon="4.43813">
        <ele>126</ele>
        <time>2011-10-23T13:38:51.000Z</time>
      </trkpt>
      <trkpt lat="44.43594" lon="4.43798">
        <ele>126</ele>
        <time>2011-10-23T13:38:57.000Z</time>
      </trkpt>
      <trkpt lat="44.43589" lon="4.43791">
        <ele>126</ele>
        <time>2011-10-23T13:39:10.000Z</time>
      </trkpt>
      <trkpt lat="44.43589" lon="4.43782">
        <ele>125</ele>
        <time>2011-10-23T13:39:16.000Z</time>
      </trkpt>
      <trkpt lat="44.43584" lon="4.43768">
        <ele>125</ele>
        <time>2011-10-23T13:39:24.000Z</time>
      </trkpt>
      <trkpt lat="44.43584" lon="4.4376">
        <ele>127</ele>
        <time>2011-10-23T13:39:29.000Z</time>
      </trkpt>
      <trkpt lat="44.43589" lon="4.43734">
        <ele>129</ele>
        <time>2011-10-23T13:39:41.000Z</time>
      </trkpt>
      <trkpt lat="44.43581" lon="4.43726">
        <ele>129</ele>
        <time>2011-10-23T13:39:48.000Z</time>
      </trkpt>
      <trkpt lat="44.43577" lon="4.43731">
        <ele>128</ele>
        <time>2011-10-23T13:39:52.000Z</time>
      </trkpt>
      <trkpt lat="44.43569" lon="4.43745">
        <ele>126</ele>
        <time>2011-10-23T13:40:02.000Z</time>
      </trkpt>
      <trkpt lat="44.43568" lon="4.43744">
        <ele>125</ele>
        <time>2011-10-23T13:40:23.000Z</time>
      </trkpt>
      <trkpt lat="44.43579" lon="4.4373">
        <ele>129</ele>
        <time>2011-10-23T13:41:20.000Z</time>
      </trkpt>
      <trkpt lat="44.43587" lon="4.43724">
        <ele>130</ele>
        <time>2011-10-23T13:41:33.000Z</time>
      </trkpt>
      <trkpt lat="44.43588" lon="4.43722">
        <ele>127</ele>
        <time>2011-10-23T13:43:05.000Z</time>
      </trkpt>
      <trkpt lat="44.43588" lon="4.43732">
        <ele>129</ele>
        <time>2011-10-23T13:50:52.000Z</time>
      </trkpt>
      <trkpt lat="44.43584" lon="4.43762">
        <ele>127</ele>
        <time>2011-10-23T13:51:01.000Z</time>
      </trkpt>
      <trkpt lat="44.4359" lon="4.4377">
        <ele>125</ele>
        <time>2011-10-23T13:51:17.000Z</time>
      </trkpt>
      <trkpt lat="44.43596" lon="4.43765">
        <ele>125</ele>
        <time>2011-10-23T13:51:21.000Z</time>
      </trkpt>
      <trkpt lat="44.43614" lon="4.43711">
        <ele>125</ele>
        <time>2011-10-23T13:51:45.000Z</time>
      </trkpt>
      <trkpt lat="44.43615" lon="4.43709">
        <ele>125</ele>
        <time>2011-10-23T13:51:46.000Z</time>
      </trkpt>
      <trkpt lat="44.43633" lon="4.43651">
        <ele>125</ele>
        <time>2011-10-23T13:52:01.000Z</time>
      </trkpt>
      <trkpt lat="44.43634" lon="4.43646">
        <ele>125</ele>
        <time>2011-10-23T13:52:02.000Z</time>
      </trkpt>
      <trkpt lat="44.43641" lon="4.43618">
        <ele>124</ele>
        <time>2011-10-23T13:52:07.000Z</time>
      </trkpt>
      <trkpt lat="44.43643" lon="4.43564">
        <ele>123</ele>
        <time>2011-10-23T13:52:15.000Z</time>
      </trkpt>
      <trkpt lat="44.43637" lon="4.43532">
        <ele>121</ele>
        <time>2011-10-23T13:53:13.000Z</time>
      </trkpt>
      <trkpt lat="44.43634" lon="4.43524">
        <ele>121</ele>
        <time>2011-10-23T13:53:17.000Z</time>
      </trkpt>
      <trkpt lat="44.43631" lon="4.43508">
        <ele>121</ele>
        <time>2011-10-23T13:53:23.000Z</time>
      </trkpt>
      <trkpt lat="44.43626" lon="4.43489">
        <ele>121</ele>
        <time>2011-10-23T13:53:31.000Z</time>
      </trkpt>
      <trkpt lat="44.43625" lon="4.43479">
        <ele>121</ele>
        <time>2011-10-23T13:53:35.000Z</time>
      </trkpt>
      <trkpt lat="44.43622" lon="4.43469">
        <ele>122</ele>
        <time>2011-10-23T13:53:39.000Z</time>
      </trkpt>
      <trkpt lat="44.43616" lon="4.43403">
        <ele>122</ele>
        <time>2011-10-23T13:53:53.000Z</time>
      </trkpt>
      <trkpt lat="44.43616" lon="4.43398">
        <ele>122</ele>
        <time>2011-10-23T13:53:54.000Z</time>
      </trkpt>
      <trkpt lat="44.43616" lon="4.43392">
        <ele>122</ele>
        <time>2011-10-23T13:53:55.000Z</time>
      </trkpt>
      <trkpt lat="44.43614" lon="4.43347">
        <ele>123</ele>
        <time>2011-10-23T13:54:03.000Z</time>
      </trkpt>
      <trkpt lat="44.43599" lon="4.43282">
        <ele>124</ele>
        <time>2011-10-23T13:54:14.000Z</time>
      </trkpt>
      <trkpt lat="44.43598" lon="4.43276">
        <ele>124</ele>
        <time>2011-10-23T13:54:15.000Z</time>
      </trkpt>
      <trkpt lat="44.43582" lon="4.43209">
        <ele>125</ele>
        <time>2011-10-23T13:54:25.000Z</time>
      </trkpt>
      <trkpt lat="44.43579" lon="4.43203">
        <ele>125</ele>
        <time>2011-10-23T13:54:26.000Z</time>
      </trkpt>
      <trkpt lat="44.43553" lon="4.43142">
        <ele>123</ele>
        <time>2011-10-23T13:54:34.000Z</time>
      </trkpt>
      <trkpt lat="44.4355" lon="4.43134">
        <ele>123</ele>
        <time>2011-10-23T13:54:35.000Z</time>
      </trkpt>
      <trkpt lat="44.43527" lon="4.43078">
        <ele>123</ele>
        <time>2011-10-23T13:54:43.000Z</time>
      </trkpt>
      <trkpt lat="44.43525" lon="4.4307">
        <ele>122</ele>
        <time>2011-10-23T13:54:44.000Z</time>
      </trkpt>
      <trkpt lat="44.43502" lon="4.43012">
        <ele>121</ele>
        <time>2011-10-23T13:54:52.000Z</time>
      </trkpt>
      <trkpt lat="44.43499" lon="4.43005">
        <ele>120</ele>
        <time>2011-10-23T13:54:53.000Z</time>
      </trkpt>
      <trkpt lat="44.43473" lon="4.42951">
        <ele>120</ele>
        <time>2011-10-23T13:55:01.000Z</time>
      </trkpt>
      <trkpt lat="44.4347" lon="4.42944">
        <ele>120</ele>
        <time>2011-10-23T13:55:02.000Z</time>
      </trkpt>
      <trkpt lat="44.43446" lon="4.42891">
        <ele>121</ele>
        <time>2011-10-23T13:55:10.000Z</time>
      </trkpt>
      <trkpt lat="44.43445" lon="4.42883">
        <ele>121</ele>
        <time>2011-10-23T13:55:11.000Z</time>
      </trkpt>
      <trkpt lat="44.43444" lon="4.42875">
        <ele>121</ele>
        <time>2011-10-23T13:55:12.000Z</time>
      </trkpt>
      <trkpt lat="44.43446" lon="4.42861">
        <ele>121</ele>
        <time>2011-10-23T13:55:14.000Z</time>
      </trkpt>
      <trkpt lat="44.43456" lon="4.42826">
        <ele>121</ele>
        <time>2011-10-23T13:55:19.000Z</time>
      </trkpt>
      <trkpt lat="44.43465" lon="4.42792">
        <ele>121</ele>
        <time>2011-10-23T13:55:24.000Z</time>
      </trkpt>
      <trkpt lat="44.43464" lon="4.42771">
        <ele>121</ele>
        <time>2011-10-23T13:55:27.000Z</time>
      </trkpt>
      <trkpt lat="44.43457" lon="4.42753">
        <ele>121</ele>
        <time>2011-10-23T13:55:30.000Z</time>
      </trkpt>
      <trkpt lat="44.4343" lon="4.42702">
        <ele>122</ele>
        <time>2011-10-23T13:55:39.000Z</time>
      </trkpt>
      <trkpt lat="44.43427" lon="4.42696">
        <ele>122</ele>
        <time>2011-10-23T13:55:40.000Z</time>
      </trkpt>
      <trkpt lat="44.43399" lon="4.42646">
        <ele>122</ele>
        <time>2011-10-23T13:55:49.000Z</time>
      </trkpt>
      <trkpt lat="44.43396" lon="4.4264">
        <ele>122</ele>
        <time>2011-10-23T13:55:50.000Z</time>
      </trkpt>
      <trkpt lat="44.43377" lon="4.42614">
        <ele>122</ele>
        <time>2011-10-23T13:55:55.000Z</time>
      </trkpt>
      <trkpt lat="44.43354" lon="4.42595">
        <ele>122</ele>
        <time>2011-10-23T13:56:00.000Z</time>
      </trkpt>
      <trkpt lat="44.43309" lon="4.42574">
        <ele>121</ele>
        <time>2011-10-23T13:56:09.000Z</time>
      </trkpt>
      <trkpt lat="44.43304" lon="4.42572">
        <ele>121</ele>
        <time>2011-10-23T13:56:10.000Z</time>
      </trkpt>
      <trkpt lat="44.43273" lon="4.4256">
        <ele>121</ele>
        <time>2011-10-23T13:56:16.000Z</time>
      </trkpt>
      <trkpt lat="44.43246" lon="4.42558">
        <ele>120</ele>
        <time>2011-10-23T13:56:21.000Z</time>
      </trkpt>
      <trkpt lat="44.43201" lon="4.4257">
        <ele>119</ele>
        <time>2011-10-23T13:56:29.000Z</time>
      </trkpt>
      <trkpt lat="44.43195" lon="4.42572">
        <ele>119</ele>
        <time>2011-10-23T13:56:30.000Z</time>
      </trkpt>
      <trkpt lat="44.43145" lon="4.42578">
        <ele>118</ele>
        <time>2011-10-23T13:56:39.000Z</time>
      </trkpt>
      <trkpt lat="44.4314" lon="4.42576">
        <ele>118</ele>
        <time>2011-10-23T13:56:40.000Z</time>
      </trkpt>
      <trkpt lat="44.43116" lon="4.42564">
        <ele>118</ele>
        <time>2011-10-23T13:56:45.000Z</time>
      </trkpt>
      <trkpt lat="44.43071" lon="4.42535">
        <ele>119</ele>
        <time>2011-10-23T13:56:55.000Z</time>
      </trkpt>
      <trkpt lat="44.43067" lon="4.42532">
        <ele>119</ele>
        <time>2011-10-23T13:56:56.000Z</time>
      </trkpt>
      <trkpt lat="44.43041" lon="4.42512">
        <ele>120</ele>
        <time>2011-10-23T13:57:02.000Z</time>
      </trkpt>
      <trkpt lat="44.43009" lon="4.4248">
        <ele>121</ele>
        <time>2011-10-23T13:57:10.000Z</time>
      </trkpt>
      <trkpt lat="44.42979" lon="4.42431">
        <ele>125</ele>
        <time>2011-10-23T13:57:19.000Z</time>
      </trkpt>
      <trkpt lat="44.42976" lon="4.42424">
        <ele>125</ele>
        <time>2011-10-23T13:57:20.000Z</time>
      </trkpt>
      <trkpt lat="44.42973" lon="4.42417">
        <ele>125</ele>
        <time>2011-10-23T13:57:21.000Z</time>
      </trkpt>
      <trkpt lat="44.42949" lon="4.42358">
        <ele>125</ele>
        <time>2011-10-23T13:57:29.000Z</time>
      </trkpt>
      <trkpt lat="44.42945" lon="4.4235">
        <ele>125</ele>
        <time>2011-10-23T13:57:30.000Z</time>
      </trkpt>
      <trkpt lat="44.42927" lon="4.42293">
        <ele>123</ele>
        <time>2011-10-23T13:57:37.000Z</time>
      </trkpt>
      <trkpt lat="44.42925" lon="4.42283">
        <ele>123</ele>
        <time>2011-10-23T13:57:38.000Z</time>
      </trkpt>
      <trkpt lat="44.42912" lon="4.4224">
        <ele>125</ele>
        <time>2011-10-23T13:57:43.000Z</time>
      </trkpt>
      <trkpt lat="44.42893" lon="4.42208">
        <ele>124</ele>
        <time>2011-10-23T13:57:47.000Z</time>
      </trkpt>
      <trkpt lat="44.42857" lon="4.42171">
        <ele>122</ele>
        <time>2011-10-23T13:57:53.000Z</time>
      </trkpt>
      <trkpt lat="44.4285" lon="4.42165">
        <ele>122</ele>
        <time>2011-10-23T13:57:54.000Z</time>
      </trkpt>
      <trkpt lat="44.4281" lon="4.42119">
        <ele>120</ele>
        <time>2011-10-23T13:58:01.000Z</time>
      </trkpt>
      <trkpt lat="44.42804" lon="4.42112">
        <ele>120</ele>
        <time>2011-10-23T13:58:02.000Z</time>
      </trkpt>
      <trkpt lat="44.4277" lon="4.42067">
        <ele>119</ele>
        <time>2011-10-23T13:58:08.000Z</time>
      </trkpt>
      <trkpt lat="44.42764" lon="4.4206">
        <ele>119</ele>
        <time>2011-10-23T13:58:09.000Z</time>
      </trkpt>
      <trkpt lat="44.4273" lon="4.42013">
        <ele>118</ele>
        <time>2011-10-23T13:58:15.000Z</time>
      </trkpt>
      <trkpt lat="44.42725" lon="4.42005">
        <ele>118</ele>
        <time>2011-10-23T13:58:16.000Z</time>
      </trkpt>
      <trkpt lat="44.42692" lon="4.41958">
        <ele>119</ele>
        <time>2011-10-23T13:58:22.000Z</time>
      </trkpt>
      <trkpt lat="44.42687" lon="4.41951">
        <ele>119</ele>
        <time>2011-10-23T13:58:23.000Z</time>
      </trkpt>
      <trkpt lat="44.42661" lon="4.41909">
        <ele>120</ele>
        <time>2011-10-23T13:58:28.000Z</time>
      </trkpt>
      <trkpt lat="44.42656" lon="4.419">
        <ele>121</ele>
        <time>2011-10-23T13:58:29.000Z</time>
      </trkpt>
      <trkpt lat="44.42627" lon="4.41839">
        <ele>121</ele>
        <time>2011-10-23T13:58:35.000Z</time>
      </trkpt>
      <trkpt lat="44.42622" lon="4.41829">
        <ele>121</ele>
        <time>2011-10-23T13:58:36.000Z</time>
      </trkpt>
      <trkpt lat="44.42596" lon="4.41765">
        <ele>121</ele>
        <time>2011-10-23T13:58:42.000Z</time>
      </trkpt>
      <trkpt lat="44.42591" lon="4.41755">
        <ele>121</ele>
        <time>2011-10-23T13:58:43.000Z</time>
      </trkpt>
      <trkpt lat="44.42564" lon="4.41691">
        <ele>122</ele>
        <time>2011-10-23T13:58:49.000Z</time>
      </trkpt>
      <trkpt lat="44.4256" lon="4.4168">
        <ele>122</ele>
        <time>2011-10-23T13:58:50.000Z</time>
      </trkpt>
      <trkpt lat="44.42552" lon="4.4166">
        <ele>122</ele>
        <time>2011-10-23T13:58:52.000Z</time>
      </trkpt>
      <trkpt lat="44.42532" lon="4.41602">
        <ele>121</ele>
        <time>2011-10-23T13:58:58.000Z</time>
      </trkpt>
      <trkpt lat="44.42529" lon="4.41593">
        <ele>121</ele>
        <time>2011-10-23T13:58:59.000Z</time>
      </trkpt>
      <trkpt lat="44.42506" lon="4.4153">
        <ele>120</ele>
        <time>2011-10-23T13:59:06.000Z</time>
      </trkpt>
      <trkpt lat="44.42503" lon="4.41522">
        <ele>120</ele>
        <time>2011-10-23T13:59:07.000Z</time>
      </trkpt>
      <trkpt lat="44.42478" lon="4.41463">
        <ele>120</ele>
        <time>2011-10-23T13:59:14.000Z</time>
      </trkpt>
      <trkpt lat="44.42474" lon="4.41456">
        <ele>120</ele>
        <time>2011-10-23T13:59:15.000Z</time>
      </trkpt>
      <trkpt lat="44.42439" lon="4.41413">
        <ele>119</ele>
        <time>2011-10-23T13:59:23.000Z</time>
      </trkpt>
      <trkpt lat="44.42437" lon="4.41408">
        <ele>119</ele>
        <time>2011-10-23T13:59:24.000Z</time>
      </trkpt>
      <trkpt lat="44.42435" lon="4.41404">
        <ele>119</ele>
        <time>2011-10-23T13:59:25.000Z</time>
      </trkpt>
      <trkpt lat="44.42438" lon="4.41396">
        <ele>120</ele>
        <time>2011-10-23T13:59:40.000Z</time>
      </trkpt>
      <trkpt lat="44.42448" lon="4.41393">
        <ele>122</ele>
        <time>2011-10-23T14:00:13.000Z</time>
      </trkpt>
      <trkpt lat="44.42453" lon="4.41384">
        <ele>122</ele>
        <time>2011-10-23T14:00:17.000Z</time>
      </trkpt>
      <trkpt lat="44.42422" lon="4.41338">
        <ele>123</ele>
        <time>2011-10-23T14:00:33.000Z</time>
      </trkpt>
      <trkpt lat="44.42421" lon="4.41336">
        <ele>123</ele>
        <time>2011-10-23T14:00:34.000Z</time>
      </trkpt>
      <trkpt lat="44.42419" lon="4.41334">
        <ele>124</ele>
        <time>2011-10-23T14:00:35.000Z</time>
      </trkpt>
      <trkpt lat="44.42399" lon="4.41312">
        <ele>127</ele>
        <time>2011-10-23T14:00:43.000Z</time>
      </trkpt>
      <trkpt lat="44.42382" lon="4.41294">
        <ele>128</ele>
        <time>2011-10-23T14:00:48.000Z</time>
      </trkpt>
      <trkpt lat="44.42368" lon="4.41275">
        <ele>127</ele>
        <time>2011-10-23T14:00:52.000Z</time>
      </trkpt>
      <trkpt lat="44.4235" lon="4.41242">
        <ele>125</ele>
        <time>2011-10-23T14:00:59.000Z</time>
      </trkpt>
      <trkpt lat="44.4235" lon="4.41232">
        <ele>124</ele>
        <time>2011-10-23T14:01:01.000Z</time>
      </trkpt>
      <trkpt lat="44.42347" lon="4.41219">
        <ele>125</ele>
        <time>2011-10-23T14:01:04.000Z</time>
      </trkpt>
      <trkpt lat="44.42345" lon="4.41213">
        <ele>125</ele>
        <time>2011-10-23T14:01:06.000Z</time>
      </trkpt>
      <trkpt lat="44.42335" lon="4.41206">
        <ele>126</ele>
        <time>2011-10-23T14:01:10.000Z</time>
      </trkpt>
      <trkpt lat="44.42329" lon="4.41206">
        <ele>126</ele>
        <time>2011-10-23T14:01:12.000Z</time>
      </trkpt>
      <trkpt lat="44.42319" lon="4.41204">
        <ele>126</ele>
        <time>2011-10-23T14:01:15.000Z</time>
      </trkpt>
      <trkpt lat="44.42305" lon="4.41193">
        <ele>126</ele>
        <time>2011-10-23T14:01:19.000Z</time>
      </trkpt>
      <trkpt lat="44.42305" lon="4.4118">
        <ele>126</ele>
        <time>2011-10-23T14:01:21.000Z</time>
      </trkpt>
      <trkpt lat="44.42315" lon="4.41137">
        <ele>127</ele>
        <time>2011-10-23T14:01:27.000Z</time>
      </trkpt>
      <trkpt lat="44.4231" lon="4.41102">
        <ele>128</ele>
        <time>2011-10-23T14:01:33.000Z</time>
      </trkpt>
      <trkpt lat="44.42314" lon="4.41082">
        <ele>130</ele>
        <time>2011-10-23T14:01:38.000Z</time>
      </trkpt>
      <trkpt lat="44.42332" lon="4.41023">
        <ele>140</ele>
        <time>2011-10-23T14:01:57.000Z</time>
      </trkpt>
      <trkpt lat="44.42333" lon="4.41019">
        <ele>140</ele>
        <time>2011-10-23T14:01:58.000Z</time>
      </trkpt>
      <trkpt lat="44.42341" lon="4.40996">
        <ele>141</ele>
        <time>2011-10-23T14:02:06.000Z</time>
      </trkpt>
      <trkpt lat="44.42363" lon="4.4094">
        <ele>147</ele>
        <time>2011-10-23T14:02:25.000Z</time>
      </trkpt>
      <trkpt lat="44.42365" lon="4.40936">
        <ele>147</ele>
        <time>2011-10-23T14:02:26.000Z</time>
      </trkpt>
      <trkpt lat="44.42368" lon="4.40926">
        <ele>148</ele>
        <time>2011-10-23T14:02:29.000Z</time>
      </trkpt>
      <trkpt lat="44.42378" lon="4.40898">
        <ele>149</ele>
        <time>2011-10-23T14:02:36.000Z</time>
      </trkpt>
      <trkpt lat="44.42379" lon="4.40885">
        <ele>149</ele>
        <time>2011-10-23T14:02:39.000Z</time>
      </trkpt>
      <trkpt lat="44.42379" lon="4.40867">
        <ele>150</ele>
        <time>2011-10-23T14:02:44.000Z</time>
      </trkpt>
      <trkpt lat="44.42377" lon="4.40855">
        <ele>151</ele>
        <time>2011-10-23T14:02:48.000Z</time>
      </trkpt>
      <trkpt lat="44.42381" lon="4.40836">
        <ele>151</ele>
        <time>2011-10-23T14:02:53.000Z</time>
      </trkpt>
      <trkpt lat="44.42387" lon="4.40823">
        <ele>152</ele>
        <time>2011-10-23T14:02:58.000Z</time>
      </trkpt>
      <trkpt lat="44.42399" lon="4.40804">
        <ele>153</ele>
        <time>2011-10-23T14:03:06.000Z</time>
      </trkpt>
      <trkpt lat="44.42428" lon="4.40756">
        <ele>156</ele>
        <time>2011-10-23T14:03:25.000Z</time>
      </trkpt>
      <trkpt lat="44.4243" lon="4.40753">
        <ele>156</ele>
        <time>2011-10-23T14:03:26.000Z</time>
      </trkpt>
      <trkpt lat="44.42433" lon="4.40751">
        <ele>156</ele>
        <time>2011-10-23T14:03:27.000Z</time>
      </trkpt>
      <trkpt lat="44.42468" lon="4.4071">
        <ele>156</ele>
        <time>2011-10-23T14:03:39.000Z</time>
      </trkpt>
      <trkpt lat="44.42472" lon="4.40706">
        <ele>156</ele>
        <time>2011-10-23T14:03:40.000Z</time>
      </trkpt>
      <trkpt lat="44.42496" lon="4.40687">
        <ele>154</ele>
        <time>2011-10-23T14:03:46.000Z</time>
      </trkpt>
      <trkpt lat="44.42529" lon="4.40667">
        <ele>151</ele>
        <time>2011-10-23T14:03:54.000Z</time>
      </trkpt>
      <trkpt lat="44.42535" lon="4.40659">
        <ele>150</ele>
        <time>2011-10-23T14:03:56.000Z</time>
      </trkpt>
      <trkpt lat="44.42541" lon="4.40639">
        <ele>149</ele>
        <time>2011-10-23T14:04:00.000Z</time>
      </trkpt>
      <trkpt lat="44.42546" lon="4.4062">
        <ele>148</ele>
        <time>2011-10-23T14:04:04.000Z</time>
      </trkpt>
      <trkpt lat="44.42548" lon="4.40613">
        <ele>147</ele>
        <time>2011-10-23T14:04:06.000Z</time>
      </trkpt>
      <trkpt lat="44.42559" lon="4.4059">
        <ele>144</ele>
        <time>2011-10-23T14:04:14.000Z</time>
      </trkpt>
      <trkpt lat="44.42578" lon="4.40586">
        <ele>144</ele>
        <time>2011-10-23T14:04:22.000Z</time>
      </trkpt>
      <trkpt lat="44.42621" lon="4.40594">
        <ele>146</ele>
        <time>2011-10-23T14:04:37.000Z</time>
      </trkpt>
      <trkpt lat="44.42624" lon="4.40596">
        <ele>146</ele>
        <time>2011-10-23T14:04:38.000Z</time>
      </trkpt>
      <trkpt lat="44.4267" lon="4.40613">
        <ele>147</ele>
        <time>2011-10-23T14:04:53.000Z</time>
      </trkpt>
      <trkpt lat="44.42673" lon="4.40615">
        <ele>147</ele>
        <time>2011-10-23T14:04:54.000Z</time>
      </trkpt>
      <trkpt lat="44.42719" lon="4.40628">
        <ele>149</ele>
        <time>2011-10-23T14:05:09.000Z</time>
      </trkpt>
      <trkpt lat="44.42723" lon="4.40629">
        <ele>149</ele>
        <time>2011-10-23T14:05:10.000Z</time>
      </trkpt>
      <trkpt lat="44.42769" lon="4.4064">
        <ele>151</ele>
        <time>2011-10-23T14:05:23.000Z</time>
      </trkpt>
      <trkpt lat="44.42773" lon="4.40641">
        <ele>151</ele>
        <time>2011-10-23T14:05:24.000Z</time>
      </trkpt>
      <trkpt lat="44.42818" lon="4.40652">
        <ele>152</ele>
        <time>2011-10-23T14:05:36.000Z</time>
      </trkpt>
      <trkpt lat="44.42822" lon="4.40654">
        <ele>153</ele>
        <time>2011-10-23T14:05:37.000Z</time>
      </trkpt>
      <trkpt lat="44.42867" lon="4.40671">
        <ele>155</ele>
        <time>2011-10-23T14:05:49.000Z</time>
      </trkpt>
      <trkpt lat="44.4287" lon="4.40672">
        <ele>155</ele>
        <time>2011-10-23T14:05:50.000Z</time>
      </trkpt>
      <trkpt lat="44.42888" lon="4.40675">
        <ele>155</ele>
        <time>2011-10-23T14:05:55.000Z</time>
      </trkpt>
      <trkpt lat="44.42893" lon="4.40671">
        <ele>155</ele>
        <time>2011-10-23T14:05:57.000Z</time>
      </trkpt>
      <trkpt lat="44.42897" lon="4.40658">
        <ele>155</ele>
        <time>2011-10-23T14:06:00.000Z</time>
      </trkpt>
      <trkpt lat="44.4291" lon="4.40594">
        <ele>156</ele>
        <time>2011-10-23T14:06:13.000Z</time>
      </trkpt>
      <trkpt lat="44.42911" lon="4.4059">
        <ele>156</ele>
        <time>2011-10-23T14:06:14.000Z</time>
      </trkpt>
      <trkpt lat="44.42913" lon="4.4058">
        <ele>156</ele>
        <time>2011-10-23T14:06:16.000Z</time>
      </trkpt>
      <trkpt lat="44.42927" lon="4.40519">
        <ele>158</ele>
        <time>2011-10-23T14:06:30.000Z</time>
      </trkpt>
      <trkpt lat="44.42928" lon="4.40515">
        <ele>159</ele>
        <time>2011-10-23T14:06:31.000Z</time>
      </trkpt>
      <trkpt lat="44.42941" lon="4.40454">
        <ele>162</ele>
        <time>2011-10-23T14:06:46.000Z</time>
      </trkpt>
      <trkpt lat="44.42942" lon="4.4045">
        <ele>162</ele>
        <time>2011-10-23T14:06:47.000Z</time>
      </trkpt>
      <trkpt lat="44.42956" lon="4.40394">
        <ele>165</ele>
        <time>2011-10-23T14:07:02.000Z</time>
      </trkpt>
      <trkpt lat="44.42957" lon="4.40391">
        <ele>165</ele>
        <time>2011-10-23T14:07:03.000Z</time>
      </trkpt>
      <trkpt lat="44.42958" lon="4.40387">
        <ele>166</ele>
        <time>2011-10-23T14:07:04.000Z</time>
      </trkpt>
      <trkpt lat="44.42974" lon="4.4033">
        <ele>170</ele>
        <time>2011-10-23T14:07:22.000Z</time>
      </trkpt>
      <trkpt lat="44.42976" lon="4.4033">
        <ele>170</ele>
        <time>2011-10-23T14:07:23.000Z</time>
      </trkpt>
      <trkpt lat="44.42988" lon="4.40326">
        <ele>173</ele>
        <time>2011-10-23T14:07:28.000Z</time>
      </trkpt>
      <trkpt lat="44.42993" lon="4.40319">
        <ele>173</ele>
        <time>2011-10-23T14:07:31.000Z</time>
      </trkpt>
      <trkpt lat="44.42997" lon="4.40288">
        <ele>176</ele>
        <time>2011-10-23T14:07:41.000Z</time>
      </trkpt>
      <trkpt lat="44.42996" lon="4.4027">
        <ele>176</ele>
        <time>2011-10-23T14:07:47.000Z</time>
      </trkpt>
      <trkpt lat="44.4299" lon="4.4024">
        <ele>177</ele>
        <time>2011-10-23T14:07:57.000Z</time>
      </trkpt>
      <trkpt lat="44.42999" lon="4.40195">
        <ele>180</ele>
        <time>2011-10-23T14:08:13.000Z</time>
      </trkpt>
      <trkpt lat="44.43011" lon="4.40138">
        <ele>185</ele>
        <time>2011-10-23T14:08:33.000Z</time>
      </trkpt>
      <trkpt lat="44.43018" lon="4.40134">
        <ele>186</ele>
        <time>2011-10-23T14:08:37.000Z</time>
      </trkpt>
      <trkpt lat="44.43031" lon="4.40136">
        <ele>187</ele>
        <time>2011-10-23T14:08:43.000Z</time>
      </trkpt>
      <trkpt lat="44.43045" lon="4.40135">
        <ele>188</ele>
        <time>2011-10-23T14:08:49.000Z</time>
      </trkpt>
      <trkpt lat="44.43053" lon="4.40129">
        <ele>188</ele>
        <time>2011-10-23T14:08:53.000Z</time>
      </trkpt>
      <trkpt lat="44.43061" lon="4.40116">
        <ele>189</ele>
        <time>2011-10-23T14:08:58.000Z</time>
      </trkpt>
      <trkpt lat="44.43063" lon="4.40104">
        <ele>189</ele>
        <time>2011-10-23T14:09:01.000Z</time>
      </trkpt>
      <trkpt lat="44.43059" lon="4.40083">
        <ele>190</ele>
        <time>2011-10-23T14:09:06.000Z</time>
      </trkpt>
      <trkpt lat="44.43062" lon="4.40076">
        <ele>190</ele>
        <time>2011-10-23T14:09:08.000Z</time>
      </trkpt>
      <trkpt lat="44.43068" lon="4.40072">
        <ele>190</ele>
        <time>2011-10-23T14:09:10.000Z</time>
      </trkpt>
      <trkpt lat="44.43079" lon="4.40071">
        <ele>191</ele>
        <time>2011-10-23T14:09:13.000Z</time>
      </trkpt>
      <trkpt lat="44.4309" lon="4.40079">
        <ele>193</ele>
        <time>2011-10-23T14:09:17.000Z</time>
      </trkpt>
      <trkpt lat="44.43104" lon="4.40087">
        <ele>194</ele>
        <time>2011-10-23T14:09:23.000Z</time>
      </trkpt>
      <trkpt lat="44.4315" lon="4.40086">
        <ele>199</ele>
        <time>2011-10-23T14:09:44.000Z</time>
      </trkpt>
      <trkpt lat="44.43152" lon="4.40087">
        <ele>199</ele>
        <time>2011-10-23T14:09:45.000Z</time>
      </trkpt>
      <trkpt lat="44.43199" lon="4.40094">
        <ele>204</ele>
        <time>2011-10-23T14:10:05.000Z</time>
      </trkpt>
      <trkpt lat="44.43201" lon="4.40095">
        <ele>204</ele>
        <time>2011-10-23T14:10:06.000Z</time>
      </trkpt>
      <trkpt lat="44.43202" lon="4.40098">
        <ele>201</ele>
        <time>2011-10-23T14:10:50.000Z</time>
      </trkpt>
      <trkpt lat="44.43196" lon="4.40097">
        <ele>202</ele>
        <time>2011-10-23T14:11:40.000Z</time>
      </trkpt>
      <trkpt lat="44.43189" lon="4.40099">
        <ele>202</ele>
        <time>2011-10-23T14:11:44.000Z</time>
      </trkpt>
      <trkpt lat="44.43193" lon="4.40107">
        <ele>201</ele>
        <time>2011-10-23T14:11:48.000Z</time>
      </trkpt>
      <trkpt lat="44.43201" lon="4.40117">
        <ele>200</ele>
        <time>2011-10-23T14:11:51.000Z</time>
      </trkpt>
      <trkpt lat="44.43216" lon="4.40133">
        <ele>199</ele>
        <time>2011-10-23T14:11:56.000Z</time>
      </trkpt>
      <trkpt lat="44.43229" lon="4.40135">
        <ele>198</ele>
        <time>2011-10-23T14:11:59.000Z</time>
      </trkpt>
      <trkpt lat="44.43242" lon="4.40126">
        <ele>197</ele>
        <time>2011-10-23T14:12:02.000Z</time>
      </trkpt>
      <trkpt lat="44.43261" lon="4.40117">
        <ele>195</ele>
        <time>2011-10-23T14:12:08.000Z</time>
      </trkpt>
      <trkpt lat="44.43267" lon="4.40126">
        <ele>190</ele>
        <time>2011-10-23T14:12:18.000Z</time>
      </trkpt>
      <trkpt lat="44.4328" lon="4.40155">
        <ele>192</ele>
        <time>2011-10-23T14:12:34.000Z</time>
      </trkpt>
      <trkpt lat="44.4329" lon="4.4017">
        <ele>193</ele>
        <time>2011-10-23T14:12:40.000Z</time>
      </trkpt>
      <trkpt lat="44.43299" lon="4.40185">
        <ele>193</ele>
        <time>2011-10-23T14:12:44.000Z</time>
      </trkpt>
      <trkpt lat="44.43336" lon="4.40208">
        <ele>193</ele>
        <time>2011-10-23T14:12:54.000Z</time>
      </trkpt>
      <trkpt lat="44.43346" lon="4.40217">
        <ele>192</ele>
        <time>2011-10-23T14:12:57.000Z</time>
      </trkpt>
      <trkpt lat="44.43358" lon="4.40227">
        <ele>192</ele>
        <time>2011-10-23T14:13:00.000Z</time>
      </trkpt>
      <trkpt lat="44.43392" lon="4.4025">
        <ele>192</ele>
        <time>2011-10-23T14:13:08.000Z</time>
      </trkpt>
      <trkpt lat="44.43404" lon="4.4025">
        <ele>192</ele>
        <time>2011-10-23T14:13:11.000Z</time>
      </trkpt>
      <trkpt lat="44.43426" lon="4.40267">
        <ele>192</ele>
        <time>2011-10-23T14:13:18.000Z</time>
      </trkpt>
      <trkpt lat="44.43464" lon="4.40302">
        <ele>192</ele>
        <time>2011-10-23T14:13:30.000Z</time>
      </trkpt>
      <trkpt lat="44.43467" lon="4.40307">
        <ele>192</ele>
        <time>2011-10-23T14:13:31.000Z</time>
      </trkpt>
      <trkpt lat="44.4347" lon="4.40326">
        <ele>191</ele>
        <time>2011-10-23T14:13:34.000Z</time>
      </trkpt>
      <trkpt lat="44.43472" lon="4.40343">
        <ele>189</ele>
        <time>2011-10-23T14:13:37.000Z</time>
      </trkpt>
      <trkpt lat="44.43478" lon="4.40349">
        <ele>188</ele>
        <time>2011-10-23T14:13:39.000Z</time>
      </trkpt>
      <trkpt lat="44.43524" lon="4.40364">
        <ele>183</ele>
        <time>2011-10-23T14:13:47.000Z</time>
      </trkpt>
      <trkpt lat="44.4353" lon="4.40364">
        <ele>183</ele>
        <time>2011-10-23T14:13:48.000Z</time>
      </trkpt>
      <trkpt lat="44.43542" lon="4.40374">
        <ele>182</ele>
        <time>2011-10-23T14:13:51.000Z</time>
      </trkpt>
      <trkpt lat="44.43548" lon="4.40389">
        <ele>181</ele>
        <time>2011-10-23T14:13:54.000Z</time>
      </trkpt>
      <trkpt lat="44.43554" lon="4.40397">
        <ele>181</ele>
        <time>2011-10-23T14:13:56.000Z</time>
      </trkpt>
      <trkpt lat="44.43567" lon="4.40407">
        <ele>181</ele>
        <time>2011-10-23T14:14:00.000Z</time>
      </trkpt>
      <trkpt lat="44.43589" lon="4.40416">
        <ele>181</ele>
        <time>2011-10-23T14:14:06.000Z</time>
      </trkpt>
      <trkpt lat="44.43609" lon="4.40413">
        <ele>181</ele>
        <time>2011-10-23T14:14:10.000Z</time>
      </trkpt>
      <trkpt lat="44.43619" lon="4.40412">
        <ele>181</ele>
        <time>2011-10-23T14:14:12.000Z</time>
      </trkpt>
      <trkpt lat="44.43626" lon="4.40416">
        <ele>180</ele>
        <time>2011-10-23T14:14:14.000Z</time>
      </trkpt>
      <trkpt lat="44.43632" lon="4.40421">
        <ele>180</ele>
        <time>2011-10-23T14:14:16.000Z</time>
      </trkpt>
      <trkpt lat="44.43647" lon="4.40433">
        <ele>180</ele>
        <time>2011-10-23T14:14:20.000Z</time>
      </trkpt>
      <trkpt lat="44.43652" lon="4.40441">
        <ele>180</ele>
        <time>2011-10-23T14:14:22.000Z</time>
      </trkpt>
      <trkpt lat="44.43671" lon="4.40462">
        <ele>181</ele>
        <time>2011-10-23T14:14:28.000Z</time>
      </trkpt>
      <trkpt lat="44.43719" lon="4.40469">
        <ele>184</ele>
        <time>2011-10-23T14:14:40.000Z</time>
      </trkpt>
      <trkpt lat="44.43723" lon="4.40469">
        <ele>184</ele>
        <time>2011-10-23T14:14:41.000Z</time>
      </trkpt>
      <trkpt lat="44.43746" lon="4.40469">
        <ele>186</ele>
        <time>2011-10-23T14:14:47.000Z</time>
      </trkpt>
      <trkpt lat="44.43766" lon="4.40468">
        <ele>186</ele>
        <time>2011-10-23T14:14:52.000Z</time>
      </trkpt>
      <trkpt lat="44.43782" lon="4.40484">
        <ele>187</ele>
        <time>2011-10-23T14:14:57.000Z</time>
      </trkpt>
      <trkpt lat="44.43828" lon="4.40505">
        <ele>183</ele>
        <time>2011-10-23T14:15:08.000Z</time>
      </trkpt>
      <trkpt lat="44.43831" lon="4.40507">
        <ele>183</ele>
        <time>2011-10-23T14:15:09.000Z</time>
      </trkpt>
      <trkpt lat="44.43834" lon="4.40509">
        <ele>182</ele>
        <time>2011-10-23T14:15:10.000Z</time>
      </trkpt>
      <trkpt lat="44.43836" lon="4.40518">
        <ele>181</ele>
        <time>2011-10-23T14:15:12.000Z</time>
      </trkpt>
      <trkpt lat="44.43827" lon="4.40568">
        <ele>177</ele>
        <time>2011-10-23T14:15:19.000Z</time>
      </trkpt>
      <trkpt lat="44.43826" lon="4.40583">
        <ele>176</ele>
        <time>2011-10-23T14:15:21.000Z</time>
      </trkpt>
      <trkpt lat="44.43832" lon="4.406">
        <ele>175</ele>
        <time>2011-10-23T14:15:24.000Z</time>
      </trkpt>
      <trkpt lat="44.43846" lon="4.40606">
        <ele>175</ele>
        <time>2011-10-23T14:15:27.000Z</time>
      </trkpt>
      <trkpt lat="44.43867" lon="4.40612">
        <ele>175</ele>
        <time>2011-10-23T14:15:32.000Z</time>
      </trkpt>
      <trkpt lat="44.43888" lon="4.40629">
        <ele>175</ele>
        <time>2011-10-23T14:15:37.000Z</time>
      </trkpt>
      <trkpt lat="44.43901" lon="4.40636">
        <ele>175</ele>
        <time>2011-10-23T14:15:40.000Z</time>
      </trkpt>
      <trkpt lat="44.43933" lon="4.40686">
        <ele>180</ele>
        <time>2011-10-23T14:15:53.000Z</time>
      </trkpt>
      <trkpt lat="44.43936" lon="4.40688">
        <ele>181</ele>
        <time>2011-10-23T14:15:54.000Z</time>
      </trkpt>
      <trkpt lat="44.4395" lon="4.40697">
        <ele>181</ele>
        <time>2011-10-23T14:15:58.000Z</time>
      </trkpt>
      <trkpt lat="44.43988" lon="4.40698">
        <ele>179</ele>
        <time>2011-10-23T14:16:05.000Z</time>
      </trkpt>
      <trkpt lat="44.43996" lon="4.40708">
        <ele>178</ele>
        <time>2011-10-23T14:16:07.000Z</time>
      </trkpt>
      <trkpt lat="44.44007" lon="4.40754">
        <ele>177</ele>
        <time>2011-10-23T14:16:14.000Z</time>
      </trkpt>
      <trkpt lat="44.44034" lon="4.40808">
        <ele>178</ele>
        <time>2011-10-23T14:16:28.000Z</time>
      </trkpt>
      <trkpt lat="44.44036" lon="4.40812">
        <ele>178</ele>
        <time>2011-10-23T14:16:29.000Z</time>
      </trkpt>
      <trkpt lat="44.44062" lon="4.40874">
        <ele>175</ele>
        <time>2011-10-23T14:16:40.000Z</time>
      </trkpt>
      <trkpt lat="44.44064" lon="4.40881">
        <ele>174</ele>
        <time>2011-10-23T14:16:41.000Z</time>
      </trkpt>
      <trkpt lat="44.44087" lon="4.40935">
        <ele>170</ele>
        <time>2011-10-23T14:16:47.000Z</time>
      </trkpt>
      <trkpt lat="44.44092" lon="4.40945">
        <ele>170</ele>
        <time>2011-10-23T14:16:48.000Z</time>
      </trkpt>
      <trkpt lat="44.44121" lon="4.41001">
        <ele>168</ele>
        <time>2011-10-23T14:16:54.000Z</time>
      </trkpt>
      <trkpt lat="44.44124" lon="4.4101">
        <ele>169</ele>
        <time>2011-10-23T14:16:55.000Z</time>
      </trkpt>
      <trkpt lat="44.4415" lon="4.41068">
        <ele>172</ele>
        <time>2011-10-23T14:17:04.000Z</time>
      </trkpt>
      <trkpt lat="44.44153" lon="4.41073">
        <ele>172</ele>
        <time>2011-10-23T14:17:05.000Z</time>
      </trkpt>
      <trkpt lat="44.44181" lon="4.41124">
        <ele>175</ele>
        <time>2011-10-23T14:17:15.000Z</time>
      </trkpt>
      <trkpt lat="44.44182" lon="4.41128">
        <ele>175</ele>
        <time>2011-10-23T14:17:16.000Z</time>
      </trkpt>
      <trkpt lat="44.44186" lon="4.41131">
        <ele>175</ele>
        <time>2011-10-23T14:17:18.000Z</time>
      </trkpt>
      <trkpt lat="44.44184" lon="4.41123">
        <ele>175</ele>
        <time>2011-10-23T14:17:22.000Z</time>
      </trkpt>
      <trkpt lat="44.44184" lon="4.41115">
        <ele>175</ele>
        <time>2011-10-23T14:17:26.000Z</time>
      </trkpt>
      <trkpt lat="44.44202" lon="4.4111">
        <ele>174</ele>
        <time>2011-10-23T14:17:32.000Z</time>
      </trkpt>
      <trkpt lat="44.44206" lon="4.41103">
        <ele>175</ele>
        <time>2011-10-23T14:17:34.000Z</time>
      </trkpt>
      <trkpt lat="44.44209" lon="4.41088">
        <ele>175</ele>
        <time>2011-10-23T14:17:37.000Z</time>
      </trkpt>
      <trkpt lat="44.44221" lon="4.41028">
        <ele>177</ele>
        <time>2011-10-23T14:17:51.000Z</time>
      </trkpt>
      <trkpt lat="44.44222" lon="4.41023">
        <ele>177</ele>
        <time>2011-10-23T14:17:52.000Z</time>
      </trkpt>
      <trkpt lat="44.4423" lon="4.40971">
        <ele>178</ele>
        <time>2011-10-23T14:18:03.000Z</time>
      </trkpt>
      <trkpt lat="44.44235" lon="4.40966">
        <ele>178</ele>
        <time>2011-10-23T14:18:05.000Z</time>
      </trkpt>
      <trkpt lat="44.44274" lon="4.40958">
        <ele>181</ele>
        <time>2011-10-23T14:18:18.000Z</time>
      </trkpt>
      <trkpt lat="44.4431" lon="4.40968">
        <ele>184</ele>
        <time>2011-10-23T14:18:30.000Z</time>
      </trkpt>
      <trkpt lat="44.44354" lon="4.40991">
        <ele>186</ele>
        <time>2011-10-23T14:18:47.000Z</time>
      </trkpt>
      <trkpt lat="44.44357" lon="4.40993">
        <ele>186</ele>
        <time>2011-10-23T14:18:48.000Z</time>
      </trkpt>
      <trkpt lat="44.44377" lon="4.41002">
        <ele>186</ele>
        <time>2011-10-23T14:18:55.000Z</time>
      </trkpt>
      <trkpt lat="44.44422" lon="4.41013">
        <ele>187</ele>
        <time>2011-10-23T14:19:09.000Z</time>
      </trkpt>
      <trkpt lat="44.44426" lon="4.41013">
        <ele>187</ele>
        <time>2011-10-23T14:19:10.000Z</time>
      </trkpt>
      <trkpt lat="44.44472" lon="4.41023">
        <ele>185</ele>
        <time>2011-10-23T14:19:21.000Z</time>
      </trkpt>
      <trkpt lat="44.44476" lon="4.41024">
        <ele>184</ele>
        <time>2011-10-23T14:19:22.000Z</time>
      </trkpt>
      <trkpt lat="44.44522" lon="4.41032">
        <ele>183</ele>
        <time>2011-10-23T14:19:33.000Z</time>
      </trkpt>
      <trkpt lat="44.44526" lon="4.41034">
        <ele>183</ele>
        <time>2011-10-23T14:19:34.000Z</time>
      </trkpt>
      <trkpt lat="44.44571" lon="4.41045">
        <ele>184</ele>
        <time>2011-10-23T14:19:45.000Z</time>
      </trkpt>
      <trkpt lat="44.44575" lon="4.41046">
        <ele>184</ele>
        <time>2011-10-23T14:19:46.000Z</time>
      </trkpt>
      <trkpt lat="44.44623" lon="4.41056">
        <ele>185</ele>
        <time>2011-10-23T14:19:57.000Z</time>
      </trkpt>
      <trkpt lat="44.44627" lon="4.41057">
        <ele>185</ele>
        <time>2011-10-23T14:19:58.000Z</time>
      </trkpt>
      <trkpt lat="44.44644" lon="4.4106">
        <ele>185</ele>
        <time>2011-10-23T14:20:02.000Z</time>
      </trkpt>
      <trkpt lat="44.44693" lon="4.41067">
        <ele>182</ele>
        <time>2011-10-23T14:20:12.000Z</time>
      </trkpt>
      <trkpt lat="44.44699" lon="4.41067">
        <ele>181</ele>
        <time>2011-10-23T14:20:13.000Z</time>
      </trkpt>
      <trkpt lat="44.44711" lon="4.4107">
        <ele>180</ele>
        <time>2011-10-23T14:20:15.000Z</time>
      </trkpt>
      <trkpt lat="44.44755" lon="4.41078">
        <ele>177</ele>
        <time>2011-10-23T14:20:22.000Z</time>
      </trkpt>
      <trkpt lat="44.44762" lon="4.41078">
        <ele>176</ele>
        <time>2011-10-23T14:20:23.000Z</time>
      </trkpt>
      <trkpt lat="44.4478" lon="4.41082">
        <ele>175</ele>
        <time>2011-10-23T14:20:26.000Z</time>
      </trkpt>
      <trkpt lat="44.44826" lon="4.41093">
        <ele>174</ele>
        <time>2011-10-23T14:20:36.000Z</time>
      </trkpt>
      <trkpt lat="44.44831" lon="4.41094">
        <ele>174</ele>
        <time>2011-10-23T14:20:37.000Z</time>
      </trkpt>
      <trkpt lat="44.44878" lon="4.41104">
        <ele>174</ele>
        <time>2011-10-23T14:20:46.000Z</time>
      </trkpt>
      <trkpt lat="44.44883" lon="4.41104">
        <ele>174</ele>
        <time>2011-10-23T14:20:47.000Z</time>
      </trkpt>
      <trkpt lat="44.44931" lon="4.41114">
        <ele>179</ele>
        <time>2011-10-23T14:20:59.000Z</time>
      </trkpt>
      <trkpt lat="44.44936" lon="4.41115">
        <ele>179</ele>
        <time>2011-10-23T14:21:00.000Z</time>
      </trkpt>
      <trkpt lat="44.44982" lon="4.41124">
        <ele>177</ele>
        <time>2011-10-23T14:21:08.000Z</time>
      </trkpt>
      <trkpt lat="44.44989" lon="4.41125">
        <ele>177</ele>
        <time>2011-10-23T14:21:09.000Z</time>
      </trkpt>
      <trkpt lat="44.45036" lon="4.41131">
        <ele>175</ele>
        <time>2011-10-23T14:21:16.000Z</time>
      </trkpt>
      <trkpt lat="44.45041" lon="4.41132">
        <ele>175</ele>
        <time>2011-10-23T14:21:17.000Z</time>
      </trkpt>
      <trkpt lat="44.45089" lon="4.41144">
        <ele>175</ele>
        <time>2011-10-23T14:21:26.000Z</time>
      </trkpt>
      <trkpt lat="44.45094" lon="4.41145">
        <ele>175</ele>
        <time>2011-10-23T14:21:27.000Z</time>
      </trkpt>
      <trkpt lat="44.45138" lon="4.41156">
        <ele>174</ele>
        <time>2011-10-23T14:21:36.000Z</time>
      </trkpt>
      <trkpt lat="44.45144" lon="4.41156">
        <ele>173</ele>
        <time>2011-10-23T14:21:37.000Z</time>
      </trkpt>
      <trkpt lat="44.4519" lon="4.41166">
        <ele>172</ele>
        <time>2011-10-23T14:21:45.000Z</time>
      </trkpt>
      <trkpt lat="44.45195" lon="4.41168">
        <ele>172</ele>
        <time>2011-10-23T14:21:46.000Z</time>
      </trkpt>
      <trkpt lat="44.45235" lon="4.4118">
        <ele>171</ele>
        <time>2011-10-23T14:21:56.000Z</time>
      </trkpt>
      <trkpt lat="44.45242" lon="4.41174">
        <ele>171</ele>
        <time>2011-10-23T14:21:59.000Z</time>
      </trkpt>
      <trkpt lat="44.45251" lon="4.41117">
        <ele>173</ele>
        <time>2011-10-23T14:22:17.000Z</time>
      </trkpt>
      <trkpt lat="44.45248" lon="4.41081">
        <ele>175</ele>
        <time>2011-10-23T14:22:31.000Z</time>
      </trkpt>
      <trkpt lat="44.45249" lon="4.41072">
        <ele>176</ele>
        <time>2011-10-23T14:22:35.000Z</time>
      </trkpt>
      <trkpt lat="44.45256" lon="4.41045">
        <ele>178</ele>
        <time>2011-10-23T14:22:47.000Z</time>
      </trkpt>
      <trkpt lat="44.45261" lon="4.41034">
        <ele>179</ele>
        <time>2011-10-23T14:22:53.000Z</time>
      </trkpt>
      <trkpt lat="44.45267" lon="4.41019">
        <ele>182</ele>
        <time>2011-10-23T14:23:10.000Z</time>
      </trkpt>
      <trkpt lat="44.45268" lon="4.41011">
        <ele>182</ele>
        <time>2011-10-23T14:23:19.000Z</time>
      </trkpt>
      <trkpt lat="44.45272" lon="4.40995">
        <ele>184</ele>
        <time>2011-10-23T14:23:35.000Z</time>
      </trkpt>
      <trkpt lat="44.45276" lon="4.40979">
        <ele>188</ele>
        <time>2011-10-23T14:23:53.000Z</time>
      </trkpt>
      <trkpt lat="44.45279" lon="4.40972">
        <ele>189</ele>
        <time>2011-10-23T14:23:59.000Z</time>
      </trkpt>
      <trkpt lat="44.45281" lon="4.40964">
        <ele>190</ele>
        <time>2011-10-23T14:24:06.000Z</time>
      </trkpt>
      <trkpt lat="44.45284" lon="4.40956">
        <ele>191</ele>
        <time>2011-10-23T14:24:12.000Z</time>
      </trkpt>
      <trkpt lat="44.45292" lon="4.40925">
        <ele>195</ele>
        <time>2011-10-23T14:24:39.000Z</time>
      </trkpt>
      <trkpt lat="44.45296" lon="4.40909">
        <ele>197</ele>
        <time>2011-10-23T14:24:51.000Z</time>
      </trkpt>
      <trkpt lat="44.45304" lon="4.40883">
        <ele>199</ele>
        <time>2011-10-23T14:25:12.000Z</time>
      </trkpt>
      <trkpt lat="44.45308" lon="4.40876">
        <ele>199</ele>
        <time>2011-10-23T14:25:18.000Z</time>
      </trkpt>
      <trkpt lat="44.45312" lon="4.40864">
        <ele>201</ele>
        <time>2011-10-23T14:25:41.000Z</time>
      </trkpt>
      <trkpt lat="44.45314" lon="4.40857">
        <ele>202</ele>
        <time>2011-10-23T14:25:47.000Z</time>
      </trkpt>
      <trkpt lat="44.45331" lon="4.40799">
        <ele>206</ele>
        <time>2011-10-23T14:26:16.000Z</time>
      </trkpt>
      <trkpt lat="44.45331" lon="4.40797">
        <ele>206</ele>
        <time>2011-10-23T14:26:17.000Z</time>
      </trkpt>
      <trkpt lat="44.45338" lon="4.4077">
        <ele>208</ele>
        <time>2011-10-23T14:26:30.000Z</time>
      </trkpt>
      <trkpt lat="44.45341" lon="4.40753">
        <ele>209</ele>
        <time>2011-10-23T14:26:38.000Z</time>
      </trkpt>
      <trkpt lat="44.45344" lon="4.40745">
        <ele>209</ele>
        <time>2011-10-23T14:26:42.000Z</time>
      </trkpt>
      <trkpt lat="44.4535" lon="4.40726">
        <ele>210</ele>
        <time>2011-10-23T14:26:53.000Z</time>
      </trkpt>
      <trkpt lat="44.45351" lon="4.40717">
        <ele>211</ele>
        <time>2011-10-23T14:26:57.000Z</time>
      </trkpt>
      <trkpt lat="44.4535" lon="4.40709">
        <ele>213</ele>
        <time>2011-10-23T14:27:09.000Z</time>
      </trkpt>
      <trkpt lat="44.45348" lon="4.40701">
        <ele>213</ele>
        <time>2011-10-23T14:27:17.000Z</time>
      </trkpt>
      <trkpt lat="44.45346" lon="4.40695">
        <ele>214</ele>
        <time>2011-10-23T14:27:33.000Z</time>
      </trkpt>
      <trkpt lat="44.45339" lon="4.40682">
        <ele>215</ele>
        <time>2011-10-23T14:27:47.000Z</time>
      </trkpt>
      <trkpt lat="44.45343" lon="4.40675">
        <ele>216</ele>
        <time>2011-10-23T14:28:20.000Z</time>
      </trkpt>
      <trkpt lat="44.45347" lon="4.4067">
        <ele>219</ele>
        <time>2011-10-23T14:28:28.000Z</time>
      </trkpt>
      <trkpt lat="44.45346" lon="4.40661">
        <ele>220</ele>
        <time>2011-10-23T14:28:36.000Z</time>
      </trkpt>
      <trkpt lat="44.45346" lon="4.40653">
        <ele>222</ele>
        <time>2011-10-23T14:28:43.000Z</time>
      </trkpt>
      <trkpt lat="44.45353" lon="4.40638">
        <ele>225</ele>
        <time>2011-10-23T14:28:59.000Z</time>
      </trkpt>
      <trkpt lat="44.45359" lon="4.40621">
        <ele>229</ele>
        <time>2011-10-23T14:29:18.000Z</time>
      </trkpt>
      <trkpt lat="44.45364" lon="4.40602">
        <ele>230</ele>
        <time>2011-10-23T14:29:36.000Z</time>
      </trkpt>
      <trkpt lat="44.45381" lon="4.40543">
        <ele>230</ele>
        <time>2011-10-23T14:30:00.000Z</time>
      </trkpt>
      <trkpt lat="44.45382" lon="4.4054">
        <ele>230</ele>
        <time>2011-10-23T14:30:01.000Z</time>
      </trkpt>
      <trkpt lat="44.45393" lon="4.40505">
        <ele>233</ele>
        <time>2011-10-23T14:30:15.000Z</time>
      </trkpt>
      <trkpt lat="44.45395" lon="4.40496">
        <ele>234</ele>
        <time>2011-10-23T14:30:19.000Z</time>
      </trkpt>
      <trkpt lat="44.45395" lon="4.40478">
        <ele>237</ele>
        <time>2011-10-23T14:30:28.000Z</time>
      </trkpt>
      <trkpt lat="44.4539" lon="4.40459">
        <ele>239</ele>
        <time>2011-10-23T14:30:36.000Z</time>
      </trkpt>
      <trkpt lat="44.45385" lon="4.4045">
        <ele>240</ele>
        <time>2011-10-23T14:30:40.000Z</time>
      </trkpt>
      <trkpt lat="44.45381" lon="4.40441">
        <ele>241</ele>
        <time>2011-10-23T14:30:44.000Z</time>
      </trkpt>
      <trkpt lat="44.45372" lon="4.40411">
        <ele>242</ele>
        <time>2011-10-23T14:30:54.000Z</time>
      </trkpt>
      <trkpt lat="44.45372" lon="4.40404">
        <ele>243</ele>
        <time>2011-10-23T14:30:56.000Z</time>
      </trkpt>
      <trkpt lat="44.45374" lon="4.4039">
        <ele>243</ele>
        <time>2011-10-23T14:31:00.000Z</time>
      </trkpt>
      <trkpt lat="44.4538" lon="4.40345">
        <ele>243</ele>
        <time>2011-10-23T14:31:12.000Z</time>
      </trkpt>
      <trkpt lat="44.45377" lon="4.40331">
        <ele>243</ele>
        <time>2011-10-23T14:31:16.000Z</time>
      </trkpt>
      <trkpt lat="44.45368" lon="4.40316">
        <ele>242</ele>
        <time>2011-10-23T14:31:20.000Z</time>
      </trkpt>
      <trkpt lat="44.45333" lon="4.40271">
        <ele>239</ele>
        <time>2011-10-23T14:31:29.000Z</time>
      </trkpt>
      <trkpt lat="44.4533" lon="4.40265">
        <ele>238</ele>
        <time>2011-10-23T14:31:30.000Z</time>
      </trkpt>
      <trkpt lat="44.45306" lon="4.40211">
        <ele>234</ele>
        <time>2011-10-23T14:31:39.000Z</time>
      </trkpt>
      <trkpt lat="44.45303" lon="4.40205">
        <ele>234</ele>
        <time>2011-10-23T14:31:40.000Z</time>
      </trkpt>
      <trkpt lat="44.45293" lon="4.4018">
        <ele>234</ele>
        <time>2011-10-23T14:31:45.000Z</time>
      </trkpt>
      <trkpt lat="44.45281" lon="4.4015">
        <ele>234</ele>
        <time>2011-10-23T14:31:51.000Z</time>
      </trkpt>
      <trkpt lat="44.45255" lon="4.40098">
        <ele>233</ele>
        <time>2011-10-23T14:32:01.000Z</time>
      </trkpt>
      <trkpt lat="44.45253" lon="4.40093">
        <ele>233</ele>
        <time>2011-10-23T14:32:02.000Z</time>
      </trkpt>
      <trkpt lat="44.4523" lon="4.40029">
        <ele>231</ele>
        <time>2011-10-23T14:32:12.000Z</time>
      </trkpt>
      <trkpt lat="44.45228" lon="4.40021">
        <ele>230</ele>
        <time>2011-10-23T14:32:13.000Z</time>
      </trkpt>
      <trkpt lat="44.45218" lon="4.39976">
        <ele>227</ele>
        <time>2011-10-23T14:32:18.000Z</time>
      </trkpt>
      <trkpt lat="44.45229" lon="4.39915">
        <ele>226</ele>
        <time>2011-10-23T14:32:28.000Z</time>
      </trkpt>
      <trkpt lat="44.4523" lon="4.3991">
        <ele>226</ele>
        <time>2011-10-23T14:32:29.000Z</time>
      </trkpt>
      <trkpt lat="44.45239" lon="4.39847">
        <ele>226</ele>
        <time>2011-10-23T14:32:39.000Z</time>
      </trkpt>
      <trkpt lat="44.4524" lon="4.3984">
        <ele>226</ele>
        <time>2011-10-23T14:32:40.000Z</time>
      </trkpt>
      <trkpt lat="44.4525" lon="4.39776">
        <ele>225</ele>
        <time>2011-10-23T14:32:48.000Z</time>
      </trkpt>
      <trkpt lat="44.45252" lon="4.39769">
        <ele>225</ele>
        <time>2011-10-23T14:32:49.000Z</time>
      </trkpt>
      <trkpt lat="44.45258" lon="4.39742">
        <ele>225</ele>
        <time>2011-10-23T14:32:55.000Z</time>
      </trkpt>
      <trkpt lat="44.45263" lon="4.3974">
        <ele>225</ele>
        <time>2011-10-23T14:32:59.000Z</time>
      </trkpt>
      <trkpt lat="44.45277" lon="4.39758">
        <ele>226</ele>
        <time>2011-10-23T14:33:07.000Z</time>
      </trkpt>
      <trkpt lat="44.45301" lon="4.3979">
        <ele>226</ele>
        <time>2011-10-23T14:33:19.000Z</time>
      </trkpt>
      <trkpt lat="44.45303" lon="4.39789">
        <ele>226</ele>
        <time>2011-10-23T14:33:25.000Z</time>
      </trkpt>
      <trkpt lat="44.45269" lon="4.39748">
        <ele>227</ele>
        <time>2011-10-23T14:33:40.000Z</time>
      </trkpt>
      <trkpt lat="44.45267" lon="4.39745">
        <ele>228</ele>
        <time>2011-10-23T14:33:41.000Z</time>
      </trkpt>
      <trkpt lat="44.4526" lon="4.39731">
        <ele>228</ele>
        <time>2011-10-23T14:33:46.000Z</time>
      </trkpt>
      <trkpt lat="44.45265" lon="4.39727">
        <ele>227</ele>
        <time>2011-10-23T14:33:50.000Z</time>
      </trkpt>
      <trkpt lat="44.4531" lon="4.39735">
        <ele>227</ele>
        <time>2011-10-23T14:34:06.000Z</time>
      </trkpt>
      <trkpt lat="44.45313" lon="4.39736">
        <ele>227</ele>
        <time>2011-10-23T14:34:07.000Z</time>
      </trkpt>
      <trkpt lat="44.45361" lon="4.39747">
        <ele>230</ele>
        <time>2011-10-23T14:34:22.000Z</time>
      </trkpt>
      <trkpt lat="44.45364" lon="4.39748">
        <ele>230</ele>
        <time>2011-10-23T14:34:23.000Z</time>
      </trkpt>
      <trkpt lat="44.45385" lon="4.39755">
        <ele>231</ele>
        <time>2011-10-23T14:34:29.000Z</time>
      </trkpt>
      <trkpt lat="44.45432" lon="4.39767">
        <ele>236</ele>
        <time>2011-10-23T14:34:46.000Z</time>
      </trkpt>
      <trkpt lat="44.45435" lon="4.39768">
        <ele>236</ele>
        <time>2011-10-23T14:34:47.000Z</time>
      </trkpt>
      <trkpt lat="44.45456" lon="4.39772">
        <ele>238</ele>
        <time>2011-10-23T14:34:55.000Z</time>
      </trkpt>
      <trkpt lat="44.45467" lon="4.39769">
        <ele>239</ele>
        <time>2011-10-23T14:34:59.000Z</time>
      </trkpt>
      <trkpt lat="44.45479" lon="4.39766">
        <ele>239</ele>
        <time>2011-10-23T14:35:03.000Z</time>
      </trkpt>
      <trkpt lat="44.45491" lon="4.39768">
        <ele>240</ele>
        <time>2011-10-23T14:35:07.000Z</time>
      </trkpt>
      <trkpt lat="44.45533" lon="4.39787">
        <ele>241</ele>
        <time>2011-10-23T14:35:25.000Z</time>
      </trkpt>
      <trkpt lat="44.45536" lon="4.39786">
        <ele>241</ele>
        <time>2011-10-23T14:35:26.000Z</time>
      </trkpt>
      <trkpt lat="44.45549" lon="4.39785">
        <ele>241</ele>
        <time>2011-10-23T14:35:29.000Z</time>
      </trkpt>
      <trkpt lat="44.45594" lon="4.39779">
        <ele>241</ele>
        <time>2011-10-23T14:35:40.000Z</time>
      </trkpt>
      <trkpt lat="44.45598" lon="4.39779">
        <ele>241</ele>
        <time>2011-10-23T14:35:41.000Z</time>
      </trkpt>
      <trkpt lat="44.45621" lon="4.39779">
        <ele>241</ele>
        <time>2011-10-23T14:35:47.000Z</time>
      </trkpt>
      <trkpt lat="44.45651" lon="4.39792">
        <ele>241</ele>
        <time>2011-10-23T14:35:55.000Z</time>
      </trkpt>
      <trkpt lat="44.45665" lon="4.39796">
        <ele>241</ele>
        <time>2011-10-23T14:35:59.000Z</time>
      </trkpt>
      <trkpt lat="44.45705" lon="4.39833">
        <ele>235</ele>
        <time>2011-10-23T14:36:12.000Z</time>
      </trkpt>
      <trkpt lat="44.45708" lon="4.39837">
        <ele>235</ele>
        <time>2011-10-23T14:36:13.000Z</time>
      </trkpt>
      <trkpt lat="44.45716" lon="4.39847">
        <ele>234</ele>
        <time>2011-10-23T14:36:15.000Z</time>
      </trkpt>
      <trkpt lat="44.45749" lon="4.39893">
        <ele>231</ele>
        <time>2011-10-23T14:36:24.000Z</time>
      </trkpt>
      <trkpt lat="44.45752" lon="4.39898">
        <ele>230</ele>
        <time>2011-10-23T14:36:25.000Z</time>
      </trkpt>
      <trkpt lat="44.45762" lon="4.39912">
        <ele>229</ele>
        <time>2011-10-23T14:36:36.000Z</time>
      </trkpt>
      <trkpt lat="44.45764" lon="4.39921">
        <ele>228</ele>
        <time>2011-10-23T14:36:39.000Z</time>
      </trkpt>
      <trkpt lat="44.45774" lon="4.39959">
        <ele>225</ele>
        <time>2011-10-23T14:36:48.000Z</time>
      </trkpt>
      <trkpt lat="44.45789" lon="4.3999">
        <ele>224</ele>
        <time>2011-10-23T14:36:54.000Z</time>
      </trkpt>
      <trkpt lat="44.45818" lon="4.4004">
        <ele>222</ele>
        <time>2011-10-23T14:37:03.000Z</time>
      </trkpt>
      <trkpt lat="44.45821" lon="4.40045">
        <ele>221</ele>
        <time>2011-10-23T14:37:04.000Z</time>
      </trkpt>
      <trkpt lat="44.45825" lon="4.40048">
        <ele>221</ele>
        <time>2011-10-23T14:37:05.000Z</time>
      </trkpt>
      <trkpt lat="44.45831" lon="4.40055">
        <ele>220</ele>
        <time>2011-10-23T14:37:25.000Z</time>
      </trkpt>
      <trkpt lat="44.45817" lon="4.40045">
        <ele>218</ele>
        <time>2011-10-23T14:37:31.000Z</time>
      </trkpt>
      <trkpt lat="44.45811" lon="4.40049">
        <ele>218</ele>
        <time>2011-10-23T14:37:33.000Z</time>
      </trkpt>
      <trkpt lat="44.45808" lon="4.40057">
        <ele>218</ele>
        <time>2011-10-23T14:37:35.000Z</time>
      </trkpt>
      <trkpt lat="44.45811" lon="4.40119">
        <ele>217</ele>
        <time>2011-10-23T14:37:49.000Z</time>
      </trkpt>
      <trkpt lat="44.45813" lon="4.40125">
        <ele>217</ele>
        <time>2011-10-23T14:37:50.000Z</time>
      </trkpt>
      <trkpt lat="44.45831" lon="4.40185">
        <ele>212</ele>
        <time>2011-10-23T14:37:59.000Z</time>
      </trkpt>
      <trkpt lat="44.45832" lon="4.40191">
        <ele>211</ele>
        <time>2011-10-23T14:38:00.000Z</time>
      </trkpt>
      <trkpt lat="44.45847" lon="4.40256">
        <ele>208</ele>
        <time>2011-10-23T14:38:11.000Z</time>
      </trkpt>
      <trkpt lat="44.45848" lon="4.40263">
        <ele>207</ele>
        <time>2011-10-23T14:38:12.000Z</time>
      </trkpt>
      <trkpt lat="44.4585" lon="4.4027">
        <ele>207</ele>
        <time>2011-10-23T14:38:13.000Z</time>
      </trkpt>
      <trkpt lat="44.45861" lon="4.40336">
        <ele>203</ele>
        <time>2011-10-23T14:38:22.000Z</time>
      </trkpt>
      <trkpt lat="44.45862" lon="4.40345">
        <ele>202</ele>
        <time>2011-10-23T14:38:23.000Z</time>
      </trkpt>
      <trkpt lat="44.45872" lon="4.40409">
        <ele>198</ele>
        <time>2011-10-23T14:38:33.000Z</time>
      </trkpt>
      <trkpt lat="44.45877" lon="4.40415">
        <ele>198</ele>
        <time>2011-10-23T14:38:34.000Z</time>
      </trkpt>
      <trkpt lat="44.45898" lon="4.40435">
        <ele>197</ele>
        <time>2011-10-23T14:38:38.000Z</time>
      </trkpt>
      <trkpt lat="44.45941" lon="4.40459">
        <ele>200</ele>
        <time>2011-10-23T14:38:49.000Z</time>
      </trkpt>
      <trkpt lat="44.45944" lon="4.40461">
        <ele>201</ele>
        <time>2011-10-23T14:38:50.000Z</time>
      </trkpt>
      <trkpt lat="44.45988" lon="4.4048">
        <ele>206</ele>
        <time>2011-10-23T14:39:04.000Z</time>
      </trkpt>
      <trkpt lat="44.45991" lon="4.4048">
        <ele>206</ele>
        <time>2011-10-23T14:39:05.000Z</time>
      </trkpt>
      <trkpt lat="44.46002" lon="4.40479">
        <ele>207</ele>
        <time>2011-10-23T14:39:09.000Z</time>
      </trkpt>
      <trkpt lat="44.46011" lon="4.40473">
        <ele>208</ele>
        <time>2011-10-23T14:39:12.000Z</time>
      </trkpt>
      <trkpt lat="44.4604" lon="4.40422">
        <ele>207</ele>
        <time>2011-10-23T14:39:26.000Z</time>
      </trkpt>
      <trkpt lat="44.46043" lon="4.40418">
        <ele>207</ele>
        <time>2011-10-23T14:39:27.000Z</time>
      </trkpt>
      <trkpt lat="44.46074" lon="4.40372">
        <ele>207</ele>
        <time>2011-10-23T14:39:39.000Z</time>
      </trkpt>
      <trkpt lat="44.46076" lon="4.40369">
        <ele>207</ele>
        <time>2011-10-23T14:39:40.000Z</time>
      </trkpt>
      <trkpt lat="44.46085" lon="4.40359">
        <ele>208</ele>
        <time>2011-10-23T14:39:43.000Z</time>
      </trkpt>
      <trkpt lat="44.46091" lon="4.40357">
        <ele>208</ele>
        <time>2011-10-23T14:39:46.000Z</time>
      </trkpt>
      <trkpt lat="44.46136" lon="4.40344">
        <ele>218</ele>
        <time>2011-10-23T14:40:24.000Z</time>
      </trkpt>
      <trkpt lat="44.46138" lon="4.40344">
        <ele>219</ele>
        <time>2011-10-23T14:40:25.000Z</time>
      </trkpt>
      <trkpt lat="44.46148" lon="4.40342">
        <ele>220</ele>
        <time>2011-10-23T14:40:30.000Z</time>
      </trkpt>
      <trkpt lat="44.46164" lon="4.40337">
        <ele>223</ele>
        <time>2011-10-23T14:40:38.000Z</time>
      </trkpt>
      <trkpt lat="44.46165" lon="4.40326">
        <ele>223</ele>
        <time>2011-10-23T14:40:42.000Z</time>
      </trkpt>
      <trkpt lat="44.46165" lon="4.40315">
        <ele>224</ele>
        <time>2011-10-23T14:40:46.000Z</time>
      </trkpt>
      <trkpt lat="44.46166" lon="4.40249">
        <ele>229</ele>
        <time>2011-10-23T14:41:09.000Z</time>
      </trkpt>
      <trkpt lat="44.46166" lon="4.40246">
        <ele>229</ele>
        <time>2011-10-23T14:41:10.000Z</time>
      </trkpt>
      <trkpt lat="44.46164" lon="4.40214">
        <ele>231</ele>
        <time>2011-10-23T14:41:27.000Z</time>
      </trkpt>
      <trkpt lat="44.46159" lon="4.4021">
        <ele>231</ele>
        <time>2011-10-23T14:41:33.000Z</time>
      </trkpt>
      <trkpt lat="44.4614" lon="4.40164">
        <ele>235</ele>
        <time>2011-10-23T14:41:50.000Z</time>
      </trkpt>
      <trkpt lat="44.4613" lon="4.40137">
        <ele>237</ele>
        <time>2011-10-23T14:41:57.000Z</time>
      </trkpt>
      <trkpt lat="44.46135" lon="4.40124">
        <ele>237</ele>
        <time>2011-10-23T14:42:01.000Z</time>
      </trkpt>
      <trkpt lat="44.4614" lon="4.40116">
        <ele>237</ele>
        <time>2011-10-23T14:42:04.000Z</time>
      </trkpt>
      <trkpt lat="44.46147" lon="4.4012">
        <ele>237</ele>
        <time>2011-10-23T14:42:08.000Z</time>
      </trkpt>
      <trkpt lat="44.46152" lon="4.40129">
        <ele>238</ele>
        <time>2011-10-23T14:42:15.000Z</time>
      </trkpt>
      <trkpt lat="44.46177" lon="4.40132">
        <ele>239</ele>
        <time>2011-10-23T14:42:44.000Z</time>
      </trkpt>
      <trkpt lat="44.46202" lon="4.40118">
        <ele>243</ele>
        <time>2011-10-23T14:43:11.000Z</time>
      </trkpt>
      <trkpt lat="44.46212" lon="4.40114">
        <ele>244</ele>
        <time>2011-10-23T14:43:20.000Z</time>
      </trkpt>
      <trkpt lat="44.46221" lon="4.40109">
        <ele>246</ele>
        <time>2011-10-23T14:43:29.000Z</time>
      </trkpt>
      <trkpt lat="44.46226" lon="4.40103">
        <ele>247</ele>
        <time>2011-10-23T14:43:35.000Z</time>
      </trkpt>
      <trkpt lat="44.46228" lon="4.40096">
        <ele>248</ele>
        <time>2011-10-23T14:43:41.000Z</time>
      </trkpt>
      <trkpt lat="44.46236" lon="4.40068">
        <ele>251</ele>
        <time>2011-10-23T14:44:33.000Z</time>
      </trkpt>
      <trkpt lat="44.46243" lon="4.40006">
        <ele>252</ele>
        <time>2011-10-23T14:45:05.000Z</time>
      </trkpt>
      <trkpt lat="44.46243" lon="4.40004">
        <ele>252</ele>
        <time>2011-10-23T14:45:06.000Z</time>
      </trkpt>
      <trkpt lat="44.46246" lon="4.39994">
        <ele>252</ele>
        <time>2011-10-23T14:45:10.000Z</time>
      </trkpt>
      <trkpt lat="44.46249" lon="4.39985">
        <ele>253</ele>
        <time>2011-10-23T14:45:14.000Z</time>
      </trkpt>
      <trkpt lat="44.46283" lon="4.39944">
        <ele>260</ele>
        <time>2011-10-23T14:45:43.000Z</time>
      </trkpt>
      <trkpt lat="44.46284" lon="4.39942">
        <ele>260</ele>
        <time>2011-10-23T14:45:44.000Z</time>
      </trkpt>
      <trkpt lat="44.46298" lon="4.39928">
        <ele>262</ele>
        <time>2011-10-23T14:45:56.000Z</time>
      </trkpt>
      <trkpt lat="44.4631" lon="4.39921">
        <ele>264</ele>
        <time>2011-10-23T14:46:04.000Z</time>
      </trkpt>
      <trkpt lat="44.46322" lon="4.39915">
        <ele>265</ele>
        <time>2011-10-23T14:46:12.000Z</time>
      </trkpt>
      <trkpt lat="44.4633" lon="4.39907">
        <ele>267</ele>
        <time>2011-10-23T14:46:18.000Z</time>
      </trkpt>
      <trkpt lat="44.46335" lon="4.39902">
        <ele>268</ele>
        <time>2011-10-23T14:46:51.000Z</time>
      </trkpt>
      <trkpt lat="44.4634" lon="4.39889">
        <ele>268</ele>
        <time>2011-10-23T14:47:00.000Z</time>
      </trkpt>
      <trkpt lat="44.4634" lon="4.39874">
        <ele>268</ele>
        <time>2011-10-23T14:47:09.000Z</time>
      </trkpt>
      <trkpt lat="44.46336" lon="4.39865">
        <ele>268</ele>
        <time>2011-10-23T14:47:15.000Z</time>
      </trkpt>
      <trkpt lat="44.46332" lon="4.39859">
        <ele>269</ele>
        <time>2011-10-23T14:47:20.000Z</time>
      </trkpt>
      <trkpt lat="44.46315" lon="4.39842">
        <ele>274</ele>
        <time>2011-10-23T14:47:38.000Z</time>
      </trkpt>
      <trkpt lat="44.46312" lon="4.39835">
        <ele>274</ele>
        <time>2011-10-23T14:47:43.000Z</time>
      </trkpt>
      <trkpt lat="44.46309" lon="4.39827">
        <ele>275</ele>
        <time>2011-10-23T14:47:47.000Z</time>
      </trkpt>
      <trkpt lat="44.4631" lon="4.39811">
        <ele>275</ele>
        <time>2011-10-23T14:47:53.000Z</time>
      </trkpt>
      <trkpt lat="44.4632" lon="4.39797">
        <ele>274</ele>
        <time>2011-10-23T14:47:58.000Z</time>
      </trkpt>
      <trkpt lat="44.46354" lon="4.39764">
        <ele>279</ele>
        <time>2011-10-23T14:48:16.000Z</time>
      </trkpt>
      <trkpt lat="44.46372" lon="4.39754">
        <ele>284</ele>
        <time>2011-10-23T14:48:34.000Z</time>
      </trkpt>
      <trkpt lat="44.46399" lon="4.39727">
        <ele>288</ele>
        <time>2011-10-23T14:49:07.000Z</time>
      </trkpt>
      <trkpt lat="44.46405" lon="4.39716">
        <ele>288</ele>
        <time>2011-10-23T14:49:16.000Z</time>
      </trkpt>
      <trkpt lat="44.46408" lon="4.39704">
        <ele>288</ele>
        <time>2011-10-23T14:49:26.000Z</time>
      </trkpt>
      <trkpt lat="44.46411" lon="4.39697">
        <ele>288</ele>
        <time>2011-10-23T14:49:32.000Z</time>
      </trkpt>
      <trkpt lat="44.46419" lon="4.39689">
        <ele>288</ele>
        <time>2011-10-23T14:49:41.000Z</time>
      </trkpt>
      <trkpt lat="44.46436" lon="4.39681">
        <ele>291</ele>
        <time>2011-10-23T14:50:00.000Z</time>
      </trkpt>
      <trkpt lat="44.46454" lon="4.39683">
        <ele>294</ele>
        <time>2011-10-23T14:50:21.000Z</time>
      </trkpt>
      <trkpt lat="44.46481" lon="4.39691">
        <ele>299</ele>
        <time>2011-10-23T14:50:51.000Z</time>
      </trkpt>
      <trkpt lat="44.46488" lon="4.39687">
        <ele>298</ele>
        <time>2011-10-23T14:51:56.000Z</time>
      </trkpt>
      <trkpt lat="44.46487" lon="4.3968">
        <ele>298</ele>
        <time>2011-10-23T14:53:58.000Z</time>
      </trkpt>
      <trkpt lat="44.46482" lon="4.39669">
        <ele>298</ele>
        <time>2011-10-23T14:54:07.000Z</time>
      </trkpt>
      <trkpt lat="44.46481" lon="4.39656">
        <ele>299</ele>
        <time>2011-10-23T14:54:13.000Z</time>
      </trkpt>
      <trkpt lat="44.46479" lon="4.39649">
        <ele>300</ele>
        <time>2011-10-23T14:54:18.000Z</time>
      </trkpt>
      <trkpt lat="44.46472" lon="4.39638">
        <ele>303</ele>
        <time>2011-10-23T14:54:26.000Z</time>
      </trkpt>
      <trkpt lat="44.46463" lon="4.39622">
        <ele>304</ele>
        <time>2011-10-23T14:54:36.000Z</time>
      </trkpt>
      <trkpt lat="44.46458" lon="4.39619">
        <ele>305</ele>
        <time>2011-10-23T14:54:46.000Z</time>
      </trkpt>
      <trkpt lat="44.46454" lon="4.39615">
        <ele>305</ele>
        <time>2011-10-23T14:54:53.000Z</time>
      </trkpt>
      <trkpt lat="44.46445" lon="4.39604">
        <ele>308</ele>
        <time>2011-10-23T14:55:09.000Z</time>
      </trkpt>
      <trkpt lat="44.46442" lon="4.39598">
        <ele>310</ele>
        <time>2011-10-23T14:55:17.000Z</time>
      </trkpt>
      <trkpt lat="44.46438" lon="4.39592">
        <ele>311</ele>
        <time>2011-10-23T14:55:25.000Z</time>
      </trkpt>
      <trkpt lat="44.4643" lon="4.3958">
        <ele>316</ele>
        <time>2011-10-23T14:56:03.000Z</time>
      </trkpt>
      <trkpt lat="44.46424" lon="4.39578">
        <ele>317</ele>
        <time>2011-10-23T14:56:14.000Z</time>
      </trkpt>
      <trkpt lat="44.46413" lon="4.39578">
        <ele>321</ele>
        <time>2011-10-23T14:56:37.000Z</time>
      </trkpt>
      <trkpt lat="44.464" lon="4.39568">
        <ele>324</ele>
        <time>2011-10-23T14:57:24.000Z</time>
      </trkpt>
      <trkpt lat="44.46395" lon="4.39564">
        <ele>326</ele>
        <time>2011-10-23T14:57:37.000Z</time>
      </trkpt>
      <trkpt lat="44.46388" lon="4.39558">
        <ele>329</ele>
        <time>2011-10-23T14:57:50.000Z</time>
      </trkpt>
      <trkpt lat="44.46383" lon="4.39554">
        <ele>329</ele>
        <time>2011-10-23T14:57:57.000Z</time>
      </trkpt>
      <trkpt lat="44.46376" lon="4.39547">
        <ele>330</ele>
        <time>2011-10-23T14:58:07.000Z</time>
      </trkpt>
      <trkpt lat="44.46373" lon="4.3954">
        <ele>330</ele>
        <time>2011-10-23T14:58:14.000Z</time>
      </trkpt>
      <trkpt lat="44.46371" lon="4.39534">
        <ele>334</ele>
        <time>2011-10-23T14:58:59.000Z</time>
      </trkpt>
      <trkpt lat="44.46373" lon="4.39527">
        <ele>334</ele>
        <time>2011-10-23T14:59:09.000Z</time>
      </trkpt>
      <trkpt lat="44.46371" lon="4.39518">
        <ele>335</ele>
        <time>2011-10-23T14:59:14.000Z</time>
      </trkpt>
      <trkpt lat="44.46365" lon="4.39508">
        <ele>336</ele>
        <time>2011-10-23T14:59:20.000Z</time>
      </trkpt>
      <trkpt lat="44.46358" lon="4.39499">
        <ele>336</ele>
        <time>2011-10-23T14:59:26.000Z</time>
      </trkpt>
      <trkpt lat="44.46354" lon="4.39478">
        <ele>335</ele>
        <time>2011-10-23T14:59:34.000Z</time>
      </trkpt>
      <trkpt lat="44.46349" lon="4.39467">
        <ele>335</ele>
        <time>2011-10-23T14:59:38.000Z</time>
      </trkpt>
      <trkpt lat="44.46347" lon="4.39455">
        <ele>335</ele>
        <time>2011-10-23T14:59:42.000Z</time>
      </trkpt>
      <trkpt lat="44.46342" lon="4.39448">
        <ele>335</ele>
        <time>2011-10-23T14:59:45.000Z</time>
      </trkpt>
      <trkpt lat="44.4634" lon="4.39438">
        <ele>335</ele>
        <time>2011-10-23T14:59:48.000Z</time>
      </trkpt>
      <trkpt lat="44.46336" lon="4.39419">
        <ele>335</ele>
        <time>2011-10-23T14:59:54.000Z</time>
      </trkpt>
      <trkpt lat="44.46329" lon="4.39395">
        <ele>336</ele>
        <time>2011-10-23T15:00:03.000Z</time>
      </trkpt>
      <trkpt lat="44.46318" lon="4.39349">
        <ele>338</ele>
        <time>2011-10-23T15:00:27.000Z</time>
      </trkpt>
      <trkpt lat="44.46318" lon="4.3933">
        <ele>340</ele>
        <time>2011-10-23T15:01:01.000Z</time>
      </trkpt>
      <trkpt lat="44.46347" lon="4.393">
        <ele>337</ele>
        <time>2011-10-23T15:01:13.000Z</time>
      </trkpt>
      <trkpt lat="44.46383" lon="4.39262">
        <ele>334</ele>
        <time>2011-10-23T15:01:21.000Z</time>
      </trkpt>
      <trkpt lat="44.46387" lon="4.39259">
        <ele>334</ele>
        <time>2011-10-23T15:01:22.000Z</time>
      </trkpt>
      <trkpt lat="44.46425" lon="4.39222">
        <ele>335</ele>
        <time>2011-10-23T15:01:39.000Z</time>
      </trkpt>
      <trkpt lat="44.46427" lon="4.3922">
        <ele>335</ele>
        <time>2011-10-23T15:01:40.000Z</time>
      </trkpt>
      <trkpt lat="44.46431" lon="4.39215">
        <ele>336</ele>
        <time>2011-10-23T15:01:43.000Z</time>
      </trkpt>
      <trkpt lat="44.46435" lon="4.39208">
        <ele>338</ele>
        <time>2011-10-23T15:01:53.000Z</time>
      </trkpt>
      <trkpt lat="44.46447" lon="4.39181">
        <ele>344</ele>
        <time>2011-10-23T15:02:18.000Z</time>
      </trkpt>
      <trkpt lat="44.4645" lon="4.39169">
        <ele>346</ele>
        <time>2011-10-23T15:02:31.000Z</time>
      </trkpt>
      <trkpt lat="44.46458" lon="4.39157">
        <ele>350</ele>
        <time>2011-10-23T15:02:51.000Z</time>
      </trkpt>
      <trkpt lat="44.46463" lon="4.39151">
        <ele>351</ele>
        <time>2011-10-23T15:03:04.000Z</time>
      </trkpt>
      <trkpt lat="44.46473" lon="4.3913">
        <ele>358</ele>
        <time>2011-10-23T15:03:40.000Z</time>
      </trkpt>
      <trkpt lat="44.46476" lon="4.39118">
        <ele>360</ele>
        <time>2011-10-23T15:03:55.000Z</time>
      </trkpt>
      <trkpt lat="44.46486" lon="4.39107">
        <ele>364</ele>
        <time>2011-10-23T15:04:17.000Z</time>
      </trkpt>
      <trkpt lat="44.46495" lon="4.39095">
        <ele>367</ele>
        <time>2011-10-23T15:04:35.000Z</time>
      </trkpt>
      <trkpt lat="44.46497" lon="4.39087">
        <ele>367</ele>
        <time>2011-10-23T15:04:44.000Z</time>
      </trkpt>
      <trkpt lat="44.46497" lon="4.39079">
        <ele>368</ele>
        <time>2011-10-23T15:04:51.000Z</time>
      </trkpt>
      <trkpt lat="44.46495" lon="4.39063">
        <ele>371</ele>
        <time>2011-10-23T15:07:02.000Z</time>
      </trkpt>
      <trkpt lat="44.46501" lon="4.3906">
        <ele>371</ele>
        <time>2011-10-23T15:08:17.000Z</time>
      </trkpt>
      <trkpt lat="44.46507" lon="4.39052">
        <ele>371</ele>
        <time>2011-10-23T15:08:22.000Z</time>
      </trkpt>
      <trkpt lat="44.46511" lon="4.39045">
        <ele>370</ele>
        <time>2011-10-23T15:08:26.000Z</time>
      </trkpt>
      <trkpt lat="44.46512" lon="4.39037">
        <ele>369</ele>
        <time>2011-10-23T15:08:30.000Z</time>
      </trkpt>
      <trkpt lat="44.46512" lon="4.39018">
        <ele>367</ele>
        <time>2011-10-23T15:08:36.000Z</time>
      </trkpt>
      <trkpt lat="44.46505" lon="4.38979">
        <ele>364</ele>
        <time>2011-10-23T15:09:09.000Z</time>
      </trkpt>
      <trkpt lat="44.46503" lon="4.38971">
        <ele>364</ele>
        <time>2011-10-23T15:09:18.000Z</time>
      </trkpt>
      <trkpt lat="44.46501" lon="4.38955">
        <ele>365</ele>
        <time>2011-10-23T15:09:28.000Z</time>
      </trkpt>
      <trkpt lat="44.4651" lon="4.38947">
        <ele>365</ele>
        <time>2011-10-23T15:09:32.000Z</time>
      </trkpt>
      <trkpt lat="44.46514" lon="4.38939">
        <ele>364</ele>
        <time>2011-10-23T15:09:35.000Z</time>
      </trkpt>
      <trkpt lat="44.46516" lon="4.38929">
        <ele>364</ele>
        <time>2011-10-23T15:09:38.000Z</time>
      </trkpt>
      <trkpt lat="44.46517" lon="4.38919">
        <ele>364</ele>
        <time>2011-10-23T15:09:40.000Z</time>
      </trkpt>
      <trkpt lat="44.46521" lon="4.38911">
        <ele>363</ele>
        <time>2011-10-23T15:09:42.000Z</time>
      </trkpt>
      <trkpt lat="44.46535" lon="4.38901">
        <ele>362</ele>
        <time>2011-10-23T15:09:46.000Z</time>
      </trkpt>
      <trkpt lat="44.46545" lon="4.38893">
        <ele>361</ele>
        <time>2011-10-23T15:09:49.000Z</time>
      </trkpt>
      <trkpt lat="44.46575" lon="4.38844">
        <ele>357</ele>
        <time>2011-10-23T15:10:01.000Z</time>
      </trkpt>
      <trkpt lat="44.46578" lon="4.38841">
        <ele>357</ele>
        <time>2011-10-23T15:10:02.000Z</time>
      </trkpt>
      <trkpt lat="44.46616" lon="4.38815">
        <ele>357</ele>
        <time>2011-10-23T15:10:11.000Z</time>
      </trkpt>
      <trkpt lat="44.46621" lon="4.38814">
        <ele>357</ele>
        <time>2011-10-23T15:10:12.000Z</time>
      </trkpt>
      <trkpt lat="44.46667" lon="4.38804">
        <ele>356</ele>
        <time>2011-10-23T15:10:23.000Z</time>
      </trkpt>
      <trkpt lat="44.46672" lon="4.38803">
        <ele>356</ele>
        <time>2011-10-23T15:10:24.000Z</time>
      </trkpt>
      <trkpt lat="44.46693" lon="4.38793">
        <ele>355</ele>
        <time>2011-10-23T15:10:28.000Z</time>
      </trkpt>
      <trkpt lat="44.46706" lon="4.38781">
        <ele>354</ele>
        <time>2011-10-23T15:10:31.000Z</time>
      </trkpt>
      <trkpt lat="44.46747" lon="4.38748">
        <ele>351</ele>
        <time>2011-10-23T15:10:41.000Z</time>
      </trkpt>
      <trkpt lat="44.46751" lon="4.38744">
        <ele>350</ele>
        <time>2011-10-23T15:10:42.000Z</time>
      </trkpt>
      <trkpt lat="44.46754" lon="4.38738">
        <ele>350</ele>
        <time>2011-10-23T15:10:43.000Z</time>
      </trkpt>
      <trkpt lat="44.46759" lon="4.38728">
        <ele>348</ele>
        <time>2011-10-23T15:10:45.000Z</time>
      </trkpt>
      <trkpt lat="44.46776" lon="4.38688">
        <ele>341</ele>
        <time>2011-10-23T15:10:56.000Z</time>
      </trkpt>
      <trkpt lat="44.46771" lon="4.38681">
        <ele>339</ele>
        <time>2011-10-23T15:11:01.000Z</time>
      </trkpt>
      <trkpt lat="44.46768" lon="4.38674">
        <ele>335</ele>
        <time>2011-10-23T15:11:57.000Z</time>
      </trkpt>
      <trkpt lat="44.46768" lon="4.38665">
        <ele>335</ele>
        <time>2011-10-23T15:12:02.000Z</time>
      </trkpt>
      <trkpt lat="44.46771" lon="4.38644">
        <ele>331</ele>
        <time>2011-10-23T15:12:22.000Z</time>
      </trkpt>
      <trkpt lat="44.46797" lon="4.38591">
        <ele>326</ele>
        <time>2011-10-23T15:12:36.000Z</time>
      </trkpt>
      <trkpt lat="44.46798" lon="4.38588">
        <ele>325</ele>
        <time>2011-10-23T15:12:37.000Z</time>
      </trkpt>
      <trkpt lat="44.46801" lon="4.38579">
        <ele>323</ele>
        <time>2011-10-23T15:12:40.000Z</time>
      </trkpt>
      <trkpt lat="44.46806" lon="4.38563">
        <ele>321</ele>
        <time>2011-10-23T15:12:46.000Z</time>
      </trkpt>
      <trkpt lat="44.46806" lon="4.38551">
        <ele>319</ele>
        <time>2011-10-23T15:12:50.000Z</time>
      </trkpt>
      <trkpt lat="44.46802" lon="4.38533">
        <ele>317</ele>
        <time>2011-10-23T15:12:55.000Z</time>
      </trkpt>
      <trkpt lat="44.46796" lon="4.3849">
        <ele>311</ele>
        <time>2011-10-23T15:13:05.000Z</time>
      </trkpt>
      <trkpt lat="44.46792" lon="4.38475">
        <ele>309</ele>
        <time>2011-10-23T15:13:08.000Z</time>
      </trkpt>
      <trkpt lat="44.46767" lon="4.38419">
        <ele>300</ele>
        <time>2011-10-23T15:13:23.000Z</time>
      </trkpt>
      <trkpt lat="44.46765" lon="4.38413">
        <ele>300</ele>
        <time>2011-10-23T15:13:24.000Z</time>
      </trkpt>
      <trkpt lat="44.46754" lon="4.38386">
        <ele>297</ele>
        <time>2011-10-23T15:13:29.000Z</time>
      </trkpt>
      <trkpt lat="44.4675" lon="4.38366">
        <ele>299</ele>
        <time>2011-10-23T15:15:08.000Z</time>
      </trkpt>
      <trkpt lat="44.46747" lon="4.38351">
        <ele>297</ele>
        <time>2011-10-23T15:15:14.000Z</time>
      </trkpt>
      <trkpt lat="44.46741" lon="4.38328">
        <ele>295</ele>
        <time>2011-10-23T15:15:21.000Z</time>
      </trkpt>
      <trkpt lat="44.46741" lon="4.38306">
        <ele>293</ele>
        <time>2011-10-23T15:15:26.000Z</time>
      </trkpt>
      <trkpt lat="44.46742" lon="4.38296">
        <ele>292</ele>
        <time>2011-10-23T15:15:28.000Z</time>
      </trkpt>
      <trkpt lat="44.46745" lon="4.3827">
        <ele>291</ele>
        <time>2011-10-23T15:15:33.000Z</time>
      </trkpt>
      <trkpt lat="44.46746" lon="4.38254">
        <ele>290</ele>
        <time>2011-10-23T15:15:36.000Z</time>
      </trkpt>
      <trkpt lat="44.46745" lon="4.38191">
        <ele>287</ele>
        <time>2011-10-23T15:15:49.000Z</time>
      </trkpt>
      <trkpt lat="44.46744" lon="4.38187">
        <ele>286</ele>
        <time>2011-10-23T15:15:50.000Z</time>
      </trkpt>
      <trkpt lat="44.46738" lon="4.38153">
        <ele>282</ele>
        <time>2011-10-23T15:15:59.000Z</time>
      </trkpt>
      <trkpt lat="44.46737" lon="4.38138">
        <ele>281</ele>
        <time>2011-10-23T15:16:02.000Z</time>
      </trkpt>
      <trkpt lat="44.46734" lon="4.38087">
        <ele>278</ele>
        <time>2011-10-23T15:16:12.000Z</time>
      </trkpt>
      <trkpt lat="44.46732" lon="4.38051">
        <ele>274</ele>
        <time>2011-10-23T15:16:20.000Z</time>
      </trkpt>
      <trkpt lat="44.46735" lon="4.38044">
        <ele>273</ele>
        <time>2011-10-23T15:16:24.000Z</time>
      </trkpt>
      <trkpt lat="44.46743" lon="4.3804">
        <ele>271</ele>
        <time>2011-10-23T15:16:28.000Z</time>
      </trkpt>
      <trkpt lat="44.46754" lon="4.38044">
        <ele>270</ele>
        <time>2011-10-23T15:16:32.000Z</time>
      </trkpt>
      <trkpt lat="44.46777" lon="4.38059">
        <ele>268</ele>
        <time>2011-10-23T15:16:39.000Z</time>
      </trkpt>
      <trkpt lat="44.46782" lon="4.38054">
        <ele>268</ele>
        <time>2011-10-23T15:16:41.000Z</time>
      </trkpt>
      <trkpt lat="44.4678" lon="4.38044">
        <ele>267</ele>
        <time>2011-10-23T15:16:44.000Z</time>
      </trkpt>
      <trkpt lat="44.46777" lon="4.38037">
        <ele>266</ele>
        <time>2011-10-23T15:16:46.000Z</time>
      </trkpt>
      <trkpt lat="44.46775" lon="4.38028">
        <ele>265</ele>
        <time>2011-10-23T15:16:48.000Z</time>
      </trkpt>
      <trkpt lat="44.46773" lon="4.38005">
        <ele>263</ele>
        <time>2011-10-23T15:16:52.000Z</time>
      </trkpt>
      <trkpt lat="44.46775" lon="4.37988">
        <ele>262</ele>
        <time>2011-10-23T15:16:55.000Z</time>
      </trkpt>
      <trkpt lat="44.46782" lon="4.37967">
        <ele>259</ele>
        <time>2011-10-23T15:16:59.000Z</time>
      </trkpt>
      <trkpt lat="44.46813" lon="4.37915">
        <ele>250</ele>
        <time>2011-10-23T15:17:09.000Z</time>
      </trkpt>
      <trkpt lat="44.46815" lon="4.37909">
        <ele>249</ele>
        <time>2011-10-23T15:17:10.000Z</time>
      </trkpt>
      <trkpt lat="44.46829" lon="4.37883">
        <ele>244</ele>
        <time>2011-10-23T15:17:15.000Z</time>
      </trkpt>
      <trkpt lat="44.4684" lon="4.37833">
        <ele>237</ele>
        <time>2011-10-23T15:17:22.000Z</time>
      </trkpt>
      <trkpt lat="44.46841" lon="4.3777">
        <ele>231</ele>
        <time>2011-10-23T15:17:30.000Z</time>
      </trkpt>
      <trkpt lat="44.46841" lon="4.37759">
        <ele>230</ele>
        <time>2011-10-23T15:17:31.000Z</time>
      </trkpt>
      <trkpt lat="44.46839" lon="4.37738">
        <ele>229</ele>
        <time>2011-10-23T15:17:33.000Z</time>
      </trkpt>
      <trkpt lat="44.46825" lon="4.37674">
        <ele>224</ele>
        <time>2011-10-23T15:17:40.000Z</time>
      </trkpt>
      <trkpt lat="44.46824" lon="4.37667">
        <ele>224</ele>
        <time>2011-10-23T15:17:41.000Z</time>
      </trkpt>
      <trkpt lat="44.46821" lon="4.37644">
        <ele>223</ele>
        <time>2011-10-23T15:17:44.000Z</time>
      </trkpt>
      <trkpt lat="44.46809" lon="4.37586">
        <ele>222</ele>
        <time>2011-10-23T15:17:52.000Z</time>
      </trkpt>
      <trkpt lat="44.46807" lon="4.37579">
        <ele>222</ele>
        <time>2011-10-23T15:17:53.000Z</time>
      </trkpt>
      <trkpt lat="44.46795" lon="4.37527">
        <ele>221</ele>
        <time>2011-10-23T15:18:00.000Z</time>
      </trkpt>
      <trkpt lat="44.468" lon="4.37492">
        <ele>219</ele>
        <time>2011-10-23T15:18:05.000Z</time>
      </trkpt>
      <trkpt lat="44.46815" lon="4.37465">
        <ele>217</ele>
        <time>2011-10-23T15:18:09.000Z</time>
      </trkpt>
      <trkpt lat="44.46824" lon="4.37464">
        <ele>217</ele>
        <time>2011-10-23T15:19:02.000Z</time>
      </trkpt>
      <trkpt lat="44.46835" lon="4.37465">
        <ele>216</ele>
        <time>2011-10-23T15:19:08.000Z</time>
      </trkpt>
      <trkpt lat="44.46843" lon="4.37467">
        <ele>215</ele>
        <time>2011-10-23T15:19:13.000Z</time>
      </trkpt>
      <trkpt lat="44.46851" lon="4.37462">
        <ele>214</ele>
        <time>2011-10-23T15:19:16.000Z</time>
      </trkpt>
      <trkpt lat="44.46863" lon="4.37443">
        <ele>212</ele>
        <time>2011-10-23T15:19:20.000Z</time>
      </trkpt>
      <trkpt lat="44.46873" lon="4.37424">
        <ele>210</ele>
        <time>2011-10-23T15:19:25.000Z</time>
      </trkpt>
      <trkpt lat="44.4688" lon="4.37413">
        <ele>208</ele>
        <time>2011-10-23T15:19:29.000Z</time>
      </trkpt>
      <trkpt lat="44.46883" lon="4.37405">
        <ele>207</ele>
        <time>2011-10-23T15:19:31.000Z</time>
      </trkpt>
      <trkpt lat="44.46889" lon="4.37376">
        <ele>204</ele>
        <time>2011-10-23T15:19:36.000Z</time>
      </trkpt>
      <trkpt lat="44.469" lon="4.37312">
        <ele>201</ele>
        <time>2011-10-23T15:19:45.000Z</time>
      </trkpt>
      <trkpt lat="44.46901" lon="4.37305">
        <ele>200</ele>
        <time>2011-10-23T15:19:46.000Z</time>
      </trkpt>
      <trkpt lat="44.46916" lon="4.37244">
        <ele>200</ele>
        <time>2011-10-23T15:19:57.000Z</time>
      </trkpt>
      <trkpt lat="44.46917" lon="4.37239">
        <ele>200</ele>
        <time>2011-10-23T15:19:58.000Z</time>
      </trkpt>
      <trkpt lat="44.46922" lon="4.3721">
        <ele>201</ele>
        <time>2011-10-23T15:20:04.000Z</time>
      </trkpt>
      <trkpt lat="44.46922" lon="4.372">
        <ele>201</ele>
        <time>2011-10-23T15:20:06.000Z</time>
      </trkpt>
      <trkpt lat="44.46917" lon="4.37158">
        <ele>199</ele>
        <time>2011-10-23T15:20:14.000Z</time>
      </trkpt>
      <trkpt lat="44.46918" lon="4.37145">
        <ele>199</ele>
        <time>2011-10-23T15:20:16.000Z</time>
      </trkpt>
      <trkpt lat="44.46925" lon="4.37116">
        <ele>196</ele>
        <time>2011-10-23T15:20:20.000Z</time>
      </trkpt>
      <trkpt lat="44.46941" lon="4.37055">
        <ele>193</ele>
        <time>2011-10-23T15:20:28.000Z</time>
      </trkpt>
      <trkpt lat="44.46944" lon="4.37049">
        <ele>193</ele>
        <time>2011-10-23T15:20:29.000Z</time>
      </trkpt>
      <trkpt lat="44.46967" lon="4.36995">
        <ele>192</ele>
        <time>2011-10-23T15:20:37.000Z</time>
      </trkpt>
      <trkpt lat="44.46969" lon="4.36987">
        <ele>192</ele>
        <time>2011-10-23T15:20:38.000Z</time>
      </trkpt>
      <trkpt lat="44.46992" lon="4.36932">
        <ele>189</ele>
        <time>2011-10-23T15:20:45.000Z</time>
      </trkpt>
      <trkpt lat="44.46997" lon="4.36925">
        <ele>188</ele>
        <time>2011-10-23T15:20:46.000Z</time>
      </trkpt>
      <trkpt lat="44.47029" lon="4.36877">
        <ele>185</ele>
        <time>2011-10-23T15:20:53.000Z</time>
      </trkpt>
      <trkpt lat="44.47033" lon="4.3687">
        <ele>184</ele>
        <time>2011-10-23T15:20:54.000Z</time>
      </trkpt>
      <trkpt lat="44.47065" lon="4.36819">
        <ele>184</ele>
        <time>2011-10-23T15:21:02.000Z</time>
      </trkpt>
      <trkpt lat="44.4707" lon="4.36814">
        <ele>184</ele>
        <time>2011-10-23T15:21:03.000Z</time>
      </trkpt>
      <trkpt lat="44.47102" lon="4.3677">
        <ele>181</ele>
        <time>2011-10-23T15:21:10.000Z</time>
      </trkpt>
      <trkpt lat="44.47107" lon="4.36761">
        <ele>180</ele>
        <time>2011-10-23T15:21:11.000Z</time>
      </trkpt>
      <trkpt lat="44.4713" lon="4.3672">
        <ele>178</ele>
        <time>2011-10-23T15:21:16.000Z</time>
      </trkpt>
      <trkpt lat="44.47133" lon="4.36702">
        <ele>177</ele>
        <time>2011-10-23T15:21:18.000Z</time>
      </trkpt>
      <trkpt lat="44.47132" lon="4.36644">
        <ele>176</ele>
        <time>2011-10-23T15:21:25.000Z</time>
      </trkpt>
      <trkpt lat="44.47133" lon="4.36637">
        <ele>175</ele>
        <time>2011-10-23T15:21:26.000Z</time>
      </trkpt>
      <trkpt lat="44.47142" lon="4.36589">
        <ele>175</ele>
        <time>2011-10-23T15:21:35.000Z</time>
      </trkpt>
      <trkpt lat="44.4716" lon="4.36528">
        <ele>173</ele>
        <time>2011-10-23T15:21:44.000Z</time>
      </trkpt>
      <trkpt lat="44.47163" lon="4.3652">
        <ele>172</ele>
        <time>2011-10-23T15:21:45.000Z</time>
      </trkpt>
      <trkpt lat="44.47168" lon="4.36503">
        <ele>171</ele>
        <time>2011-10-23T15:21:47.000Z</time>
      </trkpt>
      <trkpt lat="44.4719" lon="4.36446">
        <ele>166</ele>
        <time>2011-10-23T15:21:53.000Z</time>
      </trkpt>
      <trkpt lat="44.47194" lon="4.36436">
        <ele>165</ele>
        <time>2011-10-23T15:21:54.000Z</time>
      </trkpt>
      <trkpt lat="44.47218" lon="4.36372">
        <ele>160</ele>
        <time>2011-10-23T15:22:00.000Z</time>
      </trkpt>
      <trkpt lat="44.47222" lon="4.3636">
        <ele>158</ele>
        <time>2011-10-23T15:22:01.000Z</time>
      </trkpt>
      <trkpt lat="44.47239" lon="4.36299">
        <ele>151</ele>
        <time>2011-10-23T15:22:08.000Z</time>
      </trkpt>
      <trkpt lat="44.47241" lon="4.36294">
        <ele>150</ele>
        <time>2011-10-23T15:22:09.000Z</time>
      </trkpt>
      <trkpt lat="44.47243" lon="4.36291">
        <ele>149</ele>
        <time>2011-10-23T15:22:10.000Z</time>
      </trkpt>
      <trkpt lat="44.47251" lon="4.36291">
        <ele>148</ele>
        <time>2011-10-23T15:22:12.000Z</time>
      </trkpt>
      <trkpt lat="44.47297" lon="4.36295">
        <ele>148</ele>
        <time>2011-10-23T15:22:22.000Z</time>
      </trkpt>
      <trkpt lat="44.47303" lon="4.36295">
        <ele>148</ele>
        <time>2011-10-23T15:22:23.000Z</time>
      </trkpt>
      <trkpt lat="44.47343" lon="4.36298">
        <ele>146</ele>
        <time>2011-10-23T15:22:30.000Z</time>
      </trkpt>
      <trkpt lat="44.4735" lon="4.3629">
        <ele>145</ele>
        <time>2011-10-23T15:22:32.000Z</time>
      </trkpt>
      <trkpt lat="44.47366" lon="4.36258">
        <ele>143</ele>
        <time>2011-10-23T15:22:36.000Z</time>
      </trkpt>
      <trkpt lat="44.47401" lon="4.36207">
        <ele>139</ele>
        <time>2011-10-23T15:22:43.000Z</time>
      </trkpt>
      <trkpt lat="44.47404" lon="4.36201">
        <ele>139</ele>
        <time>2011-10-23T15:22:44.000Z</time>
      </trkpt>
      <trkpt lat="44.47413" lon="4.36193">
        <ele>139</ele>
        <time>2011-10-23T15:22:46.000Z</time>
      </trkpt>
      <trkpt lat="44.47449" lon="4.36147">
        <ele>137</ele>
        <time>2011-10-23T15:22:54.000Z</time>
      </trkpt>
      <trkpt lat="44.47454" lon="4.36141">
        <ele>137</ele>
        <time>2011-10-23T15:22:55.000Z</time>
      </trkpt>
      <trkpt lat="44.47458" lon="4.36135">
        <ele>137</ele>
        <time>2011-10-23T15:22:56.000Z</time>
      </trkpt>
      <trkpt lat="44.47475" lon="4.36112">
        <ele>136</ele>
        <time>2011-10-23T15:23:01.000Z</time>
      </trkpt>
      <trkpt lat="44.47482" lon="4.36114">
        <ele>136</ele>
        <time>2011-10-23T15:23:03.000Z</time>
      </trkpt>
      <trkpt lat="44.4752" lon="4.36158">
        <ele>134</ele>
        <time>2011-10-23T15:23:12.000Z</time>
      </trkpt>
      <trkpt lat="44.47525" lon="4.36163">
        <ele>134</ele>
        <time>2011-10-23T15:23:13.000Z</time>
      </trkpt>
      <trkpt lat="44.47561" lon="4.36206">
        <ele>133</ele>
        <time>2011-10-23T15:23:21.000Z</time>
      </trkpt>
      <trkpt lat="44.47565" lon="4.36212">
        <ele>133</ele>
        <time>2011-10-23T15:23:22.000Z</time>
      </trkpt>
      <trkpt lat="44.47596" lon="4.36267">
        <ele>132</ele>
        <time>2011-10-23T15:23:31.000Z</time>
      </trkpt>
      <trkpt lat="44.476" lon="4.36273">
        <ele>131</ele>
        <time>2011-10-23T15:23:32.000Z</time>
      </trkpt>
      <trkpt lat="44.47611" lon="4.36286">
        <ele>131</ele>
        <time>2011-10-23T15:23:35.000Z</time>
      </trkpt>
      <trkpt lat="44.4762" lon="4.36289">
        <ele>131</ele>
        <time>2011-10-23T15:23:37.000Z</time>
      </trkpt>
      <trkpt lat="44.47627" lon="4.36283">
        <ele>131</ele>
        <time>2011-10-23T15:23:39.000Z</time>
      </trkpt>
      <trkpt lat="44.4763" lon="4.36273">
        <ele>131</ele>
        <time>2011-10-23T15:23:41.000Z</time>
      </trkpt>
      <trkpt lat="44.47626" lon="4.36227">
        <ele>133</ele>
        <time>2011-10-23T15:23:51.000Z</time>
      </trkpt>
      <trkpt lat="44.47626" lon="4.36218">
        <ele>133</ele>
        <time>2011-10-23T15:23:53.000Z</time>
      </trkpt>
      <trkpt lat="44.47627" lon="4.36194">
        <ele>136</ele>
        <time>2011-10-23T15:23:58.000Z</time>
      </trkpt>
      <trkpt lat="44.47629" lon="4.36185">
        <ele>136</ele>
        <time>2011-10-23T15:24:00.000Z</time>
      </trkpt>
      <trkpt lat="44.47638" lon="4.36139">
        <ele>136</ele>
        <time>2011-10-23T15:24:10.000Z</time>
      </trkpt>
      <trkpt lat="44.47638" lon="4.36132">
        <ele>136</ele>
        <time>2011-10-23T15:24:12.000Z</time>
      </trkpt>
      <trkpt lat="44.47627" lon="4.36108">
        <ele>139</ele>
        <time>2011-10-23T15:24:24.000Z</time>
      </trkpt>
      <trkpt lat="44.47628" lon="4.36101">
        <ele>139</ele>
        <time>2011-10-23T15:24:36.000Z</time>
      </trkpt>
      <trkpt lat="44.47625" lon="4.36096">
        <ele>141</ele>
        <time>2011-10-23T15:25:15.000Z</time>
      </trkpt>
      <trkpt lat="44.4763" lon="4.36098">
        <ele>146</ele>
        <time>2011-10-23T15:27:19.000Z</time>
      </trkpt>
      <trkpt lat="44.47622" lon="4.36096">
        <ele>139</ele>
        <time>2011-10-23T15:29:42.000Z</time>
      </trkpt>
      <trkpt lat="44.47626" lon="4.36092">
        <ele>136</ele>
        <time>2011-10-23T15:30:45.000Z</time>
      </trkpt>
      <trkpt lat="44.47628" lon="4.36101">
        <ele>135</ele>
        <time>2011-10-23T15:31:26.000Z</time>
      </trkpt>
      <trkpt lat="44.47628" lon="4.36102">
        <ele>135</ele>
        <time>2011-10-23T15:31:42.000Z</time>
      </trkpt>
    </trkseg>
  </trk>
</gpx>